Provisional Data: Ninemile Run near Walton, PA


Please select a monitoring station.
Please select start date.
Please select start date.

Toggle Unit: C/F Toggle Unit: C/F
Sample Time Temperature (C) Temperature (F) Specific Conductivity (mS/cm) pH   Turbidity (NTU+) DO (mg/L)
5/17/2022 12:00:00 AM 10.54 50.972 0.048 6.76 3.11 9.92
5/17/2022 12:15:00 AM 10.47 50.846 0.049 6.73 2.98 9.95
5/17/2022 12:30:00 AM 10.4 50.72 0.049 6.72 2.94 9.97
5/17/2022 12:45:00 AM 10.34 50.612 0.049 6.71 2.98 9.99
5/17/2022 1:00:00 AM 10.28 50.504 0.049 6.75 3 10
5/17/2022 1:15:00 AM 10.21 50.378 0.049 6.75 2.82 10.02
5/17/2022 1:30:00 AM 10.13 50.234 0.048 6.74 3.08 10.05
5/17/2022 1:45:00 AM 10.06 50.108 0.049 6.72 2.77 10.07
5/17/2022 2:00:00 AM 9.99 49.982 0.048 6.76 3.03 10.08
5/17/2022 2:15:00 AM 9.93 49.874 0.05 6.73 2.94 10.1
5/17/2022 2:30:00 AM 9.89 49.802 0.049 6.75 3.13 10.11
5/17/2022 2:45:00 AM 9.84 49.712 0.049 6.74 2.81 10.13
5/17/2022 3:00:00 AM 9.79 49.622 0.049 6.73 2.87 10.14
5/17/2022 3:15:00 AM 9.74 49.532 0.049 6.72 2.67 10.15
5/17/2022 3:30:00 AM 9.68 49.424 0.05 6.73 2.8 10.17
5/17/2022 3:45:00 AM 9.62 49.316 0.05 6.73 2.69 10.18
5/17/2022 4:00:00 AM 9.56 49.208 0.05 6.77 2.89 10.19
5/17/2022 4:15:00 AM 9.51 49.118 0.049 6.75 2.84 10.21
5/17/2022 4:30:00 AM 9.46 49.028 0.05 6.77 2.79 10.22
5/17/2022 4:45:00 AM 9.44 48.992 0.049 6.73 2.79 10.23
5/17/2022 5:00:00 AM 9.4 48.92 0.049 6.73 2.87 10.24
5/17/2022 5:15:00 AM 9.36 48.848 0.049 6.75 3.36 10.25
5/17/2022 5:30:00 AM 9.31 48.758 0.049 6.74 2.87 10.27
5/17/2022 5:45:00 AM 9.27 48.686 0.049 6.75 3.14 10.28
5/17/2022 6:00:00 AM 9.22 48.596 0.049 6.76 2.57 10.3
5/17/2022 6:15:00 AM 9.16 48.488 0.049 6.72 2.67 10.32
5/17/2022 6:30:00 AM 9.1 48.38 0.049 6.76 2.74 10.36
5/17/2022 6:45:00 AM 9.05 48.29 0.049 6.74 2.49 10.39
5/17/2022 7:00:00 AM 9.04 48.272 0.049 6.77 2.56 10.45
5/17/2022 7:15:00 AM 9.04 48.272 0.047 6.79 2.38 10.49
5/17/2022 7:30:00 AM 9.04 48.272 0.049 6.81 2.66 10.52
5/17/2022 7:45:00 AM 9.05 48.29 0.049 6.79 2.56 10.54
5/17/2022 8:00:00 AM 9.07 48.326 0.048 6.82 2.54 10.57
5/17/2022 8:15:00 AM 9.14 48.452 0.049 6.83 2.27 10.59
5/17/2022 8:30:00 AM 9.24 48.632 0.048 6.86 2.47 10.6
5/17/2022 8:45:00 AM 9.37 48.866 0.048 6.86 2.32 10.61
5/17/2022 9:00:00 AM 9.53 49.154 0.048 6.85 2.16 10.6
5/17/2022 9:15:00 AM 9.69 49.442 0.048 6.87 2.35 10.59
5/17/2022 9:30:00 AM 9.85 49.73 0.049 6.9 2.3 10.56
5/17/2022 9:45:00 AM 10.05 50.09 0.048 6.89 2.32 10.53
5/17/2022 10:00:00 AM 10.29 50.522 0.048 6.9 2.01 10.5
5/17/2022 10:15:00 AM 10.51 50.918 0.048 6.94 2.18 10.45
5/17/2022 10:30:00 AM 10.77 51.386 0.047 6.94 2.12 10.41
5/17/2022 10:45:00 AM 11.01 51.818 0.048 6.96 2.25 10.36
5/17/2022 11:00:00 AM 11.26 52.268 0.048 6.91 2.23 10.31
5/17/2022 11:15:00 AM 11.5 52.7 0.048 6.95 2.22 10.26
5/17/2022 11:30:00 AM 11.73 53.114 0.048 6.95 2.33 10.22
5/17/2022 11:45:00 AM 11.97 53.546 0.047 6.96 2.33 10.17
5/17/2022 12:00:00 PM 12.2 53.96 0.047 6.92 2.28 10.12
5/17/2022 12:15:00 PM 12.44 54.392 0.047 6.97 2.48 10.07
5/17/2022 12:30:00 PM 12.68 54.824 0.048 6.96 2.33 10.02
5/17/2022 12:45:00 PM 12.93 55.274 0.048 6.98 2.33 9.97
5/17/2022 1:00:00 PM 13.16 55.688 0.047 6.94 2.27 9.91
5/17/2022 1:15:00 PM 13.42 56.156 0.048 6.97 2.44 9.86
5/17/2022 1:30:00 PM 13.61 56.498 0.047 6.95 2.42 9.8
5/17/2022 1:45:00 PM 13.75 56.75 0.047 6.97 2.45 9.75
5/17/2022 2:00:00 PM 13.81 56.858 0.046 6.94 2.46 9.71
5/17/2022 2:15:00 PM 14.01 57.218 0.047 6.99 2.43 9.68
5/17/2022 2:30:00 PM 14.2 57.56 0.048 6.96 2.35 9.65
5/17/2022 2:45:00 PM 14.26 57.668 0.047 6.97 2.65 9.61
5/17/2022 3:00:00 PM 14.33 57.794 0.047 6.96 2.43 9.58
5/17/2022 3:15:00 PM 14.45 58.01 0.048 6.99 2.57 9.55
5/17/2022 3:30:00 PM 14.64 58.352 0.046 6.95 2.54 9.54
5/17/2022 3:45:00 PM 14.81 58.658 0.046 6.99 2.7 9.5
5/17/2022 4:00:00 PM 14.93 58.874 0.047 6.99 2.61 9.47
5/17/2022 4:15:00 PM 14.97 58.946 0.047 6.99 2.74 9.44
5/17/2022 4:30:00 PM 14.98 58.964 0.047 6.95 2.86 9.42
5/17/2022 4:45:00 PM 14.96 58.928 0.047 6.99 2.64 9.41
5/17/2022 5:00:00 PM 14.84 58.712 0.047 6.95 2.71 9.41
5/17/2022 5:15:00 PM 14.71 58.478 0.047 6.98 3.03 9.41
5/17/2022 5:30:00 PM 14.54 58.172 0.047 6.97 2.7 9.43
5/17/2022 5:45:00 PM 14.35 57.83 0.047 6.98 2.91 9.45
5/17/2022 6:00:00 PM 14.18 57.524 0.047 6.93 2.74 9.48
5/17/2022 6:15:00 PM 13.94 57.092 0.047 6.94 2.62 9.49
5/17/2022 6:30:00 PM 13.68 56.624 0.047 6.94 2.86 9.51
5/17/2022 6:45:00 PM 13.46 56.228 0.048 6.94 2.81 9.54
5/17/2022 7:00:00 PM 13.27 55.886 0.048 6.91 2.87 9.56
5/17/2022 7:15:00 PM 13.08 55.544 0.048 6.91 2.62 9.58
5/17/2022 7:30:00 PM 12.86 55.148 0.047 6.9 2.52 9.58
5/17/2022 7:45:00 PM 12.67 54.806 0.047 6.92 2.8 9.6
5/17/2022 8:00:00 PM 12.51 54.518 0.047 6.86 2.56 9.62
5/17/2022 8:15:00 PM 12.36 54.248 0.047 6.89 2.6 9.63
5/17/2022 8:30:00 PM 12.21 53.978 0.047 6.83 2.51 9.64
5/17/2022 8:45:00 PM 12.06 53.708 0.048 6.87 2.52 9.66
5/17/2022 9:00:00 PM 11.92 53.456 0.048 6.83 3.17 9.68
5/17/2022 9:15:00 PM 11.79 53.222 0.048 6.86 2.64 9.7
5/17/2022 9:30:00 PM 11.67 53.006 0.048 6.8 2.62 9.73
5/17/2022 9:45:00 PM 11.55 52.79 0.048 6.82 2.68 9.76
5/17/2022 10:00:00 PM 11.41 52.538 0.048 6.82 2.85 9.79
5/17/2022 10:15:00 PM 11.27 52.286 0.048 6.79 2.83 9.82
5/17/2022 10:30:00 PM 11.13 52.034 0.048 6.77 2.79 9.85
5/17/2022 10:45:00 PM 10.99 51.782 0.048 6.8 2.92 9.89
5/17/2022 11:00:00 PM 10.85 51.53 0.048 6.79 3.12 9.93
5/17/2022 11:15:00 PM 10.72 51.296 0.048 6.81 2.79 9.96
5/17/2022 11:30:00 PM 10.59 51.062 0.049 6.76 2.74 9.99
5/17/2022 11:45:00 PM 10.46 50.828 0.048 6.77 2.68 10.03
5/18/2022 12:00:00 AM 10.33 50.594 0.049 6.77 2.69 10.06
5/18/2022 12:15:00 AM 10.2 50.36 0.048 6.78 2.66 10.09
5/18/2022 12:30:00 AM 10.08 50.144 0.047 6.76 2.57 10.12
5/18/2022 12:45:00 AM 9.96 49.928 0.048 6.75 2.79 10.16
5/18/2022 1:00:00 AM 9.84 49.712 0.049 6.72 2.53 10.18
5/18/2022 1:15:00 AM 9.73 49.514 0.048 6.75 2.74 10.21
5/18/2022 1:30:00 AM 9.63 49.334 0.048 6.72 2.9 10.24
5/18/2022 1:45:00 AM 9.53 49.154 0.048 6.75 2.7 10.27
5/18/2022 2:00:00 AM 9.43 48.974 0.048 6.72 2.79 10.29
5/18/2022 2:15:00 AM 9.33 48.794 0.048 6.76 2.73 10.31
5/18/2022 2:30:00 AM 9.24 48.632 0.048 6.74 2.47 10.34
5/18/2022 2:45:00 AM 9.14 48.452 0.048 6.77 2.65 10.37
5/18/2022 3:00:00 AM 9.05 48.29 0.049 6.74 2.66 10.39
5/18/2022 3:15:00 AM 8.96 48.128 0.049 6.74 2.69 10.42
5/18/2022 3:30:00 AM 8.88 47.984 0.048 6.77 2.55 10.44
5/18/2022 3:45:00 AM 8.79 47.822 0.048 6.73 2.46 10.47
5/18/2022 4:00:00 AM 8.71 47.678 0.048 6.75 2.63 10.49
5/18/2022 4:15:00 AM 8.64 47.552 0.047 6.73 2.72 10.51
5/18/2022 4:30:00 AM 8.56 47.408 0.048 6.79 2.5 10.53
5/18/2022 4:45:00 AM 8.48 47.264 0.047 6.74 2.4 10.55
5/18/2022 5:00:00 AM 8.41 47.138 0.048 6.76 2.52 10.57
5/18/2022 5:15:00 AM 8.33 46.994 0.047 6.77 2.66 10.59
5/18/2022 5:30:00 AM 8.26 46.868 0.047 6.72 2.55 10.61
5/18/2022 5:45:00 AM 8.19 46.742 0.048 6.77 2.4 10.63
5/18/2022 6:00:00 AM 8.12 46.616 0.047 6.76 2.41 10.66
5/18/2022 6:15:00 AM 8.06 46.508 0.047 6.78 2.35 10.69
5/18/2022 6:30:00 AM 8 46.4 0.048 6.72 2.32 10.73
5/18/2022 6:45:00 AM 7.96 46.328 0.048 6.77 2.41 10.76
5/18/2022 7:00:00 AM 7.94 46.292 0.048 6.75 2.54 10.8
5/18/2022 7:15:00 AM 7.94 46.292 0.047 6.8 2.36 10.85
5/18/2022 7:30:00 AM 7.96 46.328 0.048 6.81 2.09 10.88
5/18/2022 7:45:00 AM 8 46.4 0.049 6.85 4.66 10.9
5/18/2022 8:00:00 AM 8.08 46.544 0.047 6.86 2.94 10.93
5/18/2022 8:15:00 AM 8.19 46.742 0.047 6.87 2.24 10.94
5/18/2022 8:30:00 AM 8.3 46.94 0.047 6.9 2.28 10.95
5/18/2022 8:45:00 AM 8.41 47.138 0.046 6.89 2.37 10.95
5/18/2022 9:00:00 AM 8.53 47.354 0.047 6.91 2.25 10.94
5/18/2022 9:15:00 AM 8.71 47.678 0.046 6.94 2.34 10.93
5/18/2022 9:30:00 AM 8.93 48.074 0.047 6.95 2.21 10.9
5/18/2022 9:45:00 AM 9.18 48.524 0.047 6.95 2.16 10.86
5/18/2022 10:00:00 AM 9.4 48.92 0.047 6.97 3.35 10.82
5/18/2022 10:15:00 AM 9.64 49.352 0.048 6.92 2.58 10.78
5/18/2022 10:30:00 AM 9.82 49.676 0.047 6.97 2.25 10.73
5/18/2022 10:45:00 AM 10.05 50.09 0.046 6.98 2.15 10.68
5/18/2022 11:00:00 AM 10.24 50.432 0.046 6.94 2.32 10.64
5/18/2022 11:15:00 AM 10.42 50.756 0.047 6.97 2.21 10.59
5/18/2022 11:30:00 AM 10.72 51.296 0.045 6.99 2.34 10.54
5/18/2022 11:45:00 AM 11.01 51.818 0.047 6.99 2.19 10.48
5/18/2022 12:00:00 PM 11.31 52.358 0.045 7 2.33 10.42
5/18/2022 12:15:00 PM 11.51 52.718 0.046 6.99 2.1 10.36
5/18/2022 12:30:00 PM 11.59 52.862 0.046 7 2.23 10.32
5/18/2022 12:45:00 PM 11.63 52.934 0.046 6.99 2.29 10.29
5/18/2022 1:00:00 PM 11.89 53.402 0.046 6.99 2.4 10.25
5/18/2022 1:15:00 PM 12.17 53.906 0.045 6.98 2.29 10.2
5/18/2022 1:30:00 PM 12.36 54.248 0.045 6.98 2.49 10.13
5/18/2022 1:45:00 PM 12.55 54.59 0.046 7 2.31 10.1
5/18/2022 2:00:00 PM 12.65 54.77 0.047 6.95 2.76 10.06
5/18/2022 2:15:00 PM 12.78 55.004 0.045 6.96 2.35 10.03
5/18/2022 2:30:00 PM 12.85 55.13 0.045 6.98 2.35 9.99
5/18/2022 2:45:00 PM 12.82 55.076 0.046 7 2.26 9.96
5/18/2022 3:00:00 PM 12.81 55.058 0.045 6.98 2.69 9.95
5/18/2022 3:15:00 PM 12.73 54.914 0.045 6.95 2.5 9.91
5/18/2022 3:30:00 PM 12.63 54.734 0.046 6.98 2.55 9.87
5/18/2022 3:45:00 PM 12.53 54.554 0.046 6.95 2.45 9.85
5/18/2022 4:00:00 PM 12.52 54.536 0.046 6.98 2.48 9.87
5/18/2022 4:15:00 PM 12.53 54.554 0.046 6.92 3.3 9.87
5/18/2022 4:30:00 PM 12.5 54.5 0.046 6.94 2.53 9.85
5/18/2022 4:45:00 PM 12.44 54.392 0.046 6.96 2.93 9.83
5/18/2022 5:00:00 PM 12.34 54.212 0.045 6.96 2.71 9.81
5/18/2022 5:15:00 PM 12.28 54.104 0.046 6.88 2.36 9.83
5/18/2022 5:30:00 PM 12.21 53.978 0.046 6.91 2.49 9.82
5/18/2022 5:45:00 PM 12.15 53.87 0.046 6.9 2.48 9.82
5/18/2022 6:00:00 PM 12.1 53.78 0.046 6.88 2.83 9.8
5/18/2022 6:15:00 PM 12.04 53.672 0.047 6.88 3.34 9.78
5/18/2022 6:30:00 PM 11.97 53.546 0.046 6.89 2.78 9.77
5/18/2022 6:45:00 PM 11.9 53.42 0.047 6.88 2.38 9.76
5/18/2022 7:00:00 PM 11.84 53.312 0.047 6.87 2.47 9.76
5/18/2022 7:15:00 PM 11.79 53.222 0.046 6.82 2.87 9.76
5/18/2022 7:30:00 PM 11.73 53.114 0.047 6.83 2.45 9.76
5/18/2022 7:45:00 PM 11.68 53.024 0.047 6.82 2.7 9.76
5/18/2022 8:00:00 PM 11.62 52.916 0.047 6.83 2.47 9.77
5/18/2022 8:15:00 PM 11.55 52.79 0.047 6.81 2.47 9.77
5/18/2022 8:30:00 PM 11.48 52.664 0.046 6.82 3.08 9.78
5/18/2022 8:45:00 PM 11.41 52.538 0.047 6.79 2.82 9.79
5/18/2022 9:00:00 PM 11.34 52.412 0.047 6.82 3.11 9.8
5/18/2022 9:15:00 PM 11.27 52.286 0.047 6.78 2.89 9.81
5/18/2022 9:30:00 PM 11.2 52.16 0.047 6.82 2.75 9.82
5/18/2022 9:45:00 PM 11.13 52.034 0.046 6.78 2.87 9.84
5/18/2022 10:00:00 PM 11.05 51.89 0.047 6.83 3.27 9.85
5/18/2022 10:15:00 PM 10.98 51.764 0.047 6.79 3.16 9.86
5/18/2022 10:30:00 PM 10.92 51.656 0.047 6.82 3.11 9.88
5/18/2022 10:45:00 PM 10.85 51.53 0.047 6.79 3.13 9.89
5/18/2022 11:00:00 PM 10.78 51.404 0.047 6.8 3.25 9.9
5/18/2022 11:15:00 PM 10.72 51.296 0.046 6.78 3.52 9.91
5/18/2022 11:30:00 PM 10.66 51.188 0.047 6.78 3.35 9.92
5/18/2022 11:45:00 PM 10.61 51.098 0.047 6.81 3.08 9.94
5/19/2022 12:00:00 AM 10.55 50.99 0.048 6.8 3.55 9.95
5/19/2022 12:15:00 AM 10.5 50.9 0.048 6.81 3.37 9.97
5/19/2022 12:30:00 AM 10.46 50.828 0.048 6.8 3.21 9.98
5/19/2022 12:45:00 AM 10.41 50.738 0.048 6.8 3.76 9.99
5/19/2022 1:00:00 AM 10.37 50.666 0.047 6.78 3.41 10
5/19/2022 1:15:00 AM 10.33 50.594 0.047 6.79 3.39 10.01
5/19/2022 1:30:00 AM 10.29 50.522 0.048 6.78 3.59 10.02
5/19/2022 1:45:00 AM 10.25 50.45 0.048 6.77 3.24 10.02
5/19/2022 2:00:00 AM 10.22 50.396 0.048 6.8 3.73 10.03
5/19/2022 2:15:00 AM 10.19 50.342 0.048 6.8 3.26 10.04
5/19/2022 2:30:00 AM 10.16 50.288 0.048 6.78 3.21 10.05
5/19/2022 2:45:00 AM 10.12 50.216 0.047 6.78 2.97 10.06
5/19/2022 3:00:00 AM 10.09 50.162 0.047 6.79 3 10.06
5/19/2022 3:15:00 AM 10.07 50.126 0.048 6.78 3.58 10.06
5/19/2022 3:30:00 AM 10.04 50.072 0.048 6.75 3.09 10.07
5/19/2022 3:45:00 AM 10.02 50.036 0.047 6.79 3.1 10.07
5/19/2022 4:00:00 AM 9.99 49.982 0.048 6.76 2.9 10.08
5/19/2022 4:15:00 AM 9.97 49.946 0.048 6.75 2.96 10.08
5/19/2022 4:30:00 AM 9.95 49.91 0.048 6.73 3.1 10.08
5/19/2022 4:45:00 AM 9.93 49.874 0.049 6.77 2.85 10.09
5/19/2022 5:00:00 AM 9.92 49.856 0.048 6.78 3.06 10.1
5/19/2022 5:15:00 AM 9.9 49.82 0.048 6.78 3.43 10.1
5/19/2022 5:30:00 AM 9.88 49.784 0.048 6.78 3.21 10.1
5/19/2022 5:45:00 AM 9.87 49.766 0.048 6.77 3.53 10.1
5/19/2022 6:00:00 AM 9.86 49.748 0.049 6.78 3.19 10.11
5/19/2022 6:15:00 AM 9.85 49.73 0.048 6.76 3.38 10.12
5/19/2022 6:30:00 AM 9.84 49.712 0.049 6.75 2.93 10.13
5/19/2022 6:45:00 AM 9.84 49.712 0.049 6.77 2.92 10.13
5/19/2022 7:00:00 AM 9.83 49.694 0.049 6.72 2.95 10.14
5/19/2022 7:15:00 AM 9.83 49.694 0.049 6.76 2.93 10.15
5/19/2022 7:30:00 AM 9.83 49.694 0.048 6.74 2.71 10.16
5/19/2022 7:45:00 AM 9.84 49.712 0.049 6.78 3.37 10.17
5/19/2022 8:00:00 AM 9.85 49.73 0.049 6.76 2.66 10.18
5/19/2022 8:15:00 AM 9.85 49.73 0.049 6.79 2.43 10.19
5/19/2022 8:30:00 AM 9.86 49.748 0.05 6.76 2.63 10.2
5/19/2022 8:45:00 AM 9.87 49.766 0.049 6.78 2.45 10.21
5/19/2022 9:00:00 AM 9.88 49.784 0.05 6.81 2.37 10.21
5/19/2022 9:15:00 AM 9.9 49.82 0.05 6.81 2.49 10.22
5/19/2022 9:30:00 AM 9.93 49.874 0.05 6.82 2.55 10.24
5/19/2022 9:45:00 AM 9.95 49.91 0.05 6.83 2.32 10.25
5/19/2022 10:00:00 AM 9.99 49.982 0.05 6.84 2.21 10.27
5/19/2022 10:15:00 AM 10.03 50.054 0.05 6.86 2.34 10.28
5/19/2022 10:30:00 AM 10.07 50.126 0.051 6.81 2.27 10.29
5/19/2022 10:45:00 AM 10.11 50.198 0.05 6.86 2.32 10.29
5/19/2022 11:00:00 AM 10.13 50.234 0.05 6.84 2.49 10.28
5/19/2022 11:15:00 AM 10.17 50.306 0.051 6.83 2.43 10.29
5/19/2022 11:30:00 AM 10.2 50.36 0.049 6.82 2.36 10.28
5/19/2022 11:45:00 AM 10.28 50.504 0.05 6.89 2.33 10.3
5/19/2022 12:00:00 PM 10.44 50.792 0.05 6.9 2.45 10.32
5/19/2022 12:15:00 PM 10.6 51.08 0.051 6.92 2.42 10.31
5/19/2022 12:30:00 PM 10.92 51.656 0.05 6.93 2.35 10.29
5/19/2022 12:45:00 PM 11.17 52.106 0.051 6.94 2.39 10.25
5/19/2022 1:00:00 PM 11.35 52.43 0.05 6.91 2.11 10.21
5/19/2022 1:15:00 PM 11.63 52.934 0.05 6.94 2.37 10.19
5/19/2022 1:30:00 PM 11.64 52.952 0.05 6.94 2.37 10.12
5/19/2022 1:45:00 PM 11.92 53.456 0.051 6.95 2.34 10.09
5/19/2022 2:00:00 PM 12.01 53.618 0.049 6.96 2.59 10.06
5/19/2022 2:15:00 PM 12.24 54.032 0.05 6.97 2.44 10.02
5/19/2022 2:30:00 PM 12.41 54.338 0.05 6.97 2.35 9.97
5/19/2022 2:45:00 PM 12.67 54.806 0.05 6.97 2.44 9.93
5/19/2022 3:00:00 PM 13.03 55.454 0.049 6.94 2.73 9.89
5/19/2022 3:15:00 PM 13.32 55.976 0.05 6.99 2.49 9.84
5/19/2022 3:30:00 PM 13.57 56.426 0.05 6.94 2.67 9.78
5/19/2022 3:45:00 PM 13.69 56.642 0.051 6.99 2.37 9.73
5/19/2022 4:00:00 PM 13.77 56.786 0.05 6.99 2.54 9.69
5/19/2022 4:15:00 PM 13.84 56.912 0.05 7 2.72 9.66
5/19/2022 4:30:00 PM 13.97 57.146 0.05 7 2.49 9.62
5/19/2022 4:45:00 PM 14.07 57.326 0.05 7 2.8 9.59
5/19/2022 5:00:00 PM 14.13 57.434 0.05 6.94 2.46 9.55
5/19/2022 5:15:00 PM 14.14 57.452 0.05 6.99 2.57 9.52
5/19/2022 5:30:00 PM 14.1 57.38 0.05 6.97 2.58 9.5
5/19/2022 5:45:00 PM 14.03 57.254 0.05 6.96 2.8 9.49
5/19/2022 6:00:00 PM 13.93 57.074 0.05 6.96 2.66 9.48
5/19/2022 6:15:00 PM 13.81 56.858 0.051 6.96 2.5 9.48
5/19/2022 6:30:00 PM 13.65 56.57 0.051 6.94 2.4 9.47
5/19/2022 6:45:00 PM 13.5 56.3 0.051 6.95 2.62 9.48
5/19/2022 7:00:00 PM 13.39 56.102 0.05 6.9 2.45 9.48
5/19/2022 7:15:00 PM 13.28 55.904 0.051 6.91 2.99 9.49
5/19/2022 7:30:00 PM 13.15 55.67 0.051 6.86 2.85 9.48
5/19/2022 7:45:00 PM 13.03 55.454 0.051 6.9 2.77 9.49
5/19/2022 8:00:00 PM 12.91 55.238 0.05 6.89 2.57 9.48
5/19/2022 8:15:00 PM 12.79 55.022 0.05 6.85 2.64 9.49
5/19/2022 8:30:00 PM 12.67 54.806 0.051 6.82 2.72 9.49
5/19/2022 8:45:00 PM 12.55 54.59 0.051 6.84 2.78 9.5
5/19/2022 9:00:00 PM 12.46 54.428 0.051 6.84 2.65 9.51
5/19/2022 9:15:00 PM 12.36 54.248 0.051 6.84 2.89 9.53
5/19/2022 9:30:00 PM 12.27 54.086 0.051 6.83 2.87 9.54
5/19/2022 9:45:00 PM 12.18 53.924 0.051 6.8 2.88 9.56
5/19/2022 10:00:00 PM 12.1 53.78 0.051 6.83 3 9.59
5/19/2022 10:15:00 PM 12.02 53.636 0.051 6.82 3.11 9.6
5/19/2022 10:30:00 PM 11.93 53.474 0.051 6.81 2.89 9.62
5/19/2022 10:45:00 PM 11.83 53.294 0.051 6.81 2.82 9.65
5/19/2022 11:00:00 PM 11.73 53.114 0.051 6.82 3.11 9.67
5/19/2022 11:15:00 PM 11.62 52.916 0.051 6.8 2.93 9.69
5/19/2022 11:30:00 PM 11.52 52.736 0.051 6.82 3.2 9.72
5/19/2022 11:45:00 PM 11.42 52.556 0.051 6.79 2.9 9.74
5/20/2022 12:00:00 AM 11.33 52.394 0.051 6.81 3.22 9.77
5/20/2022 12:15:00 AM 11.23 52.214 0.052 6.81 3.2 9.79
5/20/2022 12:30:00 AM 11.13 52.034 0.051 6.8 2.66 9.82
5/20/2022 12:45:00 AM 11.03 51.854 0.051 6.79 2.81 9.85
5/20/2022 1:00:00 AM 10.94 51.692 0.051 6.79 2.84 9.87
5/20/2022 1:15:00 AM 10.86 51.548 0.052 6.78 3.05 9.89
5/20/2022 1:30:00 AM 10.77 51.386 0.051 6.78 2.63 9.91
5/20/2022 1:45:00 AM 10.68 51.224 0.051 6.8 2.74 9.93
5/20/2022 2:00:00 AM 10.6 51.08 0.052 6.8 2.74 9.95
5/20/2022 2:15:00 AM 10.53 50.954 0.051 6.8 2.9 9.97
5/20/2022 2:30:00 AM 10.45 50.81 0.051 6.79 2.62 9.98
5/20/2022 2:45:00 AM 10.38 50.684 0.051 6.8 2.76 10
5/20/2022 3:00:00 AM 10.31 50.558 0.051 6.8 2.81 10.02
5/20/2022 3:15:00 AM 10.23 50.414 0.051 6.77 2.83 10.04
5/20/2022 3:30:00 AM 10.16 50.288 0.051 6.8 2.55 10.05
5/20/2022 3:45:00 AM 10.1 50.18 0.051 6.79 2.97 10.07
5/20/2022 4:00:00 AM 10.03 50.054 0.051 6.8 2.86 10.09
5/20/2022 4:15:00 AM 9.96 49.928 0.051 6.79 2.6 10.11
5/20/2022 4:30:00 AM 9.9 49.82 0.051 6.77 2.66 10.12
5/20/2022 4:45:00 AM 9.83 49.694 0.051 6.78 2.73 10.14
5/20/2022 5:00:00 AM 9.77 49.586 0.051 6.79 2.64 10.16
5/20/2022 5:15:00 AM 9.7 49.46 0.051 6.79 3.01 10.18
5/20/2022 5:30:00 AM 9.65 49.37 0.051 6.78 2.79 10.19
5/20/2022 5:45:00 AM 9.59 49.262 0.051 6.76 2.66 10.21
5/20/2022 6:00:00 AM 9.54 49.172 0.05 6.73 2.61 10.24
5/20/2022 6:15:00 AM 9.5 49.1 0.051 6.75 2.42 10.26
5/20/2022 6:30:00 AM 9.48 49.064 0.051 6.78 2.49 10.28
5/20/2022 6:45:00 AM 9.47 49.046 0.051 6.76 2.67 10.3
5/20/2022 7:00:00 AM 9.47 49.046 0.05 6.78 2.46 10.32
5/20/2022 7:15:00 AM 9.47 49.046 0.051 6.77 2.47 10.35
5/20/2022 7:30:00 AM 9.5 49.1 0.05 6.79 2.6 10.41
5/20/2022 7:45:00 AM 9.54 49.172 0.05 6.82 2.47 10.44
5/20/2022 8:00:00 AM 9.59 49.262 0.05 6.83 2.72 10.46
5/20/2022 8:15:00 AM 9.65 49.37 0.05 6.84 2.38 10.47
5/20/2022 8:30:00 AM 9.72 49.496 0.05 6.86 2.42 10.49
5/20/2022 8:45:00 AM 9.83 49.694 0.05 6.87 2.35 10.51
5/20/2022 9:00:00 AM 9.99 49.982 0.05 6.87 2.42 10.51
5/20/2022 9:15:00 AM 10.11 50.198 0.049 6.89 2.45 10.49
5/20/2022 9:30:00 AM 10.25 50.45 0.05 6.92 2.51 10.47
5/20/2022 9:45:00 AM 10.33 50.594 0.049 6.93 2.33 10.45
5/20/2022 10:00:00 AM 10.41 50.738 0.05 6.92 2.36 10.42
5/20/2022 10:15:00 AM 10.48 50.864 0.049 6.93 2.34 10.4
5/20/2022 10:30:00 AM 10.63 51.134 0.049 6.93 2.71 10.39
5/20/2022 10:45:00 AM 10.86 51.548 0.049 6.96 2.63 10.37
5/20/2022 11:00:00 AM 11.09 51.962 0.049 6.95 2.47 10.33
5/20/2022 11:15:00 AM 11.37 52.466 0.049 6.96 2.18 10.29
5/20/2022 11:30:00 AM 11.59 52.862 0.049 6.99 2.56 10.26
5/20/2022 11:45:00 AM 11.9 53.42 0.049 7 2.32 10.21
5/20/2022 12:00:00 PM 12.27 54.086 0.049 6.99 2.46 10.15
5/20/2022 12:15:00 PM 12.62 54.716 0.049 6.97 2.46 10.08
5/20/2022 12:30:00 PM 12.96 55.328 0.048 7.01 2.37 10.01
5/20/2022 12:45:00 PM 13.26 55.868 0.048 6.97 3.49 9.94
5/20/2022 1:00:00 PM 13.45 56.21 0.048 7 2.52 9.87
5/20/2022 1:15:00 PM 13.64 56.552 0.048 7.02 2.49 9.82
5/20/2022 1:30:00 PM 13.9 57.02 0.049 7.01 4.61 9.77
5/20/2022 1:45:00 PM 14.23 57.614 0.048 7.03 3.38 9.71
5/20/2022 2:00:00 PM 14.46 58.028 0.049 7.03 2.68 9.64
5/20/2022 2:15:00 PM 14.41 57.938 0.048 6.98 2.63 9.56
5/20/2022 2:30:00 PM 14.4 57.92 0.048 7.01 3.18 9.55
5/20/2022 2:45:00 PM 14.47 58.046 0.049 7 2.58 9.55
5/20/2022 3:00:00 PM 14.43 57.974 0.048 6.99 2.82 9.49
5/20/2022 3:15:00 PM 14.42 57.956 0.048 6.99 3.4 9.47
5/20/2022 3:30:00 PM 14.39 57.902 0.049 7.01 3.36 9.45
5/20/2022 3:45:00 PM 14.37 57.866 0.048 6.96 2.79 9.42
5/20/2022 4:00:00 PM 14.35 57.83 0.048 6.99 2.81 9.42
5/20/2022 4:15:00 PM 14.33 57.794 0.048 6.98 2.47 9.44
5/20/2022 4:30:00 PM 14.35 57.83 0.048 7 2.68 9.45
5/20/2022 4:45:00 PM 14.34 57.812 0.048 7 2.66 9.41
5/20/2022 5:00:00 PM 14.29 57.722 0.049 6.97 2.66 9.38
5/20/2022 5:15:00 PM 14.19 57.542 0.049 6.95 2.54 9.36
5/20/2022 5:30:00 PM 14.1 57.38 0.049 6.96 2.5 9.35
5/20/2022 5:45:00 PM 14.04 57.272 0.049 6.91 2.9 9.33
5/20/2022 6:00:00 PM 13.98 57.164 0.049 6.93 2.9 9.32
5/20/2022 6:15:00 PM 13.94 57.092 0.049 6.89 2.53 9.32
5/20/2022 6:30:00 PM 13.9 57.02 0.049 6.91 2.62 9.32
5/20/2022 6:45:00 PM 13.87 56.966 0.049 6.86 2.43 9.35
5/20/2022 7:00:00 PM 13.84 56.912 0.048 6.88 2.49 9.38
5/20/2022 7:15:00 PM 13.8 56.84 0.049 6.88 2.55 9.39
5/20/2022 7:30:00 PM 13.76 56.768 0.049 6.91 2.72 9.38
5/20/2022 7:45:00 PM 13.7 56.66 0.049 6.88 2.36 9.37
5/20/2022 8:00:00 PM 13.63 56.534 0.049 6.87 3.14 9.36
5/20/2022 8:15:00 PM 13.56 56.408 0.05 6.83 2.89 9.34
5/20/2022 8:30:00 PM 13.47 56.246 0.049 6.81 2.58 9.33
5/20/2022 8:45:00 PM 13.38 56.084 0.049 6.8 2.71 9.34
5/20/2022 9:00:00 PM 13.29 55.922 0.049 6.79 2.94 9.34
5/20/2022 9:15:00 PM 13.21 55.778 0.05 6.76 3.08 9.35
5/20/2022 9:30:00 PM 13.14 55.652 0.049 6.73 2.93 9.36
5/20/2022 9:45:00 PM 13.05 55.49 0.05 6.76 3.15 9.38
5/20/2022 10:00:00 PM 12.97 55.346 0.05 6.72 2.91 9.39
5/20/2022 10:15:00 PM 12.87 55.166 0.05 6.71 3.02 9.41
5/20/2022 10:30:00 PM 12.78 55.004 0.05 6.73 2.84 9.44
5/20/2022 10:45:00 PM 12.7 54.86 0.049 6.7 2.9 9.46
5/20/2022 11:00:00 PM 12.62 54.716 0.05 6.72 2.96 9.47
5/20/2022 11:15:00 PM 12.55 54.59 0.05 6.72 2.74 9.49
5/20/2022 11:30:00 PM 12.47 54.446 0.05 6.67 3.15 9.51
5/20/2022 11:45:00 PM 12.4 54.32 0.05 6.7 3.55 9.53
5/21/2022 12:00:00 AM 12.33 54.194 0.05 6.7 3.01 9.55
5/21/2022 12:15:00 AM 12.26 54.068 0.05 6.68 3.16 9.57
5/21/2022 12:30:00 AM 12.19 53.942 0.05 6.7 2.68 9.59
5/21/2022 12:45:00 AM 12.12 53.816 0.05 6.67 2.97 9.6
5/21/2022 1:00:00 AM 12.06 53.708 0.05 6.7 3.13 9.62
5/21/2022 1:15:00 AM 12.01 53.618 0.05 6.67 2.97 9.63
5/21/2022 1:30:00 AM 11.95 53.51 0.05 6.69 3.09 9.65
5/21/2022 1:45:00 AM 11.9 53.42 0.05 6.69 2.7 9.66
5/21/2022 2:00:00 AM 11.85 53.33 0.05 6.7 2.86 9.68
5/21/2022 2:15:00 AM 11.81 53.258 0.05 6.69 2.89 9.69
5/21/2022 2:30:00 AM 11.77 53.186 0.05 6.65 3.7 9.7
5/21/2022 2:45:00 AM 11.74 53.132 0.05 6.66 2.79 9.71
5/21/2022 3:00:00 AM 11.71 53.078 0.05 6.68 2.63 9.72
5/21/2022 3:15:00 AM 11.67 53.006 0.05 6.66 2.98 9.73
5/21/2022 3:30:00 AM 11.63 52.934 0.05 6.66 2.92 9.74
5/21/2022 3:45:00 AM 11.59 52.862 0.05 6.66 2.8 9.75
5/21/2022 4:00:00 AM 11.55 52.79 0.05 6.64 2.65 9.76
5/21/2022 4:15:00 AM 11.5 52.7 0.051 6.66 3.12 9.77
5/21/2022 4:30:00 AM 11.46 52.628 0.05 6.62 2.63 9.78
5/21/2022 4:45:00 AM 11.41 52.538 0.05 6.65 2.81 9.79
5/21/2022 5:00:00 AM 11.37 52.466 0.051 6.66 2.71 9.8
5/21/2022 5:15:00 AM 11.33 52.394 0.05 6.66 2.83 9.82
5/21/2022 5:30:00 AM 11.29 52.322 0.049 6.68 2.9 9.82
5/21/2022 5:45:00 AM 11.24 52.232 0.049 6.67 2.96 9.84
5/21/2022 6:00:00 AM 11.2 52.16 0.049 6.65 2.86 9.85
5/21/2022 6:15:00 AM 11.16 52.088 0.05 6.68 3.61 9.88
5/21/2022 6:30:00 AM 11.13 52.034 0.049 6.68 2.53 9.91
5/21/2022 6:45:00 AM 11.11 51.998 0.05 6.71 2.97 9.94
5/21/2022 7:00:00 AM 11.09 51.962 0.05 6.7 2.46 9.98
5/21/2022 7:15:00 AM 11.09 51.962 0.05 6.71 2.86 10.01
5/21/2022 7:30:00 AM 11.11 51.998 0.05 6.73 2.76 10.03
5/21/2022 7:45:00 AM 11.15 52.07 0.05 6.73 2.67 10.06
5/21/2022 8:00:00 AM 11.23 52.214 0.05 6.76 2.95 10.08
5/21/2022 8:15:00 AM 11.34 52.412 0.049 6.78 2.2 10.1
5/21/2022 8:30:00 AM 11.51 52.718 0.05 6.82 2.51 10.1
5/21/2022 8:45:00 AM 11.67 53.006 0.049 6.84 2.43 10.1
5/21/2022 9:00:00 AM 11.89 53.402 0.049 6.84 2.28 10.09
5/21/2022 9:15:00 AM 12.14 53.852 0.049 6.87 2.32 10.07
5/21/2022 9:30:00 AM 12.4 54.32 0.049 6.88 2.38 10.03
5/21/2022 9:45:00 AM 12.67 54.806 0.049 6.88 2.26 10
5/21/2022 10:00:00 AM 12.87 55.166 0.049 6.9 2.42 9.96
5/21/2022 10:15:00 AM 13.1 55.58 0.049 6.91 2.37 9.92
5/21/2022 10:30:00 AM 13.33 55.994 0.048 6.91 2.41 9.88
5/21/2022 10:45:00 AM 13.59 56.462 0.047 6.94 2.73 9.84
5/21/2022 11:00:00 AM 13.8 56.84 0.049 6.95 2.37 9.8
5/21/2022 11:15:00 AM 14.03 57.254 0.048 6.95 2.02 9.76
5/21/2022 11:30:00 AM 14.34 57.812 0.048 6.96 2.68 9.72
5/21/2022 11:45:00 AM 14.57 58.226 0.048 6.91 2.6 9.67
5/21/2022 12:00:00 PM 14.91 58.838 0.048 6.98 2.64 9.61
5/21/2022 12:15:00 PM 15.21 59.378 0.048 7 2.68 9.56
5/21/2022 12:30:00 PM 15.44 59.792 0.048 7.01 2.35 9.51
5/21/2022 12:45:00 PM 15.72 60.296 0.048 6.99 2.61 9.45
5/21/2022 1:00:00 PM 16.09 60.962 0.048 6.99 2.42 9.4
5/21/2022 1:15:00 PM 16.27 61.286 0.048 7.01 2.35 9.33
5/21/2022 1:30:00 PM 16.39 61.502 0.048 7.02 2.6 9.28
5/21/2022 1:45:00 PM 16.52 61.736 0.047 7.02 2.61 9.26
5/21/2022 2:00:00 PM 16.6 61.88 0.048 7.02 2.3 9.21
5/21/2022 2:15:00 PM 16.73 62.114 0.048 7.02 2.54 9.17
5/21/2022 2:30:00 PM 16.86 62.348 0.047 7.03 2.67 9.16
5/21/2022 2:45:00 PM 16.93 62.474 0.048 7.01 2.72 9.12
5/21/2022 3:00:00 PM 17.01 62.618 0.048 7.01 2.47 9.09
5/21/2022 3:15:00 PM 17.09 62.762 0.047 7 2.48 9.08
5/21/2022 3:30:00 PM 17.11 62.798 0.047 7.02 2.45 9.06
5/21/2022 3:45:00 PM 17.16 62.888 0.048 7.02 2.64 9.04
5/21/2022 4:00:00 PM 17.23 63.014 0.048 6.97 2.55 9.01
5/21/2022 4:15:00 PM 17.24 63.032 0.048 7 2.64 8.99
5/21/2022 4:30:00 PM 17.24 63.032 0.048 7.01 2.68 8.98
5/21/2022 4:45:00 PM 17.24 63.032 0.048 7.01 2.53 8.97
5/21/2022 5:00:00 PM 17.26 63.068 0.048 7.01 2.63 8.95
5/21/2022 5:15:00 PM 17.27 63.086 0.048 7 3.13 8.94
5/21/2022 5:30:00 PM 17.23 63.014 0.048 7 3.15 8.93
5/21/2022 5:45:00 PM 17.22 62.996 0.048 6.99 2.59 8.92
5/21/2022 6:00:00 PM 17.19 62.942 0.048 7 2.49 8.92
5/21/2022 6:15:00 PM 17.15 62.87 0.048 6.97 2.68 8.91
5/21/2022 6:30:00 PM 17.05 62.69 0.048 6.97 2.96 8.88
5/21/2022 6:45:00 PM 16.94 62.492 0.047 6.97 2.65 8.87
5/21/2022 7:00:00 PM 16.84 62.312 0.048 6.95 2.64 8.84
5/21/2022 7:15:00 PM 16.71 62.078 0.048 6.94 2.68 8.81
5/21/2022 7:30:00 PM 16.55 61.79 0.049 6.91 2.75 8.8
5/21/2022 7:45:00 PM 16.4 61.52 0.049 6.89 2.64 8.79
5/21/2022 8:00:00 PM 16.27 61.286 0.048 6.85 2.88 8.81
5/21/2022 8:15:00 PM 16.13 61.034 0.049 6.84 2.8 8.81
5/21/2022 8:30:00 PM 15.99 60.782 0.049 6.79 2.64 8.81
5/21/2022 8:45:00 PM 15.86 60.548 0.049 6.8 3.4 8.82
5/21/2022 9:00:00 PM 15.74 60.332 0.049 6.8 3.49 8.84
5/21/2022 9:15:00 PM 15.61 60.098 0.049 6.79 3.54 8.86
5/21/2022 9:30:00 PM 15.48 59.864 0.049 6.77 3.45 8.88
5/21/2022 9:45:00 PM 15.37 59.666 0.049 6.77 3.05 8.9
5/21/2022 10:00:00 PM 15.26 59.468 0.049 6.75 3.18 8.92
5/21/2022 10:15:00 PM 15.17 59.306 0.049 6.74 2.96 8.95
5/21/2022 10:30:00 PM 15.08 59.144 0.049 6.71 3.18 8.97
5/21/2022 10:45:00 PM 15.02 59.036 0.049 6.77 3.07 8.99
5/21/2022 11:00:00 PM 14.94 58.892 0.05 6.79 3.25 9.02
5/21/2022 11:15:00 PM 14.85 58.73 0.05 6.8 3.18 9.04
5/21/2022 11:30:00 PM 14.75 58.55 0.049 6.8 3.1 9.06
5/21/2022 11:45:00 PM 14.65 58.37 0.049 6.81 3.08 9.08
5/22/2022 12:00:00 AM 14.54 58.172 0.049 6.79 3.41 9.1
5/22/2022 12:15:00 AM 14.45 58.01 0.049 6.8 3.25 9.12
5/22/2022 12:30:00 AM 14.35 57.83 0.049 6.75 3.11 9.14
5/22/2022 12:45:00 AM 14.24 57.632 0.05 6.78 3.58 9.16
5/22/2022 1:00:00 AM 14.13 57.434 0.049 6.77 3.08 9.18
5/22/2022 1:15:00 AM 14.03 57.254 0.049 6.79 3.18 9.21
5/22/2022 1:30:00 AM 13.93 57.074 0.049 6.78 3.1 9.22
5/22/2022 1:45:00 AM 13.85 56.93 0.05 6.78 3.1 9.25
5/22/2022 2:00:00 AM 13.76 56.768 0.049 6.78 3.12 9.27
5/22/2022 2:15:00 AM 13.66 56.588 0.049 6.75 3.27 9.29
5/22/2022 2:30:00 AM 13.57 56.426 0.05 6.76 3.06 9.31
5/22/2022 2:45:00 AM 13.49 56.282 0.049 6.78 3.2 9.33
5/22/2022 3:00:00 AM 13.41 56.138 0.049 6.77 2.89 9.35
5/22/2022 3:15:00 AM 13.32 55.976 0.049 6.78 3.02 9.37
5/22/2022 3:30:00 AM 13.23 55.814 0.05 6.77 3.16 9.38
5/22/2022 3:45:00 AM 13.15 55.67 0.05 6.76 3.23 9.4
5/22/2022 4:00:00 AM 13.07 55.526 0.049 6.75 3 9.41
5/22/2022 4:15:00 AM 12.99 55.382 0.049 6.77 3.1 9.43
5/22/2022 4:30:00 AM 12.91 55.238 0.049 6.76 3.14 9.45
5/22/2022 4:45:00 AM 12.83 55.094 0.049 6.76 3 9.47
5/22/2022 5:00:00 AM 12.76 54.968 0.049 6.75 2.88 9.49
5/22/2022 5:15:00 AM 12.68 54.824 0.049 6.77 3.12 9.51
5/22/2022 5:30:00 AM 12.61 54.698 0.049 6.77 2.91 9.53
5/22/2022 5:45:00 AM 12.54 54.572 0.049 6.76 3.02 9.55
5/22/2022 6:00:00 AM 12.47 54.446 0.049 6.77 3.07 9.57
5/22/2022 6:15:00 AM 12.41 54.338 0.049 6.78 2.99 9.59
5/22/2022 6:30:00 AM 12.36 54.248 0.049 6.78 2.97 9.63
5/22/2022 6:45:00 AM 12.32 54.176 0.049 6.79 3.09 9.66
5/22/2022 7:00:00 AM 12.28 54.104 0.049 6.78 3.1 9.7
5/22/2022 7:15:00 AM 12.26 54.068 0.049 6.8 2.73 9.73
5/22/2022 7:30:00 AM 12.26 54.068 0.049 6.78 2.71 9.76
5/22/2022 7:45:00 AM 12.29 54.122 0.048 6.82 2.64 9.81
5/22/2022 8:00:00 AM 12.31 54.158 0.048 6.85 2.5 9.82
5/22/2022 8:15:00 AM 12.42 54.356 0.049 6.85 2.51 9.86
5/22/2022 8:30:00 AM 12.44 54.392 0.048 6.83 2.69 9.86
5/22/2022 8:45:00 AM 12.5 54.5 0.048 6.87 2.53 9.85
5/22/2022 9:00:00 AM 12.52 54.536 0.048 6.88 2.34 9.87
5/22/2022 9:15:00 AM 12.59 54.662 0.048 6.89 2.48 9.89
5/22/2022 9:30:00 AM 12.71 54.878 0.048 6.91 2.66 9.9
5/22/2022 9:45:00 AM 12.9 55.22 0.048 6.92 2.65 9.89
5/22/2022 10:00:00 AM 13.13 55.634 0.048 6.92 2.8 9.88
5/22/2022 10:15:00 AM 13.26 55.868 0.048 6.94 2.67 9.85
5/22/2022 10:30:00 AM 13.38 56.084 0.047 6.94 2.57 9.82
5/22/2022 10:45:00 AM 13.65 56.57 0.048 6.98 2.6 9.82
5/22/2022 11:00:00 AM 13.98 57.164 0.048 6.95 2.72 9.78
5/22/2022 11:15:00 AM 14.16 57.488 0.048 6.98 2.67 9.72
5/22/2022 11:30:00 AM 14.46 58.028 0.047 6.99 2.51 9.69
5/22/2022 11:45:00 AM 14.62 58.316 0.048 7.01 2.7 9.65
5/22/2022 12:00:00 PM 14.86 58.748 0.047 6.97 2.53 9.61
5/22/2022 12:15:00 PM 15.18 59.324 0.047 7.02 2.55 9.57
5/22/2022 12:30:00 PM 15.37 59.666 0.048 7 2.61 9.52
5/22/2022 12:45:00 PM 15.51 59.918 0.047 7.01 2.62 9.46
5/22/2022 1:00:00 PM 15.48 59.864 0.047 6.99 2.66 9.41
5/22/2022 1:15:00 PM 15.55 59.99 0.048 7.01 2.54 9.41
5/22/2022 1:30:00 PM 15.75 60.35 0.046 7.03 2.69 9.38
5/22/2022 1:45:00 PM 15.97 60.746 0.047 7.01 2.82 9.33
5/22/2022 2:00:00 PM 16.09 60.962 0.046 7.03 2.48 9.28
5/22/2022 2:15:00 PM 16.29 61.322 0.047 7.03 2.55 9.28
5/22/2022 2:30:00 PM 16.37 61.466 0.046 6.99 2.78 9.23
5/22/2022 2:45:00 PM 16.55 61.79 0.046 7.03 2.44 9.21
5/22/2022 3:00:00 PM 16.73 62.114 0.047 7.01 2.64 9.17
5/22/2022 3:15:00 PM 16.7 62.06 0.047 7.03 2.8 9.13
5/22/2022 3:30:00 PM 16.66 61.988 0.048 7.02 2.61 9.08
5/22/2022 3:45:00 PM 16.52 61.736 0.047 6.99 2.47 9.09
5/22/2022 4:00:00 PM 16.41 61.538 0.047 7.01 2.63 9.1
5/22/2022 4:15:00 PM 16.3 61.34 0.047 6.99 2.67 9.05
5/22/2022 4:30:00 PM 16.24 61.232 0.047 6.96 2.65 9.08
5/22/2022 4:45:00 PM 16.18 61.124 0.047 7.01 2.6 9.1
5/22/2022 5:00:00 PM 16.14 61.052 0.047 7 2.56 9.11
5/22/2022 5:15:00 PM 16.11 60.998 0.047 7.01 2.49 9.14
5/22/2022 5:30:00 PM 16.11 60.998 0.047 6.98 2.73 9.17
5/22/2022 5:45:00 PM 16.09 60.962 0.047 7.01 2.66 9.18
5/22/2022 6:00:00 PM 16.01 60.818 0.047 7.01 2.94 9.15
5/22/2022 6:15:00 PM 15.87 60.566 0.048 6.99 2.94 9.12
5/22/2022 6:30:00 PM 15.7 60.26 0.048 6.94 2.87 9.11
5/22/2022 6:45:00 PM 15.56 60.008 0.047 6.97 2.8 9.1
5/22/2022 7:00:00 PM 15.43 59.774 0.047 6.96 2.76 9.11
5/22/2022 7:15:00 PM 15.3 59.54 0.048 6.94 2.75 9.09
5/22/2022 7:30:00 PM 15.19 59.342 0.048 6.93 2.57 9.1
5/22/2022 7:45:00 PM 15.1 59.18 0.048 6.94 2.66 9.15
5/22/2022 8:00:00 PM 14.98 58.964 0.048 6.89 2.75 9.14
5/22/2022 8:15:00 PM 14.86 58.748 0.049 6.91 2.68 9.13
5/22/2022 8:30:00 PM 14.69 58.442 0.048 6.91 2.72 9.15
5/22/2022 8:45:00 PM 14.56 58.208 0.048 6.89 2.88 9.16
5/22/2022 9:00:00 PM 14.41 57.938 0.048 6.9 2.92 9.17
5/22/2022 9:15:00 PM 14.29 57.722 0.048 6.89 3.18 9.19
5/22/2022 9:30:00 PM 14.15 57.47 0.048 6.86 2.96 9.22
5/22/2022 9:45:00 PM 14 57.2 0.048 6.88 3.01 9.25
5/22/2022 10:00:00 PM 13.85 56.93 0.048 6.87 2.85 9.29
5/22/2022 10:15:00 PM 13.7 56.66 0.049 6.88 3.03 9.31
5/22/2022 10:30:00 PM 13.54 56.372 0.048 6.87 2.8 9.35
5/22/2022 10:45:00 PM 13.39 56.102 0.049 6.87 3.1 9.38
5/22/2022 11:00:00 PM 13.25 55.85 0.049 6.84 3.17 9.41
5/22/2022 11:15:00 PM 13.11 55.598 0.048 6.85 3 9.45
5/22/2022 11:30:00 PM 12.97 55.346 0.048 6.86 3.16 9.48
5/22/2022 11:45:00 PM 12.84 55.112 0.048 6.85 2.84 9.51
5/23/2022 12:00:00 AM 12.7 54.86 0.048 6.85 2.82 9.55
5/23/2022 12:15:00 AM 12.56 54.608 0.049 6.86 3.01 9.58
5/23/2022 12:30:00 AM 12.43 54.374 0.049 6.85 2.85 9.61
5/23/2022 12:45:00 AM 12.31 54.158 0.049 6.8 2.75 9.64
5/23/2022 1:00:00 AM 12.21 53.978 0.048 6.8 2.99 9.67
5/23/2022 1:15:00 AM 12.1 53.78 0.048 6.82 2.91 9.7
5/23/2022 1:30:00 AM 12.01 53.618 0.049 6.81 2.66 9.73
5/23/2022 1:45:00 AM 11.92 53.456 0.049 6.82 3.03 9.75
5/23/2022 2:00:00 AM 11.85 53.33 0.048 6.79 3.16 9.77
5/23/2022 2:15:00 AM 11.78 53.204 0.048 6.81 2.77 9.79
5/23/2022 2:30:00 AM 11.72 53.096 0.049 6.79 2.96 9.81
5/23/2022 2:45:00 AM 11.65 52.97 0.048 6.8 3.06 9.83
5/23/2022 3:00:00 AM 11.58 52.844 0.048 6.81 3.04 9.85
5/23/2022 3:15:00 AM 11.51 52.718 0.048 6.79 2.83 9.87
5/23/2022 3:30:00 AM 11.43 52.574 0.049 6.78 2.87 9.88
5/23/2022 3:45:00 AM 11.37 52.466 0.049 6.8 2.82 9.9
5/23/2022 4:00:00 AM 11.31 52.358 0.048 6.79 2.75 9.92
5/23/2022 4:15:00 AM 11.27 52.286 0.048 6.81 3.1 9.93
5/23/2022 4:30:00 AM 11.22 52.196 0.048 6.77 2.91 9.94
5/23/2022 4:45:00 AM 11.16 52.088 0.049 6.81 2.89 9.95
5/23/2022 5:00:00 AM 11.11 51.998 0.048 6.81 2.87 9.97
5/23/2022 5:15:00 AM 11.05 51.89 0.048 6.81 2.84 9.98
5/23/2022 5:30:00 AM 11 51.8 0.048 6.78 2.87 10
5/23/2022 5:45:00 AM 10.93 51.674 0.048 6.78 2.79 10.02
5/23/2022 6:00:00 AM 10.89 51.602 0.048 6.76 2.6 10.03
5/23/2022 6:15:00 AM 10.84 51.512 0.049 6.8 3.12 10.06
5/23/2022 6:30:00 AM 10.81 51.458 0.048 6.8 2.68 10.09
5/23/2022 6:45:00 AM 10.78 51.404 0.048 6.83 2.98 10.13
5/23/2022 7:00:00 AM 10.77 51.386 0.048 6.81 2.83 10.16
5/23/2022 7:15:00 AM 10.75 51.35 0.048 6.85 3.22 10.18
5/23/2022 7:30:00 AM 10.76 51.368 0.048 6.87 2.81 10.22
5/23/2022 7:45:00 AM 10.74 51.332 0.048 6.87 2.89 10.24
5/23/2022 8:00:00 AM 10.8 51.44 0.048 6.89 2.55 10.27
5/23/2022 8:15:00 AM 10.9 51.62 0.048 6.92 3.74 10.31
5/23/2022 8:30:00 AM 11.08 51.944 0.048 6.92 2.71 10.32
5/23/2022 8:45:00 AM 11.2 52.16 0.048 6.95 3.26 10.3
5/23/2022 9:00:00 AM 11.29 52.322 0.048 6.93 2.58 10.3
5/23/2022 9:15:00 AM 11.34 52.412 0.048 6.95 2.91 10.31
5/23/2022 9:30:00 AM 11.41 52.538 0.047 6.92 2.66 10.31
5/23/2022 9:45:00 AM 11.49 52.682 0.048 6.98 2.59 10.3
5/23/2022 10:00:00 AM 11.6 52.88 0.047 6.97 2.64 10.29
5/23/2022 10:15:00 AM 11.78 53.204 0.048 6.99 2.93 10.27
5/23/2022 10:30:00 AM 11.89 53.402 0.047 6.98 2.92 10.25
5/23/2022 10:45:00 AM 12.08 53.744 0.048 6.96 2.77 10.24
5/23/2022 11:00:00 AM 12.18 53.924 0.047 6.97 2.74 10.21
5/23/2022 11:15:00 AM 12.25 54.05 0.047 6.97 2.93 10.19
5/23/2022 11:30:00 AM 12.38 54.284 0.047 6.99 2.54 10.17
5/23/2022 11:45:00 AM 12.53 54.554 0.047 7 2.52 10.15
5/23/2022 12:00:00 PM 12.68 54.824 0.046 6.99 2.62 10.13
5/23/2022 12:15:00 PM 12.86 55.148 0.047 6.98 2.75 10.09
5/23/2022 12:30:00 PM 13.01 55.418 0.047 6.98 2.73 10.06
5/23/2022 12:45:00 PM 13.16 55.688 0.047 6.98 2.37 10.03
5/23/2022 1:00:00 PM 13.31 55.958 0.047 7 2.55 10
5/23/2022 1:15:00 PM 13.51 56.318 0.047 7.01 2.71 9.96
5/23/2022 1:30:00 PM 13.65 56.57 0.046 7 2.5 9.92
5/23/2022 1:45:00 PM 13.75 56.75 0.046 7.03 2.81 9.89
5/23/2022 2:00:00 PM 13.76 56.768 0.046 7.05 2.6 9.87
5/23/2022 2:15:00 PM 13.77 56.786 0.046 7.03 2.52 9.86
5/23/2022 2:30:00 PM 13.75 56.75 0.046 7.01 2.53 9.85
5/23/2022 2:45:00 PM 13.77 56.786 0.047 7.04 2.77 9.84
5/23/2022 3:00:00 PM 13.82 56.876 0.048 7.04 2.46 9.83
5/23/2022 3:15:00 PM 13.86 56.948 0.047 7.02 2.93 9.81
5/23/2022 3:30:00 PM 13.9 57.02 0.046 7.01 2.88 9.79
5/23/2022 3:45:00 PM 13.9 57.02 0.047 7.04 2.79 9.78
5/23/2022 4:00:00 PM 13.85 56.93 0.046 7.02 2.71 9.77
5/23/2022 4:15:00 PM 13.8 56.84 0.046 7.04 2.7 9.77
5/23/2022 4:30:00 PM 13.77 56.786 0.046 7.04 2.43 9.77
5/23/2022 4:45:00 PM 13.71 56.678 0.047 7.03 2.54 9.76
5/23/2022 5:00:00 PM 13.65 56.57 0.046 7.02 2.74 9.75
5/23/2022 5:15:00 PM 13.6 56.48 0.047 7.01 2.6 9.75
5/23/2022 5:30:00 PM 13.55 56.39 0.046 7.02 2.62 9.75
5/23/2022 5:45:00 PM 13.51 56.318 0.047 7 2.39 9.74
5/23/2022 6:00:00 PM 13.45 56.21 0.047 7.03 2.49 9.73
5/23/2022 6:15:00 PM 13.36 56.048 0.047 7.02 2.74 9.71
5/23/2022 6:30:00 PM 13.27 55.886 0.047 7 2.48 9.7
5/23/2022 6:45:00 PM 13.16 55.688 0.047 6.97 2.58 9.69
5/23/2022 7:00:00 PM 13.07 55.526 0.047 6.97 2.67 9.69
5/23/2022 7:15:00 PM 12.98 55.364 0.047 6.95 2.73 9.69
5/23/2022 7:30:00 PM 12.9 55.22 0.047 6.95 2.52 9.69
5/23/2022 7:45:00 PM 12.82 55.076 0.047 6.94 2.74 9.68
5/23/2022 8:00:00 PM 12.72 54.896 0.047 6.91 2.45 9.67
5/23/2022 8:15:00 PM 12.63 54.734 0.047 6.92 2.99 9.67
5/23/2022 8:30:00 PM 12.53 54.554 0.048 6.9 2.53 9.66
5/23/2022 8:45:00 PM 12.43 54.374 0.048 6.9 2.62 9.66
5/23/2022 9:00:00 PM 12.33 54.194 0.048 6.85 2.52 9.67
5/23/2022 9:15:00 PM 12.24 54.032 0.048 6.86 2.81 9.69
5/23/2022 9:30:00 PM 12.14 53.852 0.048 6.88 2.85 9.7
5/23/2022 9:45:00 PM 12.05 53.69 0.048 6.87 2.62 9.72
5/23/2022 10:00:00 PM 11.96 53.528 0.048 6.85 2.67 9.74
5/23/2022 10:15:00 PM 11.86 53.348 0.048 6.86 2.7 9.76
5/23/2022 10:30:00 PM 11.77 53.186 0.048 6.85 2.8 9.78
5/23/2022 10:45:00 PM 11.68 53.024 0.048 6.85 2.82 9.81
5/23/2022 11:00:00 PM 11.58 52.844 0.048 6.85 2.76 9.84
5/23/2022 11:15:00 PM 11.49 52.682 0.048 6.84 2.78 9.86
5/23/2022 11:30:00 PM 11.4 52.52 0.048 6.82 2.8 9.88
5/23/2022 11:45:00 PM 11.3 52.34 0.048 6.84 2.95 9.91
5/24/2022 12:00:00 AM 11.2 52.16 0.048 6.84 2.71 9.93
5/24/2022 12:15:00 AM 11.1 51.98 0.048 6.84 2.57 9.96
5/24/2022 12:30:00 AM 11 51.8 0.048 6.84 2.65 9.98
5/24/2022 12:45:00 AM 10.91 51.638 0.048 6.82 2.63 10.01
5/24/2022 1:00:00 AM 10.82 51.476 0.048 6.78 2.61 10.03
5/24/2022 1:15:00 AM 10.73 51.314 0.048 6.81 2.49 10.05
5/24/2022 1:30:00 AM 10.65 51.17 0.048 6.8 2.77 10.07
5/24/2022 1:45:00 AM 10.56 51.008 0.049 6.81 2.49 10.09
5/24/2022 2:00:00 AM 10.47 50.846 0.048 6.76 2.51 10.11
5/24/2022 2:15:00 AM 10.39 50.702 0.048 6.82 2.76 10.14
5/24/2022 2:30:00 AM 10.3 50.54 0.048 6.78 2.62 10.16
5/24/2022 2:45:00 AM 10.21 50.378 0.048 6.8 2.43 10.18
5/24/2022 3:00:00 AM 10.13 50.234 0.048 6.75 2.46 10.2
5/24/2022 3:15:00 AM 10.04 50.072 0.048 6.8 2.67 10.22
5/24/2022 3:30:00 AM 9.96 49.928 0.048 6.77 2.45 10.24
5/24/2022 3:45:00 AM 9.88 49.784 0.048 6.8 2.72 10.26
5/24/2022 4:00:00 AM 9.8 49.64 0.048 6.79 2.59 10.28
5/24/2022 4:15:00 AM 9.72 49.496 0.048 6.79 2.47 10.3
5/24/2022 4:30:00 AM 9.64 49.352 0.048 6.75 2.5 10.32
5/24/2022 4:45:00 AM 9.56 49.208 0.049 6.8 2.52 10.35
5/24/2022 5:00:00 AM 9.48 49.064 0.048 6.79 2.52 10.37
5/24/2022 5:15:00 AM 9.41 48.938 0.048 6.78 2.45 10.38
5/24/2022 5:30:00 AM 9.33 48.794 0.048 6.79 2.57 10.4
5/24/2022 5:45:00 AM 9.26 48.668 0.048 6.79 2.55 10.43
5/24/2022 6:00:00 AM 9.19 48.542 0.048 6.75 2.3 10.45
5/24/2022 6:15:00 AM 9.13 48.434 0.048 6.79 2.67 10.49
5/24/2022 6:30:00 AM 9.1 48.38 0.048 6.81 2.29 10.52
5/24/2022 6:45:00 AM 9.09 48.362 0.047 6.82 2.36 10.56
5/24/2022 7:00:00 AM 9.09 48.362 0.047 6.8 2.39 10.59
5/24/2022 7:15:00 AM 9.11 48.398 0.048 6.83 2.37 10.62
5/24/2022 7:30:00 AM 9.11 48.398 0.047 6.85 2.41 10.65
5/24/2022 7:45:00 AM 9.12 48.416 0.047 6.87 2.29 10.67
5/24/2022 8:00:00 AM 9.13 48.434 0.047 6.83 2.13 10.68
5/24/2022 8:15:00 AM 9.2 48.56 0.047 6.9 2.23 10.71
5/24/2022 8:30:00 AM 9.32 48.776 0.047 6.88 2.26 10.72
5/24/2022 8:45:00 AM 9.47 49.046 0.047 6.92 2.2 10.71
5/24/2022 9:00:00 AM 9.66 49.388 0.047 6.94 2.24 10.7
5/24/2022 9:15:00 AM 9.87 49.766 0.047 6.94 2.25 10.67
5/24/2022 9:30:00 AM 10.08 50.144 0.047 6.95 2.45 10.64
5/24/2022 9:45:00 AM 10.3 50.54 0.048 6.96 2.39 10.6
5/24/2022 10:00:00 AM 10.47 50.846 0.047 6.96 2.65 10.58
5/24/2022 10:15:00 AM 10.51 50.918 0.048 6.97 2.6 10.55
5/24/2022 10:30:00 AM 10.57 51.026 0.046 6.99 2.41 10.55
5/24/2022 10:45:00 AM 10.63 51.134 0.047 6.99 2.65 10.54
5/24/2022 11:00:00 AM 10.76 51.368 0.047 6.96 2.12 10.52
5/24/2022 11:15:00 AM 10.89 51.602 0.046 7 3.3 10.49
5/24/2022 11:30:00 AM 11.05 51.89 0.047 7 2.65 10.47
5/24/2022 11:45:00 AM 11.19 52.142 0.046 6.99 2.42 10.43
5/24/2022 12:00:00 PM 11.39 52.502 0.046 7.02 2.33 10.4
5/24/2022 12:15:00 PM 11.52 52.736 0.046 7 2.35 10.37
5/24/2022 12:30:00 PM 11.65 52.97 0.047 6.98 2.3 10.34
5/24/2022 12:45:00 PM 11.76 53.168 0.046 7.03 2.28 10.31
5/24/2022 1:00:00 PM 11.83 53.294 0.046 7.01 2.47 10.27
5/24/2022 1:15:00 PM 11.92 53.456 0.047 7.04 2.37 10.25
5/24/2022 1:30:00 PM 11.96 53.528 0.046 7.03 2.51 10.21
5/24/2022 1:45:00 PM 12.01 53.618 0.046 7.02 2.32 10.2
5/24/2022 2:00:00 PM 12 53.6 0.047 7.02 2.38 10.17
5/24/2022 2:15:00 PM 12 53.6 0.046 7.02 2.29 10.15
5/24/2022 2:30:00 PM 12 53.6 0.047 7.01 2.42 10.14
5/24/2022 2:45:00 PM 12.01 53.618 0.047 7.02 2.25 10.13
5/24/2022 3:00:00 PM 12.05 53.69 0.047 6.98 2.23 10.13
5/24/2022 3:15:00 PM 12.07 53.726 0.047 7.01 2.17 10.11
5/24/2022 3:30:00 PM 12.12 53.816 0.047 7.02 2.42 10.11
5/24/2022 3:45:00 PM 12.16 53.888 0.046 7.03 2.39 10.1
5/24/2022 4:00:00 PM 12.16 53.888 0.046 6.98 2.21 10.08
5/24/2022 4:15:00 PM 12.15 53.87 0.047 7 2.63 10.06
5/24/2022 4:30:00 PM 12.11 53.798 0.046 6.98 2.49 10.05
5/24/2022 4:45:00 PM 12.07 53.726 0.047 7 2.33 10.03
5/24/2022 5:00:00 PM 12.04 53.672 0.047 6.97 2.75 10.01
5/24/2022 5:15:00 PM 12.01 53.618 0.047 6.97 2.82 10
5/24/2022 5:30:00 PM 11.99 53.582 0.047 6.94 2.38 10
5/24/2022 5:45:00 PM 11.97 53.546 0.046 6.95 2.44 10
5/24/2022 6:00:00 PM 11.95 53.51 0.046 6.95 2.68 9.98
5/24/2022 6:15:00 PM 11.92 53.456 0.047 6.95 2.43 9.97
5/24/2022 6:30:00 PM 11.89 53.402 0.047 6.92 2.41 9.96
5/24/2022 6:45:00 PM 11.86 53.348 0.047 6.94 2.32 9.96
5/24/2022 7:00:00 PM 11.82 53.276 0.047 6.91 2.25 9.95
5/24/2022 7:15:00 PM 11.79 53.222 0.047 6.91 2.32 9.94
5/24/2022 7:30:00 PM 11.75 53.15 0.047 6.92 2.3 9.93
5/24/2022 7:45:00 PM 11.71 53.078 0.047 6.89 2.38 9.92
5/24/2022 8:00:00 PM 11.66 52.988 0.048 6.89 2.26 9.91
5/24/2022 8:15:00 PM 11.62 52.916 0.047 6.86 2.38 9.91
5/24/2022 8:30:00 PM 11.58 52.844 0.048 6.88 2.35 9.91
5/24/2022 8:45:00 PM 11.53 52.754 0.048 6.86 2.48 9.91
5/24/2022 9:00:00 PM 11.49 52.682 0.047 6.83 2.57 9.91
5/24/2022 9:15:00 PM 11.45 52.61 0.048 6.83 2.54 9.91
5/24/2022 9:30:00 PM 11.41 52.538 0.048 6.85 2.41 9.91
5/24/2022 9:45:00 PM 11.37 52.466 0.048 6.83 2.73 9.92
5/24/2022 10:00:00 PM 11.32 52.376 0.048 6.82 2.61 9.93
5/24/2022 10:15:00 PM 11.29 52.322 0.048 6.8 2.66 9.94
5/24/2022 10:30:00 PM 11.25 52.25 0.047 6.8 2.56 9.95
5/24/2022 10:45:00 PM 11.22 52.196 0.048 6.82 2.67 9.96
5/24/2022 11:00:00 PM 11.2 52.16 0.048 6.82 2.73 9.96
5/24/2022 11:15:00 PM 11.17 52.106 0.048 6.8 3.24 9.97
5/24/2022 11:30:00 PM 11.15 52.07 0.048 6.82 2.75 9.98
5/24/2022 11:45:00 PM 11.13 52.034 0.048 6.82 2.66 9.99
5/25/2022 12:00:00 AM 11.1 51.98 0.048 6.79 2.55 10
5/25/2022 12:15:00 AM 11.08 51.944 0.048 6.81 2.6 10
5/25/2022 12:30:00 AM 11.05 51.89 0.048 6.8 2.6 10.01
5/25/2022 12:45:00 AM 11.02 51.836 0.048 6.78 2.7 10.01
5/25/2022 1:00:00 AM 11 51.8 0.048 6.82 2.81 10.02
5/25/2022 1:15:00 AM 10.97 51.746 0.048 6.8 2.47 10.03
5/25/2022 1:30:00 AM 10.95 51.71 0.048 6.78 2.59 10.03
5/25/2022 1:45:00 AM 10.92 51.656 0.048 6.78 2.53 10.04
5/25/2022 2:00:00 AM 10.89 51.602 0.048 6.8 2.63 10.05
5/25/2022 2:15:00 AM 10.87 51.566 0.048 6.79 2.51 10.05
5/25/2022 2:30:00 AM 10.85 51.53 0.048 6.75 2.66 10.05
5/25/2022 2:45:00 AM 10.84 51.512 0.048 6.75 2.64 10.06
5/25/2022 3:00:00 AM 10.82 51.476 0.048 6.79 2.79 10.07
5/25/2022 3:15:00 AM 10.81 51.458 0.048 6.79 2.41 10.07
5/25/2022 3:30:00 AM 10.79 51.422 0.048 6.79 2.5 10.07
5/25/2022 3:45:00 AM 10.77 51.386 0.048 6.76 2.51 10.08
5/25/2022 4:00:00 AM 10.75 51.35 0.048 6.81 2.64 10.08
5/25/2022 4:15:00 AM 10.74 51.332 0.048 6.75 3.03 10.09
5/25/2022 4:30:00 AM 10.72 51.296 0.048 6.77 2.54 10.09
5/25/2022 4:45:00 AM 10.71 51.278 0.048 6.76 2.56 10.1
5/25/2022 5:00:00 AM 10.69 51.242 0.048 6.79 2.52 10.1
5/25/2022 5:15:00 AM 10.67 51.206 0.048 6.75 2.74 10.11
5/25/2022 5:30:00 AM 10.66 51.188 0.048 6.78 2.47 10.11
5/25/2022 5:45:00 AM 10.64 51.152 0.048 6.78 2.44 10.11
5/25/2022 6:00:00 AM 10.62 51.116 0.048 6.79 3.16 10.12
5/25/2022 6:15:00 AM 10.61 51.098 0.048 6.76 2.39 10.14
5/25/2022 6:30:00 AM 10.6 51.08 0.048 6.78 2.37 10.15
5/25/2022 6:45:00 AM 10.6 51.08 0.048 6.79 2.33 10.17
5/25/2022 7:00:00 AM 10.6 51.08 0.048 6.79 2.92 10.17
5/25/2022 7:15:00 AM 10.6 51.08 0.048 6.77 2.33 10.19
5/25/2022 7:30:00 AM 10.6 51.08 0.048 6.8 2.36 10.21
5/25/2022 7:45:00 AM 10.61 51.098 0.048 6.81 2.58 10.23
5/25/2022 8:00:00 AM 10.63 51.134 0.048 6.81 2.41 10.26
5/25/2022 8:15:00 AM 10.65 51.17 0.048 6.84 2.32 10.28
5/25/2022 8:30:00 AM 10.7 51.26 0.048 6.86 2.26 10.31
5/25/2022 8:45:00 AM 10.76 51.368 0.047 6.86 2.72 10.33
5/25/2022 9:00:00 AM 10.84 51.512 0.048 6.89 2.41 10.36
5/25/2022 9:15:00 AM 10.91 51.638 0.048 6.92 2.21 10.36
5/25/2022 9:30:00 AM 10.98 51.764 0.048 6.91 2.29 10.37
5/25/2022 9:45:00 AM 11.07 51.926 0.047 6.93 2.34 10.38
5/25/2022 10:00:00 AM 11.17 52.106 0.048 6.93 2.2 10.37
5/25/2022 10:15:00 AM 11.24 52.232 0.047 6.96 2.2 10.35
5/25/2022 10:30:00 AM 11.32 52.376 0.047 6.94 2.77 10.33
5/25/2022 10:45:00 AM 11.34 52.412 0.047 6.95 2.45 10.29
5/25/2022 11:00:00 AM 11.4 52.52 0.047 6.94 2.48 10.29
5/25/2022 11:15:00 AM 11.45 52.61 0.047 6.98 2.33 10.28
5/25/2022 11:30:00 AM 11.53 52.754 0.047 6.99 2.37 10.28
5/25/2022 11:45:00 AM 11.66 52.988 0.047 6.98 2.32 10.28
5/25/2022 12:00:00 PM 11.84 53.312 0.046 6.97 2.32 10.26
5/25/2022 12:15:00 PM 11.98 53.564 0.047 6.98 2.37 10.24
5/25/2022 12:30:00 PM 12.2 53.96 0.047 6.98 2.39 10.22
5/25/2022 12:45:00 PM 12.42 54.356 0.046 7 2.2 10.19
5/25/2022 1:00:00 PM 12.55 54.59 0.047 7 3.78 10.16
5/25/2022 1:15:00 PM 12.74 54.932 0.046 7 2.44 10.12
5/25/2022 1:30:00 PM 12.88 55.184 0.046 7.02 2.41 10.09
5/25/2022 1:45:00 PM 13.16 55.688 0.046 7.04 2.43 10.06
5/25/2022 2:00:00 PM 13.44 56.192 0.047 7.03 2.36 10
5/25/2022 2:15:00 PM 13.74 56.732 0.046 7.01 2.54 9.94
5/25/2022 2:30:00 PM 13.91 57.038 0.046 7.01 2.63 9.88
5/25/2022 2:45:00 PM 14.16 57.488 0.046 7.01 2.72 9.84
5/25/2022 3:00:00 PM 14.41 57.938 0.047 7 2.55 9.77
5/25/2022 3:15:00 PM 14.6 58.28 0.046 7.04 2.46 9.72
5/25/2022 3:30:00 PM 14.79 58.622 0.047 7.04 2.3 9.66
5/25/2022 3:45:00 PM 14.93 58.874 0.046 7.01 2.33 9.61
5/25/2022 4:00:00 PM 15.03 59.054 0.047 7.03 2.31 9.57
5/25/2022 4:15:00 PM 15.1 59.18 0.046 7.02 2.49 9.54
5/25/2022 4:30:00 PM 15.15 59.27 0.045 7.03 2.7 9.5
5/25/2022 4:45:00 PM 15.16 59.288 0.047 7 2.43 9.48
5/25/2022 5:00:00 PM 15.15 59.27 0.046 7.02 2.28 9.46
5/25/2022 5:15:00 PM 15.12 59.216 0.046 7.02 2.41 9.44
5/25/2022 5:30:00 PM 15.07 59.126 0.046 7.01 2.35 9.43
5/25/2022 5:45:00 PM 14.99 58.982 0.047 7.03 2.52 9.43
5/25/2022 6:00:00 PM 14.86 58.748 0.046 7 2.2 9.42
5/25/2022 6:15:00 PM 14.74 58.532 0.046 7 2.27 9.42
5/25/2022 6:30:00 PM 14.62 58.316 0.046 6.96 2.47 9.42
5/25/2022 6:45:00 PM 14.48 58.064 0.047 6.98 2.66 9.41
5/25/2022 7:00:00 PM 14.33 57.794 0.047 6.98 2.49 9.41
5/25/2022 7:15:00 PM 14.2 57.56 0.047 6.97 3.08 9.41
5/25/2022 7:30:00 PM 14.08 57.344 0.047 6.93 2.59 9.42
5/25/2022 7:45:00 PM 13.97 57.146 0.048 6.94 2.59 9.42
5/25/2022 8:00:00 PM 13.86 56.948 0.047 6.93 2.52 9.41
5/25/2022 8:15:00 PM 13.75 56.75 0.047 6.93 2.39 9.41
5/25/2022 8:30:00 PM 13.63 56.534 0.047 6.92 2.54 9.4
5/25/2022 8:45:00 PM 13.53 56.354 0.048 6.89 2.46 9.41
5/25/2022 9:00:00 PM 13.43 56.174 0.047 6.89 2.53 9.42
5/25/2022 9:15:00 PM 13.34 56.012 0.048 6.88 2.67 9.43
5/25/2022 9:30:00 PM 13.26 55.868 0.048 6.87 2.56 9.44
5/25/2022 9:45:00 PM 13.18 55.724 0.048 6.88 2.8 9.45
5/25/2022 10:00:00 PM 13.11 55.598 0.047 6.86 2.67 9.47
5/25/2022 10:15:00 PM 13.04 55.472 0.047 6.85 2.7 9.48
5/25/2022 10:30:00 PM 12.98 55.364 0.048 6.84 2.41 9.49
5/25/2022 10:45:00 PM 12.91 55.238 0.048 6.85 2.64 9.51
5/25/2022 11:00:00 PM 12.84 55.112 0.048 6.83 2.49 9.53
5/25/2022 11:15:00 PM 12.78 55.004 0.047 6.83 2.63 9.54
5/25/2022 11:30:00 PM 12.73 54.914 0.048 6.83 2.61 9.55
5/25/2022 11:45:00 PM 12.68 54.824 0.048 6.82 2.81 9.57
5/26/2022 12:00:00 AM 12.63 54.734 0.048 6.83 2.79 9.58
5/26/2022 12:15:00 AM 12.57 54.626 0.048 6.84 2.87 9.59
5/26/2022 12:30:00 AM 12.51 54.518 0.048 6.82 2.85 9.61
5/26/2022 12:45:00 AM 12.44 54.392 0.048 6.82 2.75 9.62
5/26/2022 1:00:00 AM 12.37 54.266 0.048 6.82 2.89 9.64
5/26/2022 1:15:00 AM 12.31 54.158 0.048 6.83 2.65 9.65
5/26/2022 1:30:00 AM 12.24 54.032 0.048 6.81 2.78 9.67
5/26/2022 1:45:00 AM 12.16 53.888 0.048 6.83 2.85 9.68
5/26/2022 2:00:00 AM 12.1 53.78 0.048 6.84 2.91 9.7
5/26/2022 2:15:00 AM 12.03 53.654 0.048 6.82 3.02 9.71
5/26/2022 2:30:00 AM 11.97 53.546 0.048 6.84 2.91 9.73
5/26/2022 2:45:00 AM 11.92 53.456 0.048 6.85 2.79 9.74
5/26/2022 3:00:00 AM 11.87 53.366 0.048 6.81 2.74 9.75
5/26/2022 3:15:00 AM 11.82 53.276 0.048 6.84 2.58 9.77
5/26/2022 3:30:00 AM 11.77 53.186 0.048 6.85 2.88 9.78
5/26/2022 3:45:00 AM 11.72 53.096 0.048 6.84 2.92 9.79
5/26/2022 4:00:00 AM 11.66 52.988 0.048 6.85 2.66 9.81
5/26/2022 4:15:00 AM 11.6 52.88 0.048 6.84 2.85 9.82
5/26/2022 4:30:00 AM 11.54 52.772 0.048 6.84 2.64 9.83
5/26/2022 4:45:00 AM 11.48 52.664 0.047 6.82 2.66 9.85
5/26/2022 5:00:00 AM 11.42 52.556 0.048 6.78 2.73 9.86
5/26/2022 5:15:00 AM 11.36 52.448 0.048 6.81 2.75 9.87
5/26/2022 5:30:00 AM 11.3 52.34 0.048 6.81 2.42 9.89
5/26/2022 5:45:00 AM 11.24 52.232 0.047 6.83 2.94 9.9
5/26/2022 6:00:00 AM 11.18 52.124 0.048 6.81 2.67 9.92
5/26/2022 6:15:00 AM 11.13 52.034 0.048 6.82 2.67 9.95
5/26/2022 6:30:00 AM 11.09 51.962 0.048 6.82 2.59 9.98
5/26/2022 6:45:00 AM 11.06 51.908 0.048 6.82 2.58 10.02
5/26/2022 7:00:00 AM 11.06 51.908 0.048 6.81 2.43 10.06
5/26/2022 7:15:00 AM 11.06 51.908 0.048 6.85 2.49 10.09
5/26/2022 7:30:00 AM 11.08 51.944 0.048 6.89 2.31 10.13
5/26/2022 7:45:00 AM 11.14 52.052 0.048 6.88 2.49 10.16
5/26/2022 8:00:00 AM 11.2 52.16 0.048 6.89 2.44 10.18
5/26/2022 8:15:00 AM 11.28 52.304 0.047 6.91 2.57 10.18
5/26/2022 8:30:00 AM 11.36 52.448 0.047 6.91 2.34 10.19
5/26/2022 8:45:00 AM 11.44 52.592 0.048 6.95 2.47 10.19
5/26/2022 9:00:00 AM 11.62 52.916 0.047 6.96 2.38 10.19
5/26/2022 9:15:00 AM 11.8 53.24 0.047 6.95 2.46 10.18
5/26/2022 9:30:00 AM 11.99 53.582 0.047 6.96 2.45 10.16
5/26/2022 9:45:00 AM 12.15 53.87 0.047 6.98 2.37 10.13
5/26/2022 10:00:00 AM 12.25 54.05 0.047 6.98 2.58 10.11
5/26/2022 10:15:00 AM 12.41 54.338 0.047 6.98 2.78 10.09
5/26/2022 10:30:00 AM 12.57 54.626 0.047 7 2.41 10.07
5/26/2022 10:45:00 AM 12.77 54.986 0.046 7.01 2.51 10.04
5/26/2022 11:00:00 AM 12.98 55.364 0.046 6.98 2.32 10.01
5/26/2022 11:15:00 AM 13.24 55.832 0.046 7 2.37 9.97
5/26/2022 11:30:00 AM 13.35 56.03 0.047 6.95 2.62 9.93
5/26/2022 11:45:00 AM 13.6 56.48 0.047 7.02 2.42 9.9
5/26/2022 12:00:00 PM 13.84 56.912 0.046 7.03 2.54 9.86
5/26/2022 12:15:00 PM 14.15 57.47 0.046 7.02 3.52 9.82
5/26/2022 12:30:00 PM 14.47 58.046 0.046 7.04 2.34 9.75
5/26/2022 12:45:00 PM 14.77 58.586 0.047 7.01 2.39 9.69
5/26/2022 1:00:00 PM 15.05 59.09 0.046 7.03 2.49 9.63
5/26/2022 1:15:00 PM 15.3 59.54 0.046 7.03 2.54 9.57
5/26/2022 1:30:00 PM 15.6 60.08 0.046 7.04 2.52 9.51
5/26/2022 1:45:00 PM 15.87 60.566 0.046 7.05 2.37 9.45
5/26/2022 2:00:00 PM 15.96 60.728 0.046 7.03 2.34 9.39
5/26/2022 2:15:00 PM 15.99 60.782 0.046 7.03 2.49 9.35
5/26/2022 2:30:00 PM 16.04 60.872 0.046 7.01 2.62 9.33
5/26/2022 2:45:00 PM 16.2 61.16 0.045 7.02 2.36 9.31
5/26/2022 3:00:00 PM 16.34 61.412 0.045 7.06 2.78 9.27
5/26/2022 3:15:00 PM 16.36 61.448 0.046 7.02 4.17 9.24
5/26/2022 3:30:00 PM 16.34 61.412 0.046 7.03 2.53 9.21
5/26/2022 3:45:00 PM 16.47 61.646 0.046 7.04 2.56 9.22
5/26/2022 4:00:00 PM 16.6 61.88 0.046 7.02 2.49 9.2
5/26/2022 4:15:00 PM 16.71 62.078 0.046 7.03 2.76 9.15
5/26/2022 4:30:00 PM 16.71 62.078 0.046 7.04 2.64 9.11
5/26/2022 4:45:00 PM 16.71 62.078 0.046 7.02 3.11 9.11
5/26/2022 5:00:00 PM 16.68 62.024 0.046 7.06 3.98 9.09
5/26/2022 5:15:00 PM 16.65 61.97 0.047 7.04 2.42 9.08
5/26/2022 5:30:00 PM 16.55 61.79 0.046 7 3.23 9.08
5/26/2022 5:45:00 PM 16.42 61.556 0.046 7.03 3.39 9.08
5/26/2022 6:00:00 PM 16.28 61.304 0.046 7.01 2.67 9.08
5/26/2022 6:15:00 PM 16.13 61.034 0.046 7.02 2.63 9.07
5/26/2022 6:30:00 PM 15.97 60.746 0.047 6.99 2.78 9.04
5/26/2022 6:45:00 PM 15.78 60.404 0.046 7 2.56 9.04
5/26/2022 7:00:00 PM 15.6 60.08 0.047 6.96 2.46 9.04
5/26/2022 7:15:00 PM 15.46 59.828 0.047 6.95 2.45 9.03
5/26/2022 7:30:00 PM 15.34 59.612 0.048 6.92 2.38 9.03
5/26/2022 7:45:00 PM 15.21 59.378 0.047 6.96 2.44 9.03
5/26/2022 8:00:00 PM 15.1 59.18 0.047 6.93 2.55 9.04
5/26/2022 8:15:00 PM 15.01 59.018 0.048 6.94 2.57 9.03
5/26/2022 8:30:00 PM 14.93 58.874 0.048 6.9 3.68 9.03
5/26/2022 8:45:00 PM 14.85 58.73 0.048 6.89 2.58 9.03
5/26/2022 9:00:00 PM 14.77 58.586 0.047 6.89 2.85 9.03
5/26/2022 9:15:00 PM 14.69 58.442 0.048 6.9 2.89 9.05
5/26/2022 9:30:00 PM 14.62 58.316 0.048 6.9 2.91 9.05
5/26/2022 9:45:00 PM 14.55 58.19 0.048 6.88 2.74 9.06
5/26/2022 10:00:00 PM 14.49 58.082 0.048 6.86 2.83 9.08
5/26/2022 10:15:00 PM 14.44 57.992 0.048 6.88 2.63 9.09
5/26/2022 10:30:00 PM 14.38 57.884 0.048 6.87 2.76 9.1
5/26/2022 10:45:00 PM 14.32 57.776 0.049 6.86 2.66 9.12
5/26/2022 11:00:00 PM 14.27 57.686 0.048 6.84 2.7 9.13
5/26/2022 11:15:00 PM 14.21 57.578 0.049 6.85 2.8 9.14
5/26/2022 11:30:00 PM 14.16 57.488 0.048 6.85 2.74 9.15
5/26/2022 11:45:00 PM 14.11 57.398 0.048 6.84 2.76 9.16
5/27/2022 12:00:00 AM 14.06 57.308 0.049 6.85 2.81 9.17
5/27/2022 12:15:00 AM 14 57.2 0.048 6.85 2.67 9.19
5/27/2022 12:30:00 AM 13.95 57.11 0.048 6.86 2.75 9.19
5/27/2022 12:45:00 AM 13.9 57.02 0.049 6.83 3.28 9.21
5/27/2022 1:00:00 AM 13.84 56.912 0.048 6.84 3.02 9.22
5/27/2022 1:15:00 AM 13.79 56.822 0.049 6.83 2.86 9.22
5/27/2022 1:30:00 AM 13.75 56.75 0.048 6.83 2.63 9.23
5/27/2022 1:45:00 AM 13.69 56.642 0.049 6.84 2.75 9.24
5/27/2022 2:00:00 AM 13.65 56.57 0.048 6.82 3.13 9.26
5/27/2022 2:15:00 AM 13.59 56.462 0.048 6.85 2.85 9.27
5/27/2022 2:30:00 AM 13.55 56.39 0.048 6.83 2.89 9.28
5/27/2022 2:45:00 AM 13.5 56.3 0.048 6.83 2.88 9.29
5/27/2022 3:00:00 AM 13.45 56.21 0.048 6.82 3.02 9.3
5/27/2022 3:15:00 AM 13.39 56.102 0.048 6.81 2.93 9.31
5/27/2022 3:30:00 AM 13.33 55.994 0.048 6.83 2.97 9.32
5/27/2022 3:45:00 AM 13.29 55.922 0.048 6.81 2.92 9.34
5/27/2022 4:00:00 AM 13.25 55.85 0.048 6.8 3.05 9.34
5/27/2022 4:15:00 AM 13.21 55.778 0.048 6.79 2.98 9.35
5/27/2022 4:30:00 AM 13.18 55.724 0.048 6.8 2.91 9.36
5/27/2022 4:45:00 AM 13.15 55.67 0.048 6.79 2.9 9.36
5/27/2022 5:00:00 AM 13.13 55.634 0.048 6.78 3.05 9.37
5/27/2022 5:15:00 AM 13.11 55.598 0.048 6.79 2.9 9.38
5/27/2022 5:30:00 AM 13.08 55.544 0.048 6.81 3.04 9.38
5/27/2022 5:45:00 AM 13.04 55.472 0.048 6.8 2.82 9.39
5/27/2022 6:00:00 AM 13.01 55.418 0.048 6.81 2.85 9.4
5/27/2022 6:15:00 AM 12.98 55.364 0.048 6.81 2.82 9.41
5/27/2022 6:30:00 AM 12.96 55.328 0.048 6.8 2.77 9.43
5/27/2022 6:45:00 AM 12.94 55.292 0.048 6.79 2.96 9.45
5/27/2022 7:00:00 AM 12.93 55.274 0.048 6.81 2.49 9.48
5/27/2022 7:15:00 AM 12.93 55.274 0.047 6.81 2.86 9.47
5/27/2022 7:30:00 AM 12.92 55.256 0.048 6.83 2.6 9.48
5/27/2022 7:45:00 AM 12.92 55.256 0.048 6.86 2.91 9.51
5/27/2022 8:00:00 AM 12.91 55.238 0.048 6.82 2.46 9.53
5/27/2022 8:15:00 AM 12.92 55.256 0.048 6.86 2.53 9.55
5/27/2022 8:30:00 AM 12.94 55.292 0.048 6.89 2.6 9.59
5/27/2022 8:45:00 AM 12.98 55.364 0.048 6.89 2.73 9.62
5/27/2022 9:00:00 AM 13.01 55.418 0.047 6.87 2.43 9.62
5/27/2022 9:15:00 AM 13.06 55.508 0.048 6.89 2.5 9.63
5/27/2022 9:30:00 AM 13.09 55.562 0.047 6.88 2.68 9.64
5/27/2022 9:45:00 AM 13.12 55.616 0.047 6.93 2.77 9.65
5/27/2022 10:00:00 AM 13.16 55.688 0.047 6.93 2.78 9.65
5/27/2022 10:15:00 AM 13.26 55.868 0.047 6.91 3.02 9.67
5/27/2022 10:30:00 AM 13.32 55.976 0.047 6.91 2.51 9.67
5/27/2022 10:45:00 AM 13.36 56.048 0.047 6.96 2.46 9.65
5/27/2022 11:00:00 AM 13.41 56.138 0.047 6.94 2.42 9.61
5/27/2022 11:15:00 AM 13.43 56.174 0.047 6.95 2.33 9.63
5/27/2022 11:30:00 AM 13.41 56.138 0.048 6.93 2.59 9.56
5/27/2022 11:45:00 AM 13.44 56.192 0.047 6.9 2.71 9.56
5/27/2022 12:00:00 PM 13.45 56.21 0.047 6.93 2.39 9.57
5/27/2022 12:15:00 PM 13.47 56.246 0.046 6.94 2.68 9.58
5/27/2022 12:30:00 PM 13.46 56.228 0.047 6.95 2.66 9.52
5/27/2022 12:45:00 PM 13.5 56.3 0.047 6.93 3.16 9.51
5/27/2022 1:00:00 PM 13.57 56.426 0.046 6.93 3.74 9.5
5/27/2022 1:15:00 PM 13.58 56.444 0.046 6.9 3.77 9.48
5/27/2022 1:30:00 PM 13.63 56.534 0.046 6.87 4.21 9.43
5/27/2022 1:45:00 PM 13.74 56.732 0.046 6.86 5.3 9.44
5/27/2022 2:00:00 PM 13.84 56.912 0.046 6.88 5.86 9.45
5/27/2022 2:15:00 PM 13.96 57.128 0.047 6.85 6.29 9.43
5/27/2022 2:30:00 PM 14.05 57.29 0.047 6.86 5.6 9.42
5/27/2022 2:45:00 PM 14.08 57.344 0.047 6.85 5.5 9.42
5/27/2022 3:00:00 PM 14.14 57.452 0.048 6.88 5.38 9.44
5/27/2022 3:15:00 PM 14.19 57.542 0.047 6.88 5.41 9.42
5/27/2022 3:30:00 PM 14.31 57.758 0.048 6.89 5.64 9.43
5/27/2022 3:45:00 PM 14.41 57.938 0.049 6.9 6.14 9.41
5/27/2022 4:00:00 PM 14.52 58.136 0.049 6.92 5.79 9.4
5/27/2022 4:15:00 PM 14.58 58.244 0.048 6.92 6.1 9.38
5/27/2022 4:30:00 PM 14.6 58.28 0.048 6.95 5.26 9.36
5/27/2022 4:45:00 PM 14.65 58.37 0.048 6.94 4.64 9.37
5/27/2022 5:00:00 PM 14.71 58.478 0.048 6.96 4.78 9.35
5/27/2022 5:15:00 PM 14.73 58.514 0.048 6.92 4.22 9.32
5/27/2022 5:30:00 PM 14.71 58.478 0.048 6.96 4.5 9.3
5/27/2022 5:45:00 PM 14.69 58.442 0.048 6.92 4.21 9.29
5/27/2022 6:00:00 PM 14.67 58.406 0.049 6.94 4.05 9.28
5/27/2022 6:15:00 PM 14.64 58.352 0.049 6.92 3.66 9.27
5/27/2022 6:30:00 PM 14.61 58.298 0.049 6.93 3.76 9.27
5/27/2022 6:45:00 PM 14.58 58.244 0.049 6.93 3.31 9.24
5/27/2022 7:00:00 PM 14.52 58.136 0.05 6.94 3.45 9.22
5/27/2022 7:15:00 PM 14.41 57.938 0.049 6.92 3.25 9.19
5/27/2022 7:30:00 PM 14.32 57.776 0.049 6.91 3.5 9.17
5/27/2022 7:45:00 PM 14.22 57.596 0.049 6.87 3.24 9.16
5/27/2022 8:00:00 PM 14.13 57.434 0.049 6.87 3.08 9.16
5/27/2022 8:15:00 PM 14.04 57.272 0.049 6.88 3.25 9.16
5/27/2022 8:30:00 PM 13.94 57.092 0.05 6.84 3 9.16
5/27/2022 8:45:00 PM 13.83 56.894 0.05 6.84 3.16 9.16
5/27/2022 9:00:00 PM 13.72 56.696 0.049 6.81 3.24 9.16
5/27/2022 9:15:00 PM 13.62 56.516 0.049 6.8 3.24 9.18
5/27/2022 9:30:00 PM 13.51 56.318 0.05 6.79 3.22 9.2
5/27/2022 9:45:00 PM 13.42 56.156 0.05 6.78 3.32 9.21
5/27/2022 10:00:00 PM 13.33 55.994 0.051 6.78 3.48 9.23
5/27/2022 10:15:00 PM 13.25 55.85 0.051 6.78 3.08 9.25
5/27/2022 10:30:00 PM 13.19 55.742 0.051 6.8 3.16 9.27
5/27/2022 10:45:00 PM 13.12 55.616 0.052 6.8 2.96 9.29
5/27/2022 11:00:00 PM 13.06 55.508 0.051 6.77 3.14 9.3
5/27/2022 11:15:00 PM 13 55.4 0.051 6.76 3.22 9.32
5/27/2022 11:30:00 PM 12.93 55.274 0.052 6.77 3.3 9.33
5/27/2022 11:45:00 PM 12.87 55.166 0.052 6.79 3.07 9.35
5/28/2022 12:00:00 AM 12.82 55.076 0.053 6.77 2.96 9.36
5/28/2022 12:15:00 AM 12.78 55.004 0.051 6.77 2.82 9.38
5/28/2022 12:30:00 AM 12.74 54.932 0.052 6.77 3.12 9.39
5/28/2022 12:45:00 AM 12.7 54.86 0.052 6.79 2.91 9.4
5/28/2022 1:00:00 AM 12.66 54.788 0.051 6.79 3.16 9.41
5/28/2022 1:15:00 AM 12.62 54.716 0.052 6.77 3.04 9.42
5/28/2022 1:30:00 AM 12.57 54.626 0.052 6.79 3.19 9.43
5/28/2022 1:45:00 AM 12.53 54.554 0.052 6.75 2.92 9.44
5/28/2022 2:00:00 AM 12.48 54.464 0.052 6.78 2.93 9.45
5/28/2022 2:15:00 AM 12.44 54.392 0.053 6.76 3.02 9.45
5/28/2022 2:30:00 AM 12.41 54.338 0.053 6.77 2.88 9.46
5/28/2022 2:45:00 AM 12.38 54.284 0.052 6.76 2.76 9.47
5/28/2022 3:00:00 AM 12.35 54.23 0.053 6.75 2.99 9.48
5/28/2022 3:15:00 AM 12.31 54.158 0.052 6.74 2.83 9.48
5/28/2022 3:30:00 AM 12.27 54.086 0.052 6.74 2.83 9.49
5/28/2022 3:45:00 AM 12.23 54.014 0.052 6.74 3.08 9.5
5/28/2022 4:00:00 AM 12.19 53.942 0.052 6.77 3.2 9.51
5/28/2022 4:15:00 AM 12.16 53.888 0.052 6.75 3.07 9.52
5/28/2022 4:30:00 AM 12.13 53.834 0.052 6.74 3.51 9.53
5/28/2022 4:45:00 AM 12.09 53.762 0.052 6.73 3.2 9.53
5/28/2022 5:00:00 AM 12.06 53.708 0.053 6.74 3.16 9.54
5/28/2022 5:15:00 AM 12.03 53.654 0.053 6.74 3.07 9.55
5/28/2022 5:30:00 AM 12 53.6 0.053 6.74 3.11 9.56
5/28/2022 5:45:00 AM 11.97 53.546 0.053 6.73 3.05 9.57
5/28/2022 6:00:00 AM 11.95 53.51 0.052 6.72 2.66 9.58
5/28/2022 6:15:00 AM 11.94 53.492 0.052 6.75 2.86 9.6
5/28/2022 6:30:00 AM 11.93 53.474 0.052 6.74 2.62 9.61
5/28/2022 6:45:00 AM 11.92 53.456 0.053 6.72 2.53 9.63
5/28/2022 7:00:00 AM 11.92 53.456 0.053 6.73 2.58 9.67
5/28/2022 7:15:00 AM 11.93 53.474 0.053 6.78 2.65 9.7
5/28/2022 7:30:00 AM 11.95 53.51 0.052 6.79 2.72 9.72
5/28/2022 7:45:00 AM 11.96 53.528 0.052 6.77 2.43 9.74
5/28/2022 8:00:00 AM 11.98 53.564 0.052 6.8 2.42 9.75
5/28/2022 8:15:00 AM 12 53.6 0.053 6.81 2.45 9.77
5/28/2022 8:30:00 AM 12.01 53.618 0.053 6.83 2.51 9.77
5/28/2022 8:45:00 AM 12.03 53.654 0.052 6.86 2.42 9.78
5/28/2022 9:00:00 AM 12.06 53.708 0.052 6.86 2.34 9.81
5/28/2022 9:15:00 AM 12.1 53.78 0.052 6.88 2.43 9.83
5/28/2022 9:30:00 AM 12.13 53.834 0.052 6.88 2.59 9.82
5/28/2022 9:45:00 AM 12.14 53.852 0.052 6.83 2.66 9.8
5/28/2022 10:00:00 AM 12.15 53.87 0.051 6.9 2.54 9.79
5/28/2022 10:15:00 AM 12.15 53.87 0.051 6.89 2.34 9.8
5/28/2022 10:30:00 AM 12.19 53.942 0.052 6.93 2.29 9.82
5/28/2022 10:45:00 AM 12.23 54.014 0.051 6.92 2.35 9.84
5/28/2022 11:00:00 AM 12.32 54.176 0.051 6.95 2.39 9.86
5/28/2022 11:15:00 AM 12.36 54.248 0.051 6.93 2.29 9.83
5/28/2022 11:30:00 AM 12.4 54.32 0.051 6.92 2.44 9.82
5/28/2022 11:45:00 AM 12.42 54.356 0.051 6.95 2.74 9.83
5/28/2022 12:00:00 PM 12.47 54.446 0.051 6.96 2.36 9.85
5/28/2022 12:15:00 PM 12.53 54.554 0.051 6.96 2.4 9.85
5/28/2022 12:30:00 PM 12.61 54.698 0.05 6.97 2.25 9.85
5/28/2022 12:45:00 PM 12.64 54.752 0.051 6.97 2.64 9.81
5/28/2022 1:00:00 PM 12.7 54.86 0.051 6.98 2.21 9.82
5/28/2022 1:15:00 PM 12.69 54.842 0.051 6.98 2.21 9.77
5/28/2022 1:30:00 PM 12.7 54.86 0.051 6.93 2.32 9.76
5/28/2022 1:45:00 PM 12.8 55.04 0.05 6.98 2.27 9.81
5/28/2022 2:00:00 PM 12.85 55.13 0.05 6.96 2.23 9.78
5/28/2022 2:15:00 PM 13.14 55.652 0.05 7 2.34 9.78
5/28/2022 2:30:00 PM 13.23 55.814 0.051 6.96 2.37 9.71
5/28/2022 2:45:00 PM 13.22 55.796 0.051 6.97 2.31 9.71
5/28/2022 3:00:00 PM 13.4 56.12 0.05 6.98 2.58 9.73
5/28/2022 3:15:00 PM 13.62 56.516 0.05 7 2.36 9.69
5/28/2022 3:30:00 PM 13.88 56.984 0.05 7 2.4 9.62
5/28/2022 3:45:00 PM 13.88 56.984 0.051 7 2.25 9.56
5/28/2022 4:00:00 PM 13.82 56.876 0.05 6.99 2.45 9.56
5/28/2022 4:15:00 PM 13.73 56.714 0.051 7 2.42 9.58
5/28/2022 4:30:00 PM 13.68 56.624 0.051 6.98 2.45 9.58
5/28/2022 4:45:00 PM 13.69 56.642 0.051 7.01 2.37 9.6
5/28/2022 5:00:00 PM 13.68 56.624 0.051 7 2.38 9.58
5/28/2022 5:15:00 PM 13.67 56.606 0.05 7.01 2.42 9.57
5/28/2022 5:30:00 PM 13.69 56.642 0.051 7 2.37 9.58
5/28/2022 5:45:00 PM 13.71 56.678 0.051 7 2.31 9.58
5/28/2022 6:00:00 PM 13.7 56.66 0.05 7 2.41 9.56
5/28/2022 6:15:00 PM 13.67 56.606 0.051 6.99 2.36 9.55
5/28/2022 6:30:00 PM 13.66 56.588 0.051 7 2.33 9.55
5/28/2022 6:45:00 PM 13.61 56.498 0.051 7 2.34 9.53
5/28/2022 7:00:00 PM 13.57 56.426 0.051 6.95 2.46 9.5
5/28/2022 7:15:00 PM 13.5 56.3 0.051 6.95 2.44 9.49
5/28/2022 7:30:00 PM 13.4 56.12 0.051 6.96 2.51 9.47
5/28/2022 7:45:00 PM 13.31 55.958 0.052 6.93 2.66 9.46
5/28/2022 8:00:00 PM 13.24 55.832 0.051 6.9 2.34 9.45
5/28/2022 8:15:00 PM 13.16 55.688 0.051 6.9 2.22 9.44
5/28/2022 8:30:00 PM 13.08 55.544 0.052 6.89 2.5 9.43
5/28/2022 8:45:00 PM 12.98 55.364 0.051 6.88 2.54 9.43
5/28/2022 9:00:00 PM 12.88 55.184 0.052 6.84 2.51 9.43
5/28/2022 9:15:00 PM 12.78 55.004 0.051 6.86 2.67 9.44
5/28/2022 9:30:00 PM 12.68 54.824 0.052 6.87 2.66 9.46
5/28/2022 9:45:00 PM 12.59 54.662 0.052 6.84 2.73 9.48
5/28/2022 10:00:00 PM 12.5 54.5 0.052 6.87 2.67 9.5
5/28/2022 10:15:00 PM 12.41 54.338 0.052 6.86 2.72 9.52
5/28/2022 10:30:00 PM 12.33 54.194 0.052 6.84 2.74 9.54
5/28/2022 10:45:00 PM 12.24 54.032 0.052 6.85 2.71 9.56
5/28/2022 11:00:00 PM 12.15 53.87 0.052 6.85 2.96 9.59
5/28/2022 11:15:00 PM 12.06 53.708 0.052 6.82 2.86 9.61
5/28/2022 11:30:00 PM 11.98 53.564 0.052 6.78 2.65 9.63
5/28/2022 11:45:00 PM 11.89 53.402 0.052 6.78 2.5 9.65
5/29/2022 12:00:00 AM 11.81 53.258 0.053 6.8 2.83 9.67
5/29/2022 12:15:00 AM 11.73 53.114 0.052 6.81 2.59 9.69
5/29/2022 12:30:00 AM 11.65 52.97 0.052 6.79 2.79 9.72
5/29/2022 12:45:00 AM 11.57 52.826 0.052 6.82 2.7 9.73
5/29/2022 1:00:00 AM 11.49 52.682 0.052 6.82 2.57 9.75
5/29/2022 1:15:00 AM 11.4 52.52 0.052 6.8 2.69 9.77
5/29/2022 1:30:00 AM 11.32 52.376 0.053 6.78 2.67 9.79
5/29/2022 1:45:00 AM 11.25 52.25 0.052 6.79 2.65 9.81
5/29/2022 2:00:00 AM 11.17 52.106 0.052 6.79 2.77 9.83
5/29/2022 2:15:00 AM 11.09 51.962 0.052 6.78 2.64 9.85
5/29/2022 2:30:00 AM 11.02 51.836 0.052 6.78 2.64 9.87
5/29/2022 2:45:00 AM 10.95 51.71 0.052 6.78 2.49 9.89
5/29/2022 3:00:00 AM 10.88 51.584 0.053 6.78 2.55 9.91
5/29/2022 3:15:00 AM 10.83 51.494 0.052 6.79 2.51 9.93
5/29/2022 3:30:00 AM 10.77 51.386 0.053 6.81 2.55 9.95
5/29/2022 3:45:00 AM 10.73 51.314 0.052 6.79 2.56 9.96
5/29/2022 4:00:00 AM 10.7 51.26 0.052 6.82 2.75 9.97
5/29/2022 4:15:00 AM 10.66 51.188 0.053 6.81 2.31 9.98
5/29/2022 4:30:00 AM 10.62 51.116 0.053 6.79 2.56 10
5/29/2022 4:45:00 AM 10.58 51.044 0.052 6.8 2.6 10.01
5/29/2022 5:00:00 AM 10.54 50.972 0.053 6.8 2.49 10.03
5/29/2022 5:15:00 AM 10.49 50.882 0.052 6.8 2.44 10.04
5/29/2022 5:30:00 AM 10.45 50.81 0.053 6.8 2.6 10.05
5/29/2022 5:45:00 AM 10.41 50.738 0.053 6.81 2.61 10.07
5/29/2022 6:00:00 AM 10.38 50.684 0.053 6.79 2.34 10.09
5/29/2022 6:15:00 AM 10.34 50.612 0.053 6.81 2.4 10.11
5/29/2022 6:30:00 AM 10.32 50.576 0.052 6.83 2.46 10.14
5/29/2022 6:45:00 AM 10.31 50.558 0.053 6.85 2.43 10.17
5/29/2022 7:00:00 AM 10.3 50.54 0.052 6.82 2.37 10.21
5/29/2022 7:15:00 AM 10.3 50.54 0.052 6.86 2.52 10.25
5/29/2022 7:30:00 AM 10.31 50.558 0.052 6.87 2.27 10.27
5/29/2022 7:45:00 AM 10.35 50.63 0.052 6.89 2.34 10.32
5/29/2022 8:00:00 AM 10.37 50.666 0.052 6.87 2.52 10.34
5/29/2022 8:15:00 AM 10.41 50.738 0.052 6.92 2.51 10.35
5/29/2022 8:30:00 AM 10.48 50.864 0.052 6.9 2.31 10.37
5/29/2022 8:45:00 AM 10.55 50.99 0.053 6.93 2.29 10.39
5/29/2022 9:00:00 AM 10.64 51.152 0.052 6.93 2.23 10.39
5/29/2022 9:15:00 AM 10.79 51.422 0.051 6.97 2.21 10.37
5/29/2022 9:30:00 AM 11.01 51.818 0.052 6.98 2.27 10.35
5/29/2022 9:45:00 AM 11.29 52.322 0.052 6.98 2.32 10.32
5/29/2022 10:00:00 AM 11.46 52.628 0.052 6.96 2.54 10.29
5/29/2022 10:15:00 AM 11.76 53.168 0.051 6.99 2.26 10.25
5/29/2022 10:30:00 AM 12.08 53.744 0.052 7.01 2.37 10.19
5/29/2022 10:45:00 AM 12.32 54.176 0.052 6.99 2.42 10.13
5/29/2022 11:00:00 AM 12.62 54.716 0.052 6.98 2.36 10.07
5/29/2022 11:15:00 AM 12.89 55.202 0.052 7 2.24 10.02
5/29/2022 11:30:00 AM 13.17 55.706 0.051 7.01 2.29 9.97
5/29/2022 11:45:00 AM 13.43 56.174 0.052 7.01 2.29 9.92
5/29/2022 12:00:00 PM 13.7 56.66 0.051 7.03 2.17 9.86
5/29/2022 12:15:00 PM 13.97 57.146 0.052 7.04 2.27 9.8
5/29/2022 12:30:00 PM 14.23 57.614 0.051 7.02 2.3 9.75
5/29/2022 12:45:00 PM 14.49 58.082 0.051 7.03 2.32 9.69
5/29/2022 1:00:00 PM 14.75 58.55 0.051 7.04 2.35 9.64
5/29/2022 1:15:00 PM 15 59 0.052 7.04 2.57 9.58
5/29/2022 1:30:00 PM 15.24 59.432 0.051 7.03 2.33 9.53
5/29/2022 1:45:00 PM 15.47 59.846 0.051 7.03 2.24 9.48
5/29/2022 2:00:00 PM 15.69 60.242 0.052 7.02 2.18 9.43
5/29/2022 2:15:00 PM 15.91 60.638 0.051 7.04 2.31 9.37
5/29/2022 2:30:00 PM 16.1 60.98 0.051 7.01 2.32 9.32
5/29/2022 2:45:00 PM 16.28 61.304 0.051 7.04 2.63 9.28
5/29/2022 3:00:00 PM 16.44 61.592 0.051 7.04 2.37 9.24
5/29/2022 3:15:00 PM 16.56 61.808 0.051 7.04 2.23 9.21
5/29/2022 3:30:00 PM 16.68 62.024 0.051 7.03 2.38 9.18
5/29/2022 3:45:00 PM 16.72 62.096 0.052 7.05 2.53 9.15
5/29/2022 4:00:00 PM 16.69 62.042 0.052 7.06 2.4 9.12
5/29/2022 4:15:00 PM 16.77 62.186 0.051 7.04 2.4 9.1
5/29/2022 4:30:00 PM 16.81 62.258 0.051 7.01 2.49 9.08
5/29/2022 4:45:00 PM 16.82 62.276 0.052 7.02 2.49 9.05
5/29/2022 5:00:00 PM 16.8 62.24 0.051 7.02 2.56 9.03
5/29/2022 5:15:00 PM 16.74 62.132 0.052 7.02 2.39 9.02
5/29/2022 5:30:00 PM 16.66 61.988 0.051 7.01 2.41 9.02
5/29/2022 5:45:00 PM 16.55 61.79 0.052 7.01 2.41 9.01
5/29/2022 6:00:00 PM 16.41 61.538 0.051 6.99 2.85 9.01
5/29/2022 6:15:00 PM 16.24 61.232 0.051 6.99 2.55 9
5/29/2022 6:30:00 PM 16.07 60.926 0.051 6.97 2.57 9
5/29/2022 6:45:00 PM 15.89 60.602 0.052 6.99 2.48 9.02
5/29/2022 7:00:00 PM 15.74 60.332 0.051 6.96 2.4 9.02
5/29/2022 7:15:00 PM 15.61 60.098 0.052 6.97 2.42 9.03
5/29/2022 7:30:00 PM 15.45 59.81 0.052 6.94 2.42 9.03
5/29/2022 7:45:00 PM 15.29 59.522 0.052 6.92 3.2 9.03
5/29/2022 8:00:00 PM 15.13 59.234 0.052 6.89 2.8 9.04
5/29/2022 8:15:00 PM 14.95 58.91 0.052 6.9 3.05 9.05
5/29/2022 8:30:00 PM 14.79 58.622 0.053 6.89 2.81 9.07
5/29/2022 8:45:00 PM 14.63 58.334 0.052 6.88 2.97 9.08
5/29/2022 9:00:00 PM 14.49 58.082 0.052 6.84 2.84 9.1
5/29/2022 9:15:00 PM 14.36 57.848 0.052 6.86 2.81 9.12
5/29/2022 9:30:00 PM 14.25 57.65 0.052 6.84 2.89 9.14
5/29/2022 9:45:00 PM 14.14 57.452 0.052 6.82 2.94 9.16
5/29/2022 10:00:00 PM 14.03 57.254 0.053 6.86 3.4 9.18
5/29/2022 10:15:00 PM 13.92 57.056 0.053 6.84 2.95 9.21
5/29/2022 10:30:00 PM 13.82 56.876 0.052 6.84 2.69 9.23
5/29/2022 10:45:00 PM 13.71 56.678 0.052 6.83 2.7 9.26
5/29/2022 11:00:00 PM 13.61 56.498 0.052 6.84 2.63 9.28
5/29/2022 11:15:00 PM 13.51 56.318 0.052 6.83 2.59 9.3
5/29/2022 11:30:00 PM 13.41 56.138 0.053 6.8 2.83 9.33
5/29/2022 11:45:00 PM 13.31 55.958 0.053 6.84 2.74 9.35
5/30/2022 12:00:00 AM 13.2 55.76 0.053 6.82 2.76 9.37
5/30/2022 12:15:00 AM 13.1 55.58 0.054 6.81 3.16 9.4
5/30/2022 12:30:00 AM 13 55.4 0.053 6.81 2.94 9.41
5/30/2022 12:45:00 AM 12.9 55.22 0.053 6.83 3.02 9.44
5/30/2022 1:00:00 AM 12.79 55.022 0.053 6.81 2.8 9.47
5/30/2022 1:15:00 AM 12.69 54.842 0.054 6.82 2.54 9.5
5/30/2022 1:30:00 AM 12.59 54.662 0.054 6.79 2.88 9.52
5/30/2022 1:45:00 AM 12.5 54.5 0.054 6.82 2.74 9.54
5/30/2022 2:00:00 AM 12.4 54.32 0.054 6.81 2.81 9.57
5/30/2022 2:15:00 AM 12.31 54.158 0.054 6.81 3.05 9.59
5/30/2022 2:30:00 AM 12.22 53.996 0.054 6.79 2.81 9.62
5/30/2022 2:45:00 AM 12.13 53.834 0.054 6.82 2.89 9.63
5/30/2022 3:00:00 AM 12.05 53.69 0.054 6.8 3.13 9.65
5/30/2022 3:15:00 AM 11.97 53.546 0.053 6.82 2.8 9.67
5/30/2022 3:30:00 AM 11.89 53.402 0.054 6.82 2.74 9.69
5/30/2022 3:45:00 AM 11.81 53.258 0.053 6.81 2.81 9.72
5/30/2022 4:00:00 AM 11.74 53.132 0.053 6.81 2.77 9.74
5/30/2022 4:15:00 AM 11.67 53.006 0.052 6.8 2.74 9.76
5/30/2022 4:30:00 AM 11.6 52.88 0.053 6.8 2.73 9.78
5/30/2022 4:45:00 AM 11.53 52.754 0.052 6.78 2.94 9.79
5/30/2022 5:00:00 AM 11.46 52.628 0.052 6.8 2.8 9.81
5/30/2022 5:15:00 AM 11.4 52.52 0.053 6.79 3.43 9.82
5/30/2022 5:30:00 AM 11.33 52.394 0.052 6.79 2.64 9.84
5/30/2022 5:45:00 AM 11.28 52.304 0.052 6.81 3.21 9.86
5/30/2022 6:00:00 AM 11.22 52.196 0.052 6.81 2.67 9.88
5/30/2022 6:15:00 AM 11.17 52.106 0.052 6.81 2.77 9.92
5/30/2022 6:30:00 AM 11.13 52.034 0.052 6.81 2.44 9.95
5/30/2022 6:45:00 AM 11.11 51.998 0.052 6.8 2.65 9.98
5/30/2022 7:00:00 AM 11.08 51.944 0.052 6.79 2.49 10.01
5/30/2022 7:15:00 AM 11.07 51.926 0.052 6.8 2.56 10.03
5/30/2022 7:30:00 AM 11.09 51.962 0.051 6.81 2.54 10.06
5/30/2022 7:45:00 AM 11.13 52.034 0.052 6.84 2.41 10.08
5/30/2022 8:00:00 AM 11.21 52.178 0.052 6.85 2.37 10.11
5/30/2022 8:15:00 AM 11.35 52.43 0.052 6.87 2.44 10.14
5/30/2022 8:30:00 AM 11.5 52.7 0.051 6.89 2.36 10.15
5/30/2022 8:45:00 AM 11.61 52.898 0.051 6.91 2.21 10.15
5/30/2022 9:00:00 AM 11.69 53.042 0.051 6.91 2.49 10.14
5/30/2022 9:15:00 AM 11.74 53.132 0.051 6.94 2.52 10.15
5/30/2022 9:30:00 AM 11.82 53.276 0.051 6.93 2.42 10.15
5/30/2022 9:45:00 AM 12 53.6 0.05 6.97 2.76 10.13
5/30/2022 10:00:00 AM 12.28 54.104 0.051 6.98 2.47 10.1
5/30/2022 10:15:00 AM 12.58 54.644 0.051 6.99 2.53 10.05
5/30/2022 10:30:00 AM 12.86 55.148 0.05 6.99 2.36 10
5/30/2022 10:45:00 AM 13.23 55.814 0.05 7 2.65 9.93
5/30/2022 11:00:00 AM 13.57 56.426 0.051 7.01 2.26 9.88
5/30/2022 11:15:00 AM 13.88 56.984 0.051 7.02 2.85 9.83
5/30/2022 11:30:00 AM 14.21 57.578 0.051 7.01 2.94 9.77
5/30/2022 11:45:00 AM 14.53 58.154 0.051 7.02 2.54 9.7
5/30/2022 12:00:00 PM 14.83 58.694 0.05 7.02 2.39 9.65
5/30/2022 12:15:00 PM 15.14 59.252 0.05 7.04 2.49 9.59
5/30/2022 12:30:00 PM 15.44 59.792 0.05 7.06 2.28 9.53
5/30/2022 12:45:00 PM 15.74 60.332 0.05 7.06 2.44 9.46
5/30/2022 1:00:00 PM 16.03 60.854 0.05 7.06 2.49 9.4
5/30/2022 1:15:00 PM 16.32 61.376 0.05 7.08 2.3 9.34
5/30/2022 1:30:00 PM 16.61 61.898 0.05 7.07 2.25 9.29
5/30/2022 1:45:00 PM 16.87 62.366 0.05 7.09 2.34 9.23
5/30/2022 2:00:00 PM 17.14 62.852 0.05 7.08 2.53 9.17
5/30/2022 2:15:00 PM 17.4 63.32 0.05 7.08 2.52 9.11
5/30/2022 2:30:00 PM 17.62 63.716 0.05 7.05 3.18 9.06
5/30/2022 2:45:00 PM 17.83 64.094 0.05 7.07 3 9.01
5/30/2022 3:00:00 PM 18.01 64.418 0.051 7.08 2.91 8.96
5/30/2022 3:15:00 PM 18.17 64.706 0.05 7.05 2.73 8.92
5/30/2022 3:30:00 PM 18.31 64.958 0.05 7.07 2.59 8.77
5/30/2022 3:45:00 PM 18.41 65.138 0.05 7.07 2.57 8.84
5/30/2022 4:00:00 PM 18.5 65.3 0.05 7.03 2.48 8.81
5/30/2022 4:15:00 PM 18.56 65.408 0.05 7.08 2.52 8.77
5/30/2022 4:30:00 PM 18.59 65.462 0.051 7.06 2.33 8.75
5/30/2022 4:45:00 PM 18.6 65.48 0.051 7.05 3.11 8.72
5/30/2022 5:00:00 PM 18.59 65.462 0.051 7.06 2.43 8.7
5/30/2022 5:15:00 PM 18.54 65.372 0.051 7.05 2.58 8.68
5/30/2022 5:30:00 PM 18.47 65.246 0.051 7.03 2.49 8.67
5/30/2022 5:45:00 PM 18.38 65.084 0.051 7.01 2.3 8.65
5/30/2022 6:00:00 PM 18.25 64.85 0.051 7.03 2.94 8.65
5/30/2022 6:15:00 PM 18.1 64.58 0.051 7.02 2.51 8.65
5/30/2022 6:30:00 PM 17.92 64.256 0.051 6.98 2.48 8.65
5/30/2022 6:45:00 PM 17.73 63.914 0.051 6.98 2.31 8.66
5/30/2022 7:00:00 PM 17.56 63.608 0.05 6.97 2.37 8.66
5/30/2022 7:15:00 PM 17.39 63.302 0.051 6.96 2.75 8.66
5/30/2022 7:30:00 PM 17.21 62.978 0.051 6.93 2.43 8.66
5/30/2022 7:45:00 PM 17.04 62.672 0.051 6.92 2.57 8.67
5/30/2022 8:00:00 PM 16.88 62.384 0.051 6.91 2.41 8.67
5/30/2022 8:15:00 PM 16.72 62.096 0.051 6.87 2.37 8.68
5/30/2022 8:30:00 PM 16.56 61.808 0.052 6.86 2.53 8.69
5/30/2022 8:45:00 PM 16.4 61.52 0.051 6.87 2.53 8.69
5/30/2022 9:00:00 PM 16.25 61.25 0.052 6.86 2.96 8.7
5/30/2022 9:15:00 PM 16.1 60.98 0.052 6.84 2.9 8.72
5/30/2022 9:30:00 PM 15.95 60.71 0.052 6.82 2.83 8.75
5/30/2022 9:45:00 PM 15.82 60.476 0.052 6.83 3.09 8.77
5/30/2022 10:00:00 PM 15.7 60.26 0.052 6.81 2.75 8.79
5/30/2022 10:15:00 PM 15.57 60.026 0.052 6.82 3.04 8.82
5/30/2022 10:30:00 PM 15.46 59.828 0.052 6.8 2.76 8.85
5/30/2022 10:45:00 PM 15.35 59.63 0.052 6.81 2.83 8.87
5/30/2022 11:00:00 PM 15.24 59.432 0.052 6.8 3.03 8.89
5/30/2022 11:15:00 PM 15.14 59.252 0.052 6.81 2.8 8.91
5/30/2022 11:30:00 PM 15.04 59.072 0.053 6.8 3.02 8.93
5/30/2022 11:45:00 PM 14.94 58.892 0.052 6.78 2.97 8.96
5/31/2022 12:00:00 AM 14.84 58.712 0.052 6.79 2.98 8.98
5/31/2022 12:15:00 AM 14.75 58.55 0.052 6.75 2.97 9
5/31/2022 12:30:00 AM 14.65 58.37 0.052 6.8 2.75 9.02
5/31/2022 12:45:00 AM 14.56 58.208 0.053 6.8 2.95 9.04
5/31/2022 1:00:00 AM 14.46 58.028 0.052 6.8 2.78 9.06
5/31/2022 1:15:00 AM 14.36 57.848 0.052 6.79 3.18 9.09
5/31/2022 1:30:00 AM 14.26 57.668 0.052 6.78 2.76 9.11
5/31/2022 1:45:00 AM 14.16 57.488 0.052 6.77 2.75 9.13
5/31/2022 2:00:00 AM 14.06 57.308 0.052 6.8 3.06 9.16
5/31/2022 2:15:00 AM 13.96 57.128 0.052 6.8 2.76 9.18
5/31/2022 2:30:00 AM 13.86 56.948 0.052 6.8 2.83 9.2
5/31/2022 2:45:00 AM 13.76 56.768 0.052 6.77 2.64 9.23
5/31/2022 3:00:00 AM 13.67 56.606 0.052 6.77 3.1 9.25
5/31/2022 3:15:00 AM 13.57 56.426 0.052 6.8 2.75 9.27
5/31/2022 3:30:00 AM 13.48 56.264 0.052 6.79 2.91 9.29
5/31/2022 3:45:00 AM 13.39 56.102 0.052 6.78 3.03 9.31
5/31/2022 4:00:00 AM 13.3 55.94 0.052 6.78 2.98 9.34
5/31/2022 4:15:00 AM 13.22 55.796 0.052 6.79 2.83 9.36
5/31/2022 4:30:00 AM 13.13 55.634 0.052 6.77 2.83 9.38
5/31/2022 4:45:00 AM 13.06 55.508 0.052 6.76 2.99 9.4
5/31/2022 5:00:00 AM 12.98 55.364 0.052 6.74 3.46 9.41
5/31/2022 5:15:00 AM 12.9 55.22 0.052 6.75 3.11 9.44
5/31/2022 5:30:00 AM 12.83 55.094 0.052 6.76 3.62 9.46
5/31/2022 5:45:00 AM 12.76 54.968 0.052 6.76 2.99 9.48
5/31/2022 6:00:00 AM 12.69 54.842 0.052 6.74 2.88 9.5
5/31/2022 6:15:00 AM 12.63 54.734 0.052 6.77 2.65 9.53
5/31/2022 6:30:00 AM 12.58 54.644 0.052 6.77 2.62 9.56
5/31/2022 6:45:00 AM 12.53 54.554 0.052 6.77 2.84 9.6
5/31/2022 7:00:00 AM 12.5 54.5 0.051 6.8 2.74 9.62
5/31/2022 7:15:00 AM 12.48 54.464 0.052 6.8 3.12 9.65
5/31/2022 7:30:00 AM 12.48 54.464 0.052 6.79 2.62 9.68
5/31/2022 7:45:00 AM 12.51 54.518 0.052 6.81 2.45 9.71
5/31/2022 8:00:00 AM 12.58 54.644 0.051 6.83 2.5 9.73
5/31/2022 8:15:00 AM 12.7 54.86 0.051 6.84 2.67 9.75
5/31/2022 8:30:00 AM 12.85 55.13 0.051 6.87 2.41 9.75
5/31/2022 8:45:00 AM 13.01 55.418 0.051 6.88 2.65 9.75
5/31/2022 9:00:00 AM 13.21 55.778 0.051 6.88 2.59 9.75
5/31/2022 9:15:00 AM 13.45 56.21 0.051 6.93 2.59 9.74
5/31/2022 9:30:00 AM 13.71 56.678 0.051 6.94 2.4 9.71
5/31/2022 9:45:00 AM 13.96 57.128 0.051 6.92 2.54 9.68
5/31/2022 10:00:00 AM 14.23 57.614 0.051 6.95 2.54 9.65
5/31/2022 10:15:00 AM 14.51 58.118 0.051 6.97 2.72 9.61
5/31/2022 10:30:00 AM 14.8 58.64 0.051 7 2.4 9.57
5/31/2022 10:45:00 AM 15.06 59.108 0.05 6.99 2.49 9.52
5/31/2022 11:00:00 AM 15.37 59.666 0.05 7.02 2.49 9.48
5/31/2022 11:15:00 AM 15.62 60.116 0.051 7.03 2.62 9.43
5/31/2022 11:30:00 AM 15.87 60.566 0.05 7.02 2.65 9.38
5/31/2022 11:45:00 AM 16.21 61.178 0.051 7.04 2.43 9.35
5/31/2022 12:00:00 PM 16.39 61.502 0.051 7.06 2.86 9.3
5/31/2022 12:15:00 PM 16.37 61.466 0.05 7.04 2.57 9.24
5/31/2022 12:30:00 PM 16.47 61.646 0.05 7.07 2.46 9.25
5/31/2022 12:45:00 PM 16.68 62.024 0.051 7.07 2.59 9.23
5/31/2022 1:00:00 PM 16.68 62.024 0.05 7.05 2.55 9.15
5/31/2022 1:15:00 PM 16.85 62.33 0.05 7.07 2.59 9.13
5/31/2022 1:30:00 PM 16.88 62.384 0.05 7.07 2.59 9.08
5/31/2022 1:45:00 PM 16.74 62.132 0.05 7.06 2.63 9.06
5/31/2022 2:00:00 PM 16.9 62.42 0.05 7.06 2.51 9.1
5/31/2022 2:15:00 PM 17.18 62.924 0.05 7.07 2.39 9.09
5/31/2022 2:30:00 PM 17.53 63.554 0.05 7.06 2.72 9.04
5/31/2022 2:45:00 PM 17.7 63.86 0.05 7.08 2.53 8.99
5/31/2022 3:00:00 PM 17.85 64.13 0.05 7.09 2.58 8.95
5/31/2022 3:15:00 PM 17.95 64.31 0.051 7.08 2.5 8.92
5/31/2022 3:30:00 PM 18.04 64.472 0.05 7.08 2.57 8.9
5/31/2022 3:45:00 PM 18.24 64.832 0.05 7.07 2.34 8.87
5/31/2022 4:00:00 PM 18.36 65.048 0.051 7.09 2.45 8.83
5/31/2022 4:15:00 PM 18.47 65.246 0.051 7.08 2.87 8.79
5/31/2022 4:30:00 PM 18.53 65.354 0.051 7.07 2.35 8.75
5/31/2022 4:45:00 PM 18.56 65.408 0.051 7.08 2.39 8.72
5/31/2022 5:00:00 PM 18.5 65.3 0.051 7.07 2.72 8.7
5/31/2022 5:15:00 PM 18.43 65.174 0.05 7.07 2.52 8.69
5/31/2022 5:30:00 PM 18.34 65.012 0.051 7.04 2.55 8.67
5/31/2022 5:45:00 PM 18.23 64.814 0.05 7.05 2.74 8.67
5/31/2022 6:00:00 PM 18.1 64.58 0.051 7.05 2.75 8.66
5/31/2022 6:15:00 PM 17.96 64.328 0.051 7.03 2.55 8.66
5/31/2022 6:30:00 PM 17.85 64.13 0.051 7.01 2.72 8.66
5/31/2022 6:45:00 PM 17.76 63.968 0.051 6.99 2.66 8.66
5/31/2022 7:00:00 PM 17.65 63.77 0.051 6.98 2.48 8.65
5/31/2022 7:15:00 PM 17.51 63.518 0.051 6.98 2.52 8.64
5/31/2022 7:30:00 PM 17.37 63.266 0.051 6.97 2.55 8.65
5/31/2022 7:45:00 PM 17.23 63.014 0.052 6.95 2.61 8.64
5/31/2022 8:00:00 PM 17.11 62.798 0.051 6.93 2.62 8.63
5/31/2022 8:15:00 PM 17.01 62.618 0.051 6.92 2.52 8.62
5/31/2022 8:30:00 PM 16.89 62.402 0.051 6.87 2.62 8.61
5/31/2022 8:45:00 PM 16.76 62.168 0.051 6.88 2.68 8.6
5/31/2022 9:00:00 PM 16.63 61.934 0.052 6.86 2.91 8.61
5/31/2022 9:15:00 PM 16.49 61.682 0.052 6.84 2.66 8.62
5/31/2022 9:30:00 PM 16.37 61.466 0.052 6.81 3.11 8.64
5/31/2022 9:45:00 PM 16.26 61.268 0.052 6.83 3.11 8.66
5/31/2022 10:00:00 PM 16.15 61.07 0.052 6.84 3.26 8.68
5/31/2022 10:15:00 PM 16.04 60.872 0.052 6.82 3.31 8.7
5/31/2022 10:30:00 PM 15.93 60.674 0.052 6.8 3.16 8.72
5/31/2022 10:45:00 PM 15.82 60.476 0.052 6.81 3.18 8.74
5/31/2022 11:00:00 PM 15.72 60.296 0.052 6.82 3.06 8.77
5/31/2022 11:15:00 PM 15.62 60.116 0.052 6.8 3.08 8.79
5/31/2022 11:30:00 PM 15.53 59.954 0.052 6.78 3.79 8.81
5/31/2022 11:45:00 PM 15.43 59.774 0.052 6.81 3.22 8.83
6/1/2022 12:00:00 AM 15.35 59.63 0.052 6.79 3.17 8.85
6/1/2022 12:15:00 AM 15.26 59.468 0.053 6.8 2.93 8.87
6/1/2022 12:30:00 AM 15.18 59.324 0.052 6.79 3.04 8.89
6/1/2022 12:45:00 AM 15.1 59.18 0.052 6.8 2.97 8.91
6/1/2022 1:00:00 AM 15.02 59.036 0.052 6.79 2.91 8.92
6/1/2022 1:15:00 AM 14.93 58.874 0.052 6.79 3.01 8.94
6/1/2022 1:30:00 AM 14.85 58.73 0.052 6.81 2.92 8.96
6/1/2022 1:45:00 AM 14.77 58.586 0.052 6.8 2.89 8.98
6/1/2022 2:00:00 AM 14.69 58.442 0.052 6.81 2.91 8.99
6/1/2022 2:15:00 AM 14.61 58.298 0.052 6.81 2.99 9.01
6/1/2022 2:30:00 AM 14.54 58.172 0.053 6.8 2.68 9.03
6/1/2022 2:45:00 AM 14.46 58.028 0.052 6.79 2.75 9.05
6/1/2022 3:00:00 AM 14.38 57.884 0.053 6.81 3.12 9.07
6/1/2022 3:15:00 AM 14.31 57.758 0.052 6.81 2.97 9.08
6/1/2022 3:30:00 AM 14.23 57.614 0.052 6.8 2.71 9.1
6/1/2022 3:45:00 AM 14.15 57.47 0.053 6.79 3.27 9.12
6/1/2022 4:00:00 AM 14.07 57.326 0.052 6.81 2.86 9.13
6/1/2022 4:15:00 AM 13.99 57.182 0.052 6.81 3.52 9.15
6/1/2022 4:30:00 AM 13.91 57.038 0.052 6.79 3.46 9.17
6/1/2022 4:45:00 AM 13.84 56.912 0.052 6.79 3.24 9.18
6/1/2022 5:00:00 AM 13.77 56.786 0.052 6.81 2.87 9.2
6/1/2022 5:15:00 AM 13.71 56.678 0.052 6.8 3.2 9.22
6/1/2022 5:30:00 AM 13.65 56.57 0.052 6.8 3.26 9.23
6/1/2022 5:45:00 AM 13.59 56.462 0.052 6.8 5.26 9.25
6/1/2022 6:00:00 AM 13.54 56.372 0.052 6.78 3.45 9.27
6/1/2022 6:15:00 AM 13.5 56.3 0.052 6.8 2.94 9.29
6/1/2022 6:30:00 AM 13.46 56.228 0.052 6.79 2.88 9.32
6/1/2022 6:45:00 AM 13.43 56.174 0.052 6.79 2.7 9.36
6/1/2022 7:00:00 AM 13.39 56.102 0.052 6.79 2.67 9.39
6/1/2022 7:15:00 AM 13.36 56.048 0.052 6.84 3.01 9.41
6/1/2022 7:30:00 AM 13.35 56.03 0.051 6.84 2.62 9.45
6/1/2022 7:45:00 AM 13.36 56.048 0.051 6.86 2.52 9.48
6/1/2022 8:00:00 AM 13.41 56.138 0.052 6.85 2.79 9.51
6/1/2022 8:15:00 AM 13.51 56.318 0.052 6.85 2.77 9.53
6/1/2022 8:30:00 AM 13.63 56.534 0.051 6.89 2.67 9.54
6/1/2022 8:45:00 AM 13.78 56.804 0.051 6.91 2.84 9.54
6/1/2022 9:00:00 AM 13.97 57.146 0.051 6.91 2.7 9.53
6/1/2022 9:15:00 AM 14.2 57.56 0.051 6.95 2.75 9.53
6/1/2022 9:30:00 AM 14.45 58.01 0.051 6.96 2.52 9.51
6/1/2022 9:45:00 AM 14.69 58.442 0.051 6.99 2.84 9.49
6/1/2022 10:00:00 AM 14.94 58.892 0.051 6.97 2.93 9.46
6/1/2022 10:15:00 AM 15.17 59.306 0.051 7.01 2.49 9.44
6/1/2022 10:30:00 AM 15.41 59.738 0.051 7.01 2.55 9.4
6/1/2022 10:45:00 AM 15.68 60.224 0.05 7.04 2.53 9.37
6/1/2022 11:00:00 AM 15.94 60.692 0.05 7.06 2.54 9.33
6/1/2022 11:15:00 AM 16.22 61.196 0.051 7.06 2.71 9.29
6/1/2022 11:30:00 AM 16.39 61.502 0.05 7.06 2.68 9.23
6/1/2022 11:45:00 AM 16.64 61.952 0.051 7.05 2.88 9.2
6/1/2022 12:00:00 PM 16.68 62.024 0.051 7.06 2.69 9.15
6/1/2022 12:15:00 PM 16.57 61.826 0.051 7.05 2.83 9.12
6/1/2022 12:30:00 PM 16.84 62.312 0.05 7.06 2.9 9.13
6/1/2022 12:45:00 PM 17.03 62.654 0.05 7.08 2.72 9.12
6/1/2022 1:00:00 PM 17.1 62.78 0.051 7.08 2.71 9.08
6/1/2022 1:15:00 PM 17.37 63.266 0.051 7.08 2.86 9.05
6/1/2022 1:30:00 PM 17.6 63.68 0.05 7.1 2.53 9.02
6/1/2022 1:45:00 PM 17.83 64.094 0.051 7.09 2.71 8.98
6/1/2022 2:00:00 PM 18.11 64.598 0.051 7.1 2.56 8.94
6/1/2022 2:15:00 PM 18.36 65.048 0.05 7.1 2.55 8.89
6/1/2022 2:30:00 PM 18.53 65.354 0.05 7.11 2.75 8.84
6/1/2022 2:45:00 PM 18.61 65.498 0.05 7.12 2.63 8.8
6/1/2022 3:00:00 PM 18.72 65.696 0.051 7.12 2.81 8.77
6/1/2022 3:15:00 PM 18.75 65.75 0.05 7.12 2.51 8.74
6/1/2022 3:30:00 PM 18.74 65.732 0.05 7.11 2.82 8.71
6/1/2022 3:45:00 PM 18.8 65.84 0.05 7.11 2.8 6.93
6/1/2022 4:00:00 PM 18.79 65.82201 0.05 7.12 2.56 7.95
6/1/2022 4:15:00 PM 18.74 65.732 0.05 7.11 3.02 8.27
6/1/2022 4:30:00 PM 18.65 65.57 0.05 7.09 2.7 8.21
6/1/2022 4:45:00 PM 18.54 65.372 0.051 7.06 2.74 8.19
6/1/2022 5:00:00 PM 18.39 65.102 0.051 7.04 2.72 8.09
6/1/2022 5:15:00 PM 18.21 64.778 0.051 7.04 2.55 7.99
6/1/2022 5:30:00 PM -99999.99 -179968 -99999.99 -99999.99 -99999.99 -99999.99
6/1/2022 5:45:00 PM -99999.99 -179968 -99999.99 -99999.99 -99999.99 -99999.99
6/1/2022 6:00:00 PM -99999.99 -179968 -99999.99 -99999.99 -99999.99 -99999.99
6/1/2022 6:15:00 PM -99999.99 -179968 -99999.99 -99999.99 -99999.99 -99999.99
6/1/2022 6:30:00 PM -99999.99 -179968 -99999.99 -99999.99 -99999.99 -99999.99
6/1/2022 6:45:00 PM -99999.99 -179968 -99999.99 -99999.99 -99999.99 -99999.99
6/1/2022 7:00:00 PM -99999.99 -179968 -99999.99 -99999.99 -99999.99 -99999.99
6/1/2022 7:15:00 PM -99999.99 -179968 -99999.99 -99999.99 -99999.99 -99999.99
6/1/2022 7:30:00 PM -99999.99 -179968 -99999.99 -99999.99 -99999.99 -99999.99
6/1/2022 7:45:00 PM -99999.99 -179968 -99999.99 -99999.99 -99999.99 -99999.99
6/1/2022 8:00:00 PM -99999.99 -179968 -99999.99 -99999.99 -99999.99 -99999.99
6/1/2022 8:15:00 PM -99999.99 -179968 -99999.99 -99999.99 -99999.99 -99999.99
6/1/2022 8:30:00 PM -99999.99 -179968 -99999.99 -99999.99 -99999.99 -99999.99
6/1/2022 8:45:00 PM -99999.99 -179968 -99999.99 -99999.99 -99999.99 -99999.99
6/1/2022 9:00:00 PM -99999.99 -179968 -99999.99 -99999.99 -99999.99 -99999.99
6/1/2022 9:15:00 PM -99999.99 -179968 -99999.99 -99999.99 -99999.99 -99999.99
6/1/2022 9:30:00 PM -99999.99 -179968 -99999.99 -99999.99 -99999.99 -99999.99
6/1/2022 9:45:00 PM -99999.99 -179968 -99999.99 -99999.99 -99999.99 -99999.99
6/1/2022 10:00:00 PM -99999.99 -179968 -99999.99 -99999.99 -99999.99 -99999.99
6/1/2022 10:15:00 PM -99999.99 -179968 -99999.99 -99999.99 -99999.99 -99999.99
6/1/2022 10:30:00 PM -99999.99 -179968 -99999.99 -99999.99 -99999.99 -99999.99
6/1/2022 10:45:00 PM -99999.99 -179968 -99999.99 -99999.99 -99999.99 -99999.99
6/1/2022 11:00:00 PM -99999.99 -179968 -99999.99 -99999.99 -99999.99 -99999.99
6/1/2022 11:15:00 PM -99999.99 -179968 -99999.99 -99999.99 -99999.99 -99999.99
6/1/2022 11:30:00 PM -99999.99 -179968 -99999.99 -99999.99 -99999.99 -99999.99
6/1/2022 11:45:00 PM -99999.99 -179968 -99999.99 -99999.99 -99999.99 -99999.99
6/2/2022 12:00:00 AM -99999.99 -179968 -99999.99 -99999.99 -99999.99 -99999.99
6/2/2022 12:15:00 AM -99999.99 -179968 -99999.99 -99999.99 -99999.99 -99999.99
6/2/2022 12:30:00 AM -99999.99 -179968 -99999.99 -99999.99 -99999.99 -99999.99
6/2/2022 12:45:00 AM -99999.99 -179968 -99999.99 -99999.99 -99999.99 -99999.99
6/2/2022 1:00:00 AM -99999.99 -179968 -99999.99 -99999.99 -99999.99 -99999.99
6/2/2022 1:15:00 AM -99999.99 -179968 -99999.99 -99999.99 -99999.99 -99999.99
6/2/2022 1:30:00 AM -99999.99 -179968 -99999.99 -99999.99 -99999.99 -99999.99
6/2/2022 1:45:00 AM -99999.99 -179968 -99999.99 -99999.99 -99999.99 -99999.99
6/2/2022 2:00:00 AM -99999.99 -179968 -99999.99 -99999.99 -99999.99 -99999.99
6/2/2022 2:15:00 AM -99999.99 -179968 -99999.99 -99999.99 -99999.99 -99999.99
6/2/2022 2:30:00 AM -99999.99 -179968 -99999.99 -99999.99 -99999.99 -99999.99
6/2/2022 2:45:00 AM -99999.99 -179968 -99999.99 -99999.99 -99999.99 -99999.99
6/2/2022 3:00:00 AM -99999.99 -179968 -99999.99 -99999.99 -99999.99 -99999.99
6/2/2022 3:15:00 AM -99999.99 -179968 -99999.99 -99999.99 -99999.99 -99999.99
6/2/2022 3:30:00 AM -99999.99 -179968 -99999.99 -99999.99 -99999.99 -99999.99
6/2/2022 3:45:00 AM -99999.99 -179968 -99999.99 -99999.99 -99999.99 -99999.99
6/2/2022 4:00:00 AM -99999.99 -179968 -99999.99 -99999.99 -99999.99 -99999.99
6/2/2022 4:15:00 AM -99999.99 -179968 -99999.99 -99999.99 -99999.99 -99999.99
6/2/2022 4:30:00 AM -99999.99 -179968 -99999.99 -99999.99 -99999.99 -99999.99
6/2/2022 4:45:00 AM -99999.99 -179968 -99999.99 -99999.99 -99999.99 -99999.99
6/2/2022 5:00:00 AM -99999.99 -179968 -99999.99 -99999.99 -99999.99 -99999.99
6/2/2022 5:15:00 AM -99999.99 -179968 -99999.99 -99999.99 -99999.99 -99999.99
6/2/2022 5:30:00 AM -99999.99 -179968 -99999.99 -99999.99 -99999.99 -99999.99
6/2/2022 5:45:00 AM -99999.99 -179968 -99999.99 -99999.99 -99999.99 -99999.99
6/2/2022 6:00:00 AM -99999.99 -179968 -99999.99 -99999.99 -99999.99 -99999.99
6/2/2022 6:15:00 AM -99999.99 -179968 -99999.99 -99999.99 -99999.99 -99999.99
6/2/2022 6:30:00 AM -99999.99 -179968 -99999.99 -99999.99 -99999.99 -99999.99
6/2/2022 6:45:00 AM -99999.99 -179968 -99999.99 -99999.99 -99999.99 -99999.99
6/2/2022 7:00:00 AM -99999.99 -179968 -99999.99 -99999.99 -99999.99 -99999.99
6/2/2022 7:15:00 AM -99999.99 -179968 -99999.99 -99999.99 -99999.99 -99999.99
6/2/2022 7:30:00 AM -99999.99 -179968 -99999.99 -99999.99 -99999.99 -99999.99
6/2/2022 7:45:00 AM -99999.99 -179968 -99999.99 -99999.99 -99999.99 -99999.99
6/2/2022 8:00:00 AM -99999.99 -179968 -99999.99 -99999.99 -99999.99 -99999.99
6/2/2022 8:15:00 AM -99999.99 -179968 -99999.99 -99999.99 -99999.99 -99999.99
6/2/2022 8:30:00 AM -99999.99 -179968 -99999.99 -99999.99 -99999.99 -99999.99
6/2/2022 8:45:00 AM -99999.99 -179968 -99999.99 -99999.99 -99999.99 -99999.99
6/2/2022 9:00:00 AM -99999.99 -179968 -99999.99 -99999.99 -99999.99 -99999.99
6/2/2022 9:15:00 AM -99999.99 -179968 -99999.99 -99999.99 -99999.99 -99999.99
6/2/2022 9:30:00 AM -99999.99 -179968 -99999.99 -99999.99 -99999.99 -99999.99
6/2/2022 9:45:00 AM -99999.99 -179968 -99999.99 -99999.99 -99999.99 -99999.99
6/2/2022 10:00:00 AM -99999.99 -179968 -99999.99 -99999.99 -99999.99 -99999.99
6/2/2022 10:15:00 AM -99999.99 -179968 -99999.99 -99999.99 -99999.99 -99999.99
6/2/2022 10:30:00 AM -99999.99 -179968 -99999.99 -99999.99 -99999.99 -99999.99
6/2/2022 10:45:00 AM -99999.99 -179968 -99999.99 -99999.99 -99999.99 -99999.99
6/2/2022 11:00:00 AM -99999.99 -179968 -99999.99 -99999.99 -99999.99 -99999.99
6/2/2022 11:15:00 AM -99999.99 -179968 -99999.99 -99999.99 -99999.99 -99999.99
6/2/2022 11:30:00 AM -99999.99 -179968 -99999.99 -99999.99 -99999.99 -99999.99
6/2/2022 11:45:00 AM -99999.99 -179968 -99999.99 -99999.99 -99999.99 -99999.99
6/2/2022 12:00:00 PM -99999.99 -179968 -99999.99 -99999.99 -99999.99 -99999.99
6/2/2022 12:15:00 PM -99999.99 -179968 -99999.99 -99999.99 -99999.99 -99999.99
6/2/2022 12:30:00 PM -99999.99 -179968 -99999.99 -99999.99 -99999.99 -99999.99
6/2/2022 12:45:00 PM -99999.99 -179968 -99999.99 -99999.99 -99999.99 -99999.99
6/2/2022 1:00:00 PM -99999.99 -179968 -99999.99 -99999.99 -99999.99 -99999.99
6/2/2022 1:15:00 PM -99999.99 -179968 -99999.99 -99999.99 -99999.99 -99999.99
6/2/2022 1:30:00 PM -99999.99 -179968 -99999.99 -99999.99 -99999.99 -99999.99
6/2/2022 1:45:00 PM -99999.99 -179968 -99999.99 -99999.99 -99999.99 -99999.99
6/2/2022 2:00:00 PM -99999.99 -179968 -99999.99 -99999.99 -99999.99 -99999.99
6/2/2022 2:15:00 PM -99999.99 -179968 -99999.99 -99999.99 -99999.99 -99999.99
6/2/2022 2:30:00 PM -99999.99 -179968 -99999.99 -99999.99 -99999.99 -99999.99
6/2/2022 2:45:00 PM -99999.99 -179968 -99999.99 -99999.99 -99999.99 -99999.99
6/2/2022 3:00:00 PM -99999.99 -179968 -99999.99 -99999.99 -99999.99 -99999.99
6/2/2022 3:15:00 PM -99999.99 -179968 -99999.99 -99999.99 -99999.99 -99999.99
6/2/2022 3:30:00 PM -99999.99 -179968 -99999.99 -99999.99 -99999.99 -99999.99
6/2/2022 3:45:00 PM -99999.99 -179968 -99999.99 -99999.99 -99999.99 -99999.99
6/2/2022 4:00:00 PM -99999.99 -179968 -99999.99 -99999.99 -99999.99 -99999.99
6/2/2022 4:15:00 PM -99999.99 -179968 -99999.99 -99999.99 -99999.99 -99999.99
6/2/2022 4:30:00 PM -99999.99 -179968 -99999.99 -99999.99 -99999.99 -99999.99
6/2/2022 4:45:00 PM -99999.99 -179968 -99999.99 -99999.99 -99999.99 -99999.99
6/2/2022 5:00:00 PM -99999.99 -179968 -99999.99 -99999.99 -99999.99 -99999.99
6/2/2022 5:15:00 PM -99999.99 -179968 -99999.99 -99999.99 -99999.99 -99999.99
6/2/2022 5:30:00 PM -99999.99 -179968 -99999.99 -99999.99 -99999.99 -99999.99
6/2/2022 5:45:00 PM -99999.99 -179968 -99999.99 -99999.99 -99999.99 -99999.99
6/2/2022 6:00:00 PM -99999.99 -179968 -99999.99 -99999.99 -99999.99 -99999.99
6/2/2022 6:15:00 PM -99999.99 -179968 -99999.99 -99999.99 -99999.99 -99999.99
6/2/2022 6:30:00 PM -99999.99 -179968 -99999.99 -99999.99 -99999.99 -99999.99
6/2/2022 6:45:00 PM -99999.99 -179968 -99999.99 -99999.99 -99999.99 -99999.99
6/2/2022 7:00:00 PM -99999.99 -179968 -99999.99 -99999.99 -99999.99 -99999.99
6/2/2022 7:15:00 PM -99999.99 -179968 -99999.99 -99999.99 -99999.99 -99999.99
6/2/2022 7:30:00 PM -99999.99 -179968 -99999.99 -99999.99 -99999.99 -99999.99
6/2/2022 7:45:00 PM -99999.99 -179968 -99999.99 -99999.99 -99999.99 -99999.99
6/2/2022 8:00:00 PM -99999.99 -179968 -99999.99 -99999.99 -99999.99 -99999.99
6/2/2022 8:15:00 PM -99999.99 -179968 -99999.99 -99999.99 -99999.99 -99999.99
6/2/2022 8:30:00 PM -99999.99 -179968 -99999.99 -99999.99 -99999.99 -99999.99
6/2/2022 8:45:00 PM -99999.99 -179968 -99999.99 -99999.99 -99999.99 -99999.99
6/2/2022 9:00:00 PM -99999.99 -179968 -99999.99 -99999.99 -99999.99 -99999.99
6/2/2022 9:15:00 PM -99999.99 -179968 -99999.99 -99999.99 -99999.99 -99999.99
6/2/2022 9:30:00 PM -99999.99 -179968 -99999.99 -99999.99 -99999.99 -99999.99
6/2/2022 9:45:00 PM -99999.99 -179968 -99999.99 -99999.99 -99999.99 -99999.99
6/2/2022 10:00:00 PM -99999.99 -179968 -99999.99 -99999.99 -99999.99 -99999.99
6/2/2022 10:15:00 PM -99999.99 -179968 -99999.99 -99999.99 -99999.99 -99999.99
6/2/2022 10:30:00 PM -99999.99 -179968 -99999.99 -99999.99 -99999.99 -99999.99
6/2/2022 10:45:00 PM -99999.99 -179968 -99999.99 -99999.99 -99999.99 -99999.99
6/2/2022 11:00:00 PM -99999.99 -179968 -99999.99 -99999.99 -99999.99 -99999.99
6/2/2022 11:15:00 PM -99999.99 -179968 -99999.99 -99999.99 -99999.99 -99999.99
6/2/2022 11:30:00 PM -99999.99 -179968 -99999.99 -99999.99 -99999.99 -99999.99
6/2/2022 11:45:00 PM -99999.99 -179968 -99999.99 -99999.99 -99999.99 -99999.99
6/3/2022 12:00:00 AM -99999.99 -179968 -99999.99 -99999.99 -99999.99 -99999.99
6/3/2022 12:15:00 AM -99999.99 -179968 -99999.99 -99999.99 -99999.99 -99999.99
6/3/2022 12:30:00 AM -99999.99 -179968 -99999.99 -99999.99 -99999.99 -99999.99
6/3/2022 12:45:00 AM -99999.99 -179968 -99999.99 -99999.99 -99999.99 -99999.99
6/3/2022 1:00:00 AM -99999.99 -179968 -99999.99 -99999.99 -99999.99 -99999.99
6/3/2022 1:15:00 AM -99999.99 -179968 -99999.99 -99999.99 -99999.99 -99999.99
6/3/2022 1:30:00 AM -99999.99 -179968 -99999.99 -99999.99 -99999.99 -99999.99
6/3/2022 1:45:00 AM -99999.99 -179968 -99999.99 -99999.99 -99999.99 -99999.99
6/3/2022 2:00:00 AM -99999.99 -179968 -99999.99 -99999.99 -99999.99 -99999.99
6/3/2022 2:15:00 AM -99999.99 -179968 -99999.99 -99999.99 -99999.99 -99999.99
6/3/2022 2:30:00 AM -99999.99 -179968 -99999.99 -99999.99 -99999.99 -99999.99
6/3/2022 2:45:00 AM -99999.99 -179968 -99999.99 -99999.99 -99999.99 -99999.99
6/3/2022 3:00:00 AM -99999.99 -179968 -99999.99 -99999.99 -99999.99 -99999.99
6/3/2022 3:15:00 AM -99999.99 -179968 -99999.99 -99999.99 -99999.99 -99999.99
6/3/2022 3:30:00 AM -99999.99 -179968 -99999.99 -99999.99 -99999.99 -99999.99
6/3/2022 3:45:00 AM -99999.99 -179968 -99999.99 -99999.99 -99999.99 -99999.99
6/3/2022 4:00:00 AM -99999.99 -179968 -99999.99 -99999.99 -99999.99 -99999.99
6/3/2022 4:15:00 AM -99999.99 -179968 -99999.99 -99999.99 -99999.99 -99999.99
6/3/2022 4:30:00 AM -99999.99 -179968 -99999.99 -99999.99 -99999.99 -99999.99
6/3/2022 4:45:00 AM -99999.99 -179968 -99999.99 -99999.99 -99999.99 -99999.99
6/3/2022 5:00:00 AM -99999.99 -179968 -99999.99 -99999.99 -99999.99 -99999.99
6/3/2022 5:15:00 AM -99999.99 -179968 -99999.99 -99999.99 -99999.99 -99999.99
6/3/2022 5:30:00 AM -99999.99 -179968 -99999.99 -99999.99 -99999.99 -99999.99
6/3/2022 5:45:00 AM -99999.99 -179968 -99999.99 -99999.99 -99999.99 -99999.99
6/3/2022 6:00:00 AM -99999.99 -179968 -99999.99 -99999.99 -99999.99 -99999.99
6/3/2022 6:15:00 AM -99999.99 -179968 -99999.99 -99999.99 -99999.99 -99999.99
6/3/2022 6:30:00 AM -99999.99 -179968 -99999.99 -99999.99 -99999.99 -99999.99
6/3/2022 6:45:00 AM -99999.99 -179968 -99999.99 -99999.99 -99999.99 -99999.99
6/3/2022 7:00:00 AM -99999.99 -179968 -99999.99 -99999.99 -99999.99 -99999.99
6/3/2022 7:15:00 AM -99999.99 -179968 -99999.99 -99999.99 -99999.99 -99999.99
6/3/2022 7:30:00 AM -99999.99 -179968 -99999.99 -99999.99 -99999.99 -99999.99
6/3/2022 7:45:00 AM -99999.99 -179968 -99999.99 -99999.99 -99999.99 -99999.99
6/3/2022 8:00:00 AM -99999.99 -179968 -99999.99 -99999.99 -99999.99 -99999.99
6/3/2022 8:15:00 AM -99999.99 -179968 -99999.99 -99999.99 -99999.99 -99999.99
6/3/2022 8:30:00 AM -99999.99 -179968 -99999.99 -99999.99 -99999.99 -99999.99
6/3/2022 8:45:00 AM -99999.99 -179968 -99999.99 -99999.99 -99999.99 -99999.99
6/3/2022 9:00:00 AM -99999.99 -179968 -99999.99 -99999.99 -99999.99 -99999.99
6/3/2022 9:15:00 AM -99999.99 -179968 -99999.99 -99999.99 -99999.99 -99999.99
6/3/2022 9:30:00 AM -99999.99 -179968 -99999.99 -99999.99 -99999.99 -99999.99
6/3/2022 9:45:00 AM -99999.99 -179968 -99999.99 -99999.99 -99999.99 -99999.99
6/3/2022 10:00:00 AM -99999.99 -179968 -99999.99 -99999.99 -99999.99 -99999.99
6/3/2022 10:15:00 AM -99999.99 -179968 -99999.99 -99999.99 -99999.99 -99999.99
6/3/2022 10:30:00 AM -99999.99 -179968 -99999.99 -99999.99 -99999.99 -99999.99
6/3/2022 10:45:00 AM -99999.99 -179968 -99999.99 -99999.99 -99999.99 -99999.99
6/3/2022 11:00:00 AM -99999.99 -179968 -99999.99 -99999.99 -99999.99 -99999.99
6/3/2022 11:15:00 AM -99999.99 -179968 -99999.99 -99999.99 -99999.99 -99999.99
6/3/2022 11:30:00 AM -99999.99 -179968 -99999.99 -99999.99 -99999.99 -99999.99
6/3/2022 11:45:00 AM -99999.99 -179968 -99999.99 -99999.99 -99999.99 -99999.99
6/3/2022 12:00:00 PM -99999.99 -179968 -99999.99 -99999.99 -99999.99 -99999.99
6/3/2022 12:15:00 PM -99999.99 -179968 -99999.99 -99999.99 -99999.99 -99999.99
6/3/2022 12:30:00 PM -99999.99 -179968 -99999.99 -99999.99 -99999.99 -99999.99
6/3/2022 12:45:00 PM -99999.99 -179968 -99999.99 -99999.99 -99999.99 -99999.99
6/3/2022 1:00:00 PM -99999.99 -179968 -99999.99 -99999.99 -99999.99 -99999.99
6/3/2022 1:15:00 PM -99999.99 -179968 -99999.99 -99999.99 -99999.99 -99999.99
6/3/2022 1:30:00 PM -99999.99 -179968 -99999.99 -99999.99 -99999.99 -99999.99
6/3/2022 1:45:00 PM -99999.99 -179968 -99999.99 -99999.99 -99999.99 -99999.99
6/3/2022 2:00:00 PM -99999.99 -179968 -99999.99 -99999.99 -99999.99 -99999.99
6/3/2022 2:15:00 PM -99999.99 -179968 -99999.99 -99999.99 -99999.99 -99999.99
6/3/2022 2:30:00 PM -99999.99 -179968 -99999.99 -99999.99 -99999.99 -99999.99
6/3/2022 2:45:00 PM -99999.99 -179968 -99999.99 -99999.99 -99999.99 -99999.99
6/3/2022 3:00:00 PM -99999.99 -179968 -99999.99 -99999.99 -99999.99 -99999.99
6/3/2022 3:15:00 PM -99999.99 -179968 -99999.99 -99999.99 -99999.99 -99999.99
6/3/2022 3:30:00 PM -99999.99 -179968 -99999.99 -99999.99 -99999.99 -99999.99
6/3/2022 3:45:00 PM -99999.99 -179968 -99999.99 -99999.99 -99999.99 -99999.99
6/3/2022 4:00:00 PM -99999.99 -179968 -99999.99 -99999.99 -99999.99 -99999.99
6/3/2022 4:15:00 PM -99999.99 -179968 -99999.99 -99999.99 -99999.99 -99999.99
6/3/2022 4:30:00 PM -99999.99 -179968 -99999.99 -99999.99 -99999.99 -99999.99
6/3/2022 4:45:00 PM -99999.99 -179968 -99999.99 -99999.99 -99999.99 -99999.99
6/3/2022 5:00:00 PM -99999.99 -179968 -99999.99 -99999.99 -99999.99 -99999.99
6/3/2022 5:15:00 PM -99999.99 -179968 -99999.99 -99999.99 -99999.99 -99999.99
6/3/2022 5:30:00 PM -99999.99 -179968 -99999.99 -99999.99 -99999.99 -99999.99
6/3/2022 5:45:00 PM -99999.99 -179968 -99999.99 -99999.99 -99999.99 -99999.99
6/3/2022 6:00:00 PM -99999.99 -179968 -99999.99 -99999.99 -99999.99 -99999.99
6/3/2022 6:15:00 PM -99999.99 -179968 -99999.99 -99999.99 -99999.99 -99999.99
6/3/2022 6:30:00 PM -99999.99 -179968 -99999.99 -99999.99 -99999.99 -99999.99
6/3/2022 6:45:00 PM -99999.99 -179968 -99999.99 -99999.99 -99999.99 -99999.99
6/3/2022 7:00:00 PM -99999.99 -179968 -99999.99 -99999.99 -99999.99 -99999.99
6/3/2022 7:15:00 PM -99999.99 -179968 -99999.99 -99999.99 -99999.99 -99999.99
6/3/2022 7:30:00 PM -99999.99 -179968 -99999.99 -99999.99 -99999.99 -99999.99
6/3/2022 7:45:00 PM -99999.99 -179968 -99999.99 -99999.99 -99999.99 -99999.99
6/3/2022 8:00:00 PM -99999.99 -179968 -99999.99 -99999.99 -99999.99 -99999.99
6/3/2022 8:15:00 PM -99999.99 -179968 -99999.99 -99999.99 -99999.99 -99999.99
6/3/2022 8:30:00 PM -99999.99 -179968 -99999.99 -99999.99 -99999.99 -99999.99
6/3/2022 8:45:00 PM -99999.99 -179968 -99999.99 -99999.99 -99999.99 -99999.99
6/3/2022 9:00:00 PM -99999.99 -179968 -99999.99 -99999.99 -99999.99 -99999.99
6/3/2022 9:15:00 PM -99999.99 -179968 -99999.99 -99999.99 -99999.99 -99999.99
6/3/2022 9:30:00 PM -99999.99 -179968 -99999.99 -99999.99 -99999.99 -99999.99
6/3/2022 9:45:00 PM -99999.99 -179968 -99999.99 -99999.99 -99999.99 -99999.99
6/3/2022 10:00:00 PM -99999.99 -179968 -99999.99 -99999.99 -99999.99 -99999.99
6/3/2022 10:15:00 PM -99999.99 -179968 -99999.99 -99999.99 -99999.99 -99999.99
6/3/2022 10:30:00 PM -99999.99 -179968 -99999.99 -99999.99 -99999.99 -99999.99
6/3/2022 10:45:00 PM -99999.99 -179968 -99999.99 -99999.99 -99999.99 -99999.99
6/3/2022 11:00:00 PM -99999.99 -179968 -99999.99 -99999.99 -99999.99 -99999.99
6/3/2022 11:15:00 PM -99999.99 -179968 -99999.99 -99999.99 -99999.99 -99999.99
6/3/2022 11:30:00 PM -99999.99 -179968 -99999.99 -99999.99 -99999.99 -99999.99
6/3/2022 11:45:00 PM -99999.99 -179968 -99999.99 -99999.99 -99999.99 -99999.99
6/4/2022 12:00:00 AM -99999.99 -179968 -99999.99 -99999.99 -99999.99 -99999.99
6/4/2022 12:15:00 AM -99999.99 -179968 -99999.99 -99999.99 -99999.99 -99999.99
6/4/2022 12:30:00 AM -99999.99 -179968 -99999.99 -99999.99 -99999.99 -99999.99
6/4/2022 12:45:00 AM -99999.99 -179968 -99999.99 -99999.99 -99999.99 -99999.99
6/4/2022 1:00:00 AM -99999.99 -179968 -99999.99 -99999.99 -99999.99 -99999.99
6/4/2022 1:15:00 AM -99999.99 -179968 -99999.99 -99999.99 -99999.99 -99999.99
6/4/2022 1:30:00 AM -99999.99 -179968 -99999.99 -99999.99 -99999.99 -99999.99
6/4/2022 1:45:00 AM -99999.99 -179968 -99999.99 -99999.99 -99999.99 -99999.99
6/4/2022 2:00:00 AM -99999.99 -179968 -99999.99 -99999.99 -99999.99 -99999.99
6/4/2022 2:15:00 AM -99999.99 -179968 -99999.99 -99999.99 -99999.99 -99999.99
6/4/2022 2:30:00 AM -99999.99 -179968 -99999.99 -99999.99 -99999.99 -99999.99
6/4/2022 2:45:00 AM -99999.99 -179968 -99999.99 -99999.99 -99999.99 -99999.99
6/4/2022 3:00:00 AM -99999.99 -179968 -99999.99 -99999.99 -99999.99 -99999.99
6/4/2022 3:15:00 AM -99999.99 -179968 -99999.99 -99999.99 -99999.99 -99999.99
6/4/2022 3:30:00 AM -99999.99 -179968 -99999.99 -99999.99 -99999.99 -99999.99
6/4/2022 3:45:00 AM -99999.99 -179968 -99999.99 -99999.99 -99999.99 -99999.99
6/4/2022 4:00:00 AM -99999.99 -179968 -99999.99 -99999.99 -99999.99 -99999.99
6/4/2022 4:15:00 AM -99999.99 -179968 -99999.99 -99999.99 -99999.99 -99999.99
6/4/2022 4:30:00 AM -99999.99 -179968 -99999.99 -99999.99 -99999.99 -99999.99
6/4/2022 4:45:00 AM -99999.99 -179968 -99999.99 -99999.99 -99999.99 -99999.99
6/4/2022 5:00:00 AM -99999.99 -179968 -99999.99 -99999.99 -99999.99 -99999.99
6/4/2022 5:15:00 AM -99999.99 -179968 -99999.99 -99999.99 -99999.99 -99999.99
6/4/2022 5:30:00 AM -99999.99 -179968 -99999.99 -99999.99 -99999.99 -99999.99
6/4/2022 5:45:00 AM -99999.99 -179968 -99999.99 -99999.99 -99999.99 -99999.99
6/4/2022 6:00:00 AM -99999.99 -179968 -99999.99 -99999.99 -99999.99 -99999.99
6/4/2022 6:15:00 AM -99999.99 -179968 -99999.99 -99999.99 -99999.99 -99999.99
6/4/2022 6:30:00 AM -99999.99 -179968 -99999.99 -99999.99 -99999.99 -99999.99
6/4/2022 6:45:00 AM -99999.99 -179968 -99999.99 -99999.99 -99999.99 -99999.99
6/4/2022 7:00:00 AM -99999.99 -179968 -99999.99 -99999.99 -99999.99 -99999.99
6/4/2022 7:15:00 AM -99999.99 -179968 -99999.99 -99999.99 -99999.99 -99999.99
6/4/2022 7:30:00 AM -99999.99 -179968 -99999.99 -99999.99 -99999.99 -99999.99
6/4/2022 7:45:00 AM -99999.99 -179968 -99999.99 -99999.99 -99999.99 -99999.99
6/4/2022 8:00:00 AM -99999.99 -179968 -99999.99 -99999.99 -99999.99 -99999.99
6/4/2022 8:15:00 AM -99999.99 -179968 -99999.99 -99999.99 -99999.99 -99999.99
6/4/2022 8:30:00 AM -99999.99 -179968 -99999.99 -99999.99 -99999.99 -99999.99
6/4/2022 8:45:00 AM -99999.99 -179968 -99999.99 -99999.99 -99999.99 -99999.99
6/4/2022 9:00:00 AM -99999.99 -179968 -99999.99 -99999.99 -99999.99 -99999.99
6/4/2022 9:15:00 AM -99999.99 -179968 -99999.99 -99999.99 -99999.99 -99999.99
6/4/2022 9:30:00 AM -99999.99 -179968 -99999.99 -99999.99 -99999.99 -99999.99
6/4/2022 9:45:00 AM -99999.99 -179968 -99999.99 -99999.99 -99999.99 -99999.99
6/4/2022 10:00:00 AM -99999.99 -179968 -99999.99 -99999.99 -99999.99 -99999.99
6/4/2022 10:15:00 AM -99999.99 -179968 -99999.99 -99999.99 -99999.99 -99999.99
6/4/2022 10:30:00 AM -99999.99 -179968 -99999.99 -99999.99 -99999.99 -99999.99
6/4/2022 10:45:00 AM -99999.99 -179968 -99999.99 -99999.99 -99999.99 -99999.99
6/4/2022 11:00:00 AM -99999.99 -179968 -99999.99 -99999.99 -99999.99 -99999.99
6/4/2022 11:15:00 AM -99999.99 -179968 -99999.99 -99999.99 -99999.99 -99999.99
6/4/2022 11:30:00 AM -99999.99 -179968 -99999.99 -99999.99 -99999.99 -99999.99
6/4/2022 11:45:00 AM -99999.99 -179968 -99999.99 -99999.99 -99999.99 -99999.99
6/4/2022 12:00:00 PM -99999.99 -179968 -99999.99 -99999.99 -99999.99 -99999.99
6/4/2022 12:15:00 PM -99999.99 -179968 -99999.99 -99999.99 -99999.99 -99999.99
6/4/2022 12:30:00 PM -99999.99 -179968 -99999.99 -99999.99 -99999.99 -99999.99
6/4/2022 12:45:00 PM -99999.99 -179968 -99999.99 -99999.99 -99999.99 -99999.99
6/4/2022 1:00:00 PM -99999.99 -179968 -99999.99 -99999.99 -99999.99 -99999.99
6/4/2022 1:15:00 PM -99999.99 -179968 -99999.99 -99999.99 -99999.99 -99999.99
6/4/2022 1:30:00 PM -99999.99 -179968 -99999.99 -99999.99 -99999.99 -99999.99
6/4/2022 1:45:00 PM -99999.99 -179968 -99999.99 -99999.99 -99999.99 -99999.99
6/4/2022 2:00:00 PM -99999.99 -179968 -99999.99 -99999.99 -99999.99 -99999.99
6/4/2022 2:15:00 PM -99999.99 -179968 -99999.99 -99999.99 -99999.99 -99999.99
6/4/2022 2:30:00 PM -99999.99 -179968 -99999.99 -99999.99 -99999.99 -99999.99
6/4/2022 2:45:00 PM -99999.99 -179968 -99999.99 -99999.99 -99999.99 -99999.99
6/4/2022 3:00:00 PM -99999.99 -179968 -99999.99 -99999.99 -99999.99 -99999.99
6/4/2022 3:15:00 PM -99999.99 -179968 -99999.99 -99999.99 -99999.99 -99999.99
6/4/2022 3:30:00 PM -99999.99 -179968 -99999.99 -99999.99 -99999.99 -99999.99
6/4/2022 3:45:00 PM -99999.99 -179968 -99999.99 -99999.99 -99999.99 -99999.99
6/4/2022 4:00:00 PM -99999.99 -179968 -99999.99 -99999.99 -99999.99 -99999.99
6/4/2022 4:15:00 PM -99999.99 -179968 -99999.99 -99999.99 -99999.99 -99999.99
6/4/2022 4:30:00 PM -99999.99 -179968 -99999.99 -99999.99 -99999.99 -99999.99
6/4/2022 4:45:00 PM -99999.99 -179968 -99999.99 -99999.99 -99999.99 -99999.99
6/4/2022 5:00:00 PM -99999.99 -179968 -99999.99 -99999.99 -99999.99 -99999.99
6/4/2022 5:15:00 PM -99999.99 -179968 -99999.99 -99999.99 -99999.99 -99999.99
6/4/2022 5:30:00 PM -99999.99 -179968 -99999.99 -99999.99 -99999.99 -99999.99
6/4/2022 5:45:00 PM -99999.99 -179968 -99999.99 -99999.99 -99999.99 -99999.99
6/4/2022 6:00:00 PM -99999.99 -179968 -99999.99 -99999.99 -99999.99 -99999.99
6/4/2022 6:15:00 PM -99999.99 -179968 -99999.99 -99999.99 -99999.99 -99999.99
6/4/2022 6:30:00 PM -99999.99 -179968 -99999.99 -99999.99 -99999.99 -99999.99
6/4/2022 6:45:00 PM -99999.99 -179968 -99999.99 -99999.99 -99999.99 -99999.99
6/4/2022 7:00:00 PM -99999.99 -179968 -99999.99 -99999.99 -99999.99 -99999.99
6/4/2022 7:15:00 PM -99999.99 -179968 -99999.99 -99999.99 -99999.99 -99999.99
6/4/2022 7:30:00 PM -99999.99 -179968 -99999.99 -99999.99 -99999.99 -99999.99
6/4/2022 7:45:00 PM -99999.99 -179968 -99999.99 -99999.99 -99999.99 -99999.99
6/4/2022 8:00:00 PM -99999.99 -179968 -99999.99 -99999.99 -99999.99 -99999.99
6/4/2022 8:15:00 PM -99999.99 -179968 -99999.99 -99999.99 -99999.99 -99999.99
6/4/2022 8:30:00 PM -99999.99 -179968 -99999.99 -99999.99 -99999.99 -99999.99
6/4/2022 8:45:00 PM -99999.99 -179968 -99999.99 -99999.99 -99999.99 -99999.99
6/4/2022 9:00:00 PM -99999.99 -179968 -99999.99 -99999.99 -99999.99 -99999.99
6/4/2022 9:15:00 PM -99999.99 -179968 -99999.99 -99999.99 -99999.99 -99999.99
6/4/2022 9:30:00 PM -99999.99 -179968 -99999.99 -99999.99 -99999.99 -99999.99
6/4/2022 9:45:00 PM -99999.99 -179968 -99999.99 -99999.99 -99999.99 -99999.99
6/4/2022 10:00:00 PM -99999.99 -179968 -99999.99 -99999.99 -99999.99 -99999.99
6/4/2022 10:15:00 PM -99999.99 -179968 -99999.99 -99999.99 -99999.99 -99999.99
6/4/2022 10:30:00 PM -99999.99 -179968 -99999.99 -99999.99 -99999.99 -99999.99
6/4/2022 10:45:00 PM -99999.99 -179968 -99999.99 -99999.99 -99999.99 -99999.99
6/4/2022 11:00:00 PM -99999.99 -179968 -99999.99 -99999.99 -99999.99 -99999.99
6/4/2022 11:15:00 PM -99999.99 -179968 -99999.99 -99999.99 -99999.99 -99999.99
6/4/2022 11:30:00 PM -99999.99 -179968 -99999.99 -99999.99 -99999.99 -99999.99
6/4/2022 11:45:00 PM -99999.99 -179968 -99999.99 -99999.99 -99999.99 -99999.99
6/5/2022 12:00:00 AM -99999.99 -179968 -99999.99 -99999.99 -99999.99 -99999.99
6/5/2022 12:15:00 AM -99999.99 -179968 -99999.99 -99999.99 -99999.99 -99999.99
6/5/2022 12:30:00 AM -99999.99 -179968 -99999.99 -99999.99 -99999.99 -99999.99
6/5/2022 12:45:00 AM -99999.99 -179968 -99999.99 -99999.99 -99999.99 -99999.99
6/5/2022 1:00:00 AM -99999.99 -179968 -99999.99 -99999.99 -99999.99 -99999.99
6/5/2022 1:15:00 AM -99999.99 -179968 -99999.99 -99999.99 -99999.99 -99999.99
6/5/2022 1:30:00 AM -99999.99 -179968 -99999.99 -99999.99 -99999.99 -99999.99
6/5/2022 1:45:00 AM -99999.99 -179968 -99999.99 -99999.99 -99999.99 -99999.99
6/5/2022 2:00:00 AM -99999.99 -179968 -99999.99 -99999.99 -99999.99 -99999.99
6/5/2022 2:15:00 AM -99999.99 -179968 -99999.99 -99999.99 -99999.99 -99999.99
6/5/2022 2:30:00 AM -99999.99 -179968 -99999.99 -99999.99 -99999.99 -99999.99
6/5/2022 2:45:00 AM -99999.99 -179968 -99999.99 -99999.99 -99999.99 -99999.99
6/5/2022 3:00:00 AM -99999.99 -179968 -99999.99 -99999.99 -99999.99 -99999.99
6/5/2022 3:15:00 AM -99999.99 -179968 -99999.99 -99999.99 -99999.99 -99999.99
6/5/2022 3:30:00 AM -99999.99 -179968 -99999.99 -99999.99 -99999.99 -99999.99
6/5/2022 3:45:00 AM -99999.99 -179968 -99999.99 -99999.99 -99999.99 -99999.99
6/5/2022 4:00:00 AM -99999.99 -179968 -99999.99 -99999.99 -99999.99 -99999.99
6/5/2022 4:15:00 AM -99999.99 -179968 -99999.99 -99999.99 -99999.99 -99999.99
6/5/2022 4:30:00 AM -99999.99 -179968 -99999.99 -99999.99 -99999.99 -99999.99
6/5/2022 4:45:00 AM -99999.99 -179968 -99999.99 -99999.99 -99999.99 -99999.99
6/5/2022 5:00:00 AM -99999.99 -179968 -99999.99 -99999.99 -99999.99 -99999.99
6/5/2022 5:15:00 AM -99999.99 -179968 -99999.99 -99999.99 -99999.99 -99999.99
6/5/2022 5:30:00 AM -99999.99 -179968 -99999.99 -99999.99 -99999.99 -99999.99
6/5/2022 5:45:00 AM -99999.99 -179968 -99999.99 -99999.99 -99999.99 -99999.99
6/5/2022 6:00:00 AM -99999.99 -179968 -99999.99 -99999.99 -99999.99 -99999.99
6/5/2022 6:15:00 AM -99999.99 -179968 -99999.99 -99999.99 -99999.99 -99999.99
6/5/2022 6:30:00 AM -99999.99 -179968 -99999.99 -99999.99 -99999.99 -99999.99
6/5/2022 6:45:00 AM -99999.99 -179968 -99999.99 -99999.99 -99999.99 -99999.99
6/5/2022 7:00:00 AM -99999.99 -179968 -99999.99 -99999.99 -99999.99 -99999.99
6/5/2022 7:15:00 AM -99999.99 -179968 -99999.99 -99999.99 -99999.99 -99999.99
6/5/2022 7:30:00 AM -99999.99 -179968 -99999.99 -99999.99 -99999.99 -99999.99
6/5/2022 7:45:00 AM -99999.99 -179968 -99999.99 -99999.99 -99999.99 -99999.99
6/5/2022 8:00:00 AM -99999.99 -179968 -99999.99 -99999.99 -99999.99 -99999.99
6/5/2022 8:15:00 AM -99999.99 -179968 -99999.99 -99999.99 -99999.99 -99999.99
6/5/2022 8:30:00 AM -99999.99 -179968 -99999.99 -99999.99 -99999.99 -99999.99
6/5/2022 8:45:00 AM -99999.99 -179968 -99999.99 -99999.99 -99999.99 -99999.99
6/5/2022 9:00:00 AM -99999.99 -179968 -99999.99 -99999.99 -99999.99 -99999.99
6/5/2022 9:15:00 AM -99999.99 -179968 -99999.99 -99999.99 -99999.99 -99999.99
6/5/2022 9:30:00 AM -99999.99 -179968 -99999.99 -99999.99 -99999.99 -99999.99
6/5/2022 9:45:00 AM -99999.99 -179968 -99999.99 -99999.99 -99999.99 -99999.99
6/5/2022 10:00:00 AM -99999.99 -179968 -99999.99 -99999.99 -99999.99 -99999.99
6/5/2022 10:15:00 AM -99999.99 -179968 -99999.99 -99999.99 -99999.99 -99999.99
6/5/2022 10:30:00 AM -99999.99 -179968 -99999.99 -99999.99 -99999.99 -99999.99
6/5/2022 10:45:00 AM -99999.99 -179968 -99999.99 -99999.99 -99999.99 -99999.99
6/5/2022 11:00:00 AM -99999.99 -179968 -99999.99 -99999.99 -99999.99 -99999.99
6/5/2022 11:15:00 AM -99999.99 -179968 -99999.99 -99999.99 -99999.99 -99999.99
6/5/2022 11:30:00 AM -99999.99 -179968 -99999.99 -99999.99 -99999.99 -99999.99
6/5/2022 11:45:00 AM -99999.99 -179968 -99999.99 -99999.99 -99999.99 -99999.99
6/5/2022 12:00:00 PM -99999.99 -179968 -99999.99 -99999.99 -99999.99 -99999.99
6/5/2022 12:15:00 PM -99999.99 -179968 -99999.99 -99999.99 -99999.99 -99999.99
6/5/2022 12:30:00 PM -99999.99 -179968 -99999.99 -99999.99 -99999.99 -99999.99
6/5/2022 12:45:00 PM -99999.99 -179968 -99999.99 -99999.99 -99999.99 -99999.99
6/5/2022 1:00:00 PM -99999.99 -179968 -99999.99 -99999.99 -99999.99 -99999.99
6/5/2022 1:15:00 PM -99999.99 -179968 -99999.99 -99999.99 -99999.99 -99999.99
6/5/2022 1:30:00 PM -99999.99 -179968 -99999.99 -99999.99 -99999.99 -99999.99
6/5/2022 1:45:00 PM -99999.99 -179968 -99999.99 -99999.99 -99999.99 -99999.99
6/5/2022 2:00:00 PM -99999.99 -179968 -99999.99 -99999.99 -99999.99 -99999.99
6/5/2022 2:15:00 PM -99999.99 -179968 -99999.99 -99999.99 -99999.99 -99999.99
6/5/2022 2:30:00 PM -99999.99 -179968 -99999.99 -99999.99 -99999.99 -99999.99
6/5/2022 2:45:00 PM -99999.99 -179968 -99999.99 -99999.99 -99999.99 -99999.99
6/5/2022 3:00:00 PM -99999.99 -179968 -99999.99 -99999.99 -99999.99 -99999.99
6/5/2022 3:15:00 PM -99999.99 -179968 -99999.99 -99999.99 -99999.99 -99999.99
6/5/2022 3:30:00 PM -99999.99 -179968 -99999.99 -99999.99 -99999.99 -99999.99
6/5/2022 3:45:00 PM -99999.99 -179968 -99999.99 -99999.99 -99999.99 -99999.99
6/5/2022 4:00:00 PM -99999.99 -179968 -99999.99 -99999.99 -99999.99 -99999.99
6/5/2022 4:15:00 PM -99999.99 -179968 -99999.99 -99999.99 -99999.99 -99999.99
6/5/2022 4:30:00 PM -99999.99 -179968 -99999.99 -99999.99 -99999.99 -99999.99
6/5/2022 4:45:00 PM -99999.99 -179968 -99999.99 -99999.99 -99999.99 -99999.99
6/5/2022 5:00:00 PM -99999.99 -179968 -99999.99 -99999.99 -99999.99 -99999.99
6/5/2022 5:15:00 PM -99999.99 -179968 -99999.99 -99999.99 -99999.99 -99999.99
6/5/2022 5:30:00 PM -99999.99 -179968 -99999.99 -99999.99 -99999.99 -99999.99
6/5/2022 5:45:00 PM -99999.99 -179968 -99999.99 -99999.99 -99999.99 -99999.99
6/5/2022 6:00:00 PM -99999.99 -179968 -99999.99 -99999.99 -99999.99 -99999.99
6/5/2022 6:15:00 PM -99999.99 -179968 -99999.99 -99999.99 -99999.99 -99999.99
6/5/2022 6:30:00 PM -99999.99 -179968 -99999.99 -99999.99 -99999.99 -99999.99
6/5/2022 6:45:00 PM -99999.99 -179968 -99999.99 -99999.99 -99999.99 -99999.99
6/5/2022 7:00:00 PM -99999.99 -179968 -99999.99 -99999.99 -99999.99 -99999.99
6/5/2022 7:15:00 PM -99999.99 -179968 -99999.99 -99999.99 -99999.99 -99999.99
6/5/2022 7:30:00 PM -99999.99 -179968 -99999.99 -99999.99 -99999.99 -99999.99
6/5/2022 7:45:00 PM -99999.99 -179968 -99999.99 -99999.99 -99999.99 -99999.99
6/5/2022 8:00:00 PM -99999.99 -179968 -99999.99 -99999.99 -99999.99 -99999.99
6/5/2022 8:15:00 PM -99999.99 -179968 -99999.99 -99999.99 -99999.99 -99999.99
6/5/2022 8:30:00 PM -99999.99 -179968 -99999.99 -99999.99 -99999.99 -99999.99
6/5/2022 8:45:00 PM -99999.99 -179968 -99999.99 -99999.99 -99999.99 -99999.99
6/5/2022 9:00:00 PM -99999.99 -179968 -99999.99 -99999.99 -99999.99 -99999.99
6/5/2022 9:15:00 PM -99999.99 -179968 -99999.99 -99999.99 -99999.99 -99999.99
6/5/2022 9:30:00 PM -99999.99 -179968 -99999.99 -99999.99 -99999.99 -99999.99
6/5/2022 9:45:00 PM -99999.99 -179968 -99999.99 -99999.99 -99999.99 -99999.99
6/5/2022 10:00:00 PM -99999.99 -179968 -99999.99 -99999.99 -99999.99 -99999.99
6/5/2022 10:15:00 PM -99999.99 -179968 -99999.99 -99999.99 -99999.99 -99999.99
6/5/2022 10:30:00 PM -99999.99 -179968 -99999.99 -99999.99 -99999.99 -99999.99
6/5/2022 10:45:00 PM -99999.99 -179968 -99999.99 -99999.99 -99999.99 -99999.99
6/5/2022 11:00:00 PM -99999.99 -179968 -99999.99 -99999.99 -99999.99 -99999.99
6/5/2022 11:15:00 PM -99999.99 -179968 -99999.99 -99999.99 -99999.99 -99999.99
6/5/2022 11:30:00 PM -99999.99 -179968 -99999.99 -99999.99 -99999.99 -99999.99
6/5/2022 11:45:00 PM -99999.99 -179968 -99999.99 -99999.99 -99999.99 -99999.99
6/6/2022 12:00:00 AM -99999.99 -179968 -99999.99 -99999.99 -99999.99 -99999.99
6/6/2022 12:15:00 AM -99999.99 -179968 -99999.99 -99999.99 -99999.99 -99999.99
6/6/2022 12:30:00 AM -99999.99 -179968 -99999.99 -99999.99 -99999.99 -99999.99
6/6/2022 12:45:00 AM -99999.99 -179968 -99999.99 -99999.99 -99999.99 -99999.99
6/6/2022 1:00:00 AM -99999.99 -179968 -99999.99 -99999.99 -99999.99 -99999.99
6/6/2022 1:15:00 AM -99999.99 -179968 -99999.99 -99999.99 -99999.99 -99999.99
6/6/2022 1:30:00 AM -99999.99 -179968 -99999.99 -99999.99 -99999.99 -99999.99
6/6/2022 1:45:00 AM -99999.99 -179968 -99999.99 -99999.99 -99999.99 -99999.99
6/6/2022 2:00:00 AM -99999.99 -179968 -99999.99 -99999.99 -99999.99 -99999.99
6/6/2022 2:15:00 AM -99999.99 -179968 -99999.99 -99999.99 -99999.99 -99999.99
6/6/2022 2:30:00 AM -99999.99 -179968 -99999.99 -99999.99 -99999.99 -99999.99
6/6/2022 2:45:00 AM -99999.99 -179968 -99999.99 -99999.99 -99999.99 -99999.99
6/6/2022 3:00:00 AM -99999.99 -179968 -99999.99 -99999.99 -99999.99 -99999.99
6/6/2022 3:15:00 AM -99999.99 -179968 -99999.99 -99999.99 -99999.99 -99999.99
6/6/2022 3:30:00 AM -99999.99 -179968 -99999.99 -99999.99 -99999.99 -99999.99
6/6/2022 3:45:00 AM -99999.99 -179968 -99999.99 -99999.99 -99999.99 -99999.99
6/6/2022 4:00:00 AM -99999.99 -179968 -99999.99 -99999.99 -99999.99 -99999.99
6/6/2022 4:15:00 AM -99999.99 -179968 -99999.99 -99999.99 -99999.99 -99999.99
6/6/2022 4:30:00 AM -99999.99 -179968 -99999.99 -99999.99 -99999.99 -99999.99
6/6/2022 4:45:00 AM -99999.99 -179968 -99999.99 -99999.99 -99999.99 -99999.99
6/6/2022 5:00:00 AM -99999.99 -179968 -99999.99 -99999.99 -99999.99 -99999.99
6/6/2022 5:15:00 AM -99999.99 -179968 -99999.99 -99999.99 -99999.99 -99999.99
6/6/2022 5:30:00 AM -99999.99 -179968 -99999.99 -99999.99 -99999.99 -99999.99
6/6/2022 5:45:00 AM -99999.99 -179968 -99999.99 -99999.99 -99999.99 -99999.99
6/6/2022 6:00:00 AM -99999.99 -179968 -99999.99 -99999.99 -99999.99 -99999.99
6/6/2022 6:15:00 AM -99999.99 -179968 -99999.99 -99999.99 -99999.99 -99999.99
6/6/2022 6:30:00 AM -99999.99 -179968 -99999.99 -99999.99 -99999.99 -99999.99
6/6/2022 6:45:00 AM -99999.99 -179968 -99999.99 -99999.99 -99999.99 -99999.99
6/6/2022 7:00:00 AM -99999.99 -179968 -99999.99 -99999.99 -99999.99 -99999.99
6/6/2022 7:15:00 AM -99999.99 -179968 -99999.99 -99999.99 -99999.99 -99999.99
6/6/2022 7:30:00 AM -99999.99 -179968 -99999.99 -99999.99 -99999.99 -99999.99
6/6/2022 7:45:00 AM -99999.99 -179968 -99999.99 -99999.99 -99999.99 -99999.99
6/6/2022 8:00:00 AM -99999.99 -179968 -99999.99 -99999.99 -99999.99 -99999.99
6/6/2022 8:15:00 AM -99999.99 -179968 -99999.99 -99999.99 -99999.99 -99999.99
6/6/2022 8:30:00 AM -99999.99 -179968 -99999.99 -99999.99 -99999.99 -99999.99
6/6/2022 8:45:00 AM -99999.99 -179968 -99999.99 -99999.99 -99999.99 -99999.99
6/6/2022 9:00:00 AM -99999.99 -179968 -99999.99 -99999.99 -99999.99 -99999.99
6/6/2022 9:15:00 AM -99999.99 -179968 -99999.99 -99999.99 -99999.99 -99999.99
6/6/2022 9:30:00 AM -99999.99 -179968 -99999.99 -99999.99 -99999.99 -99999.99
6/6/2022 9:45:00 AM -99999.99 -179968 -99999.99 -99999.99 -99999.99 -99999.99
6/6/2022 10:00:00 AM -99999.99 -179968 -99999.99 -99999.99 -99999.99 -99999.99
6/6/2022 10:15:00 AM -99999.99 -179968 -99999.99 -99999.99 -99999.99 -99999.99
6/6/2022 10:30:00 AM -99999.99 -179968 -99999.99 -99999.99 -99999.99 -99999.99
6/6/2022 10:45:00 AM -99999.99 -179968 -99999.99 -99999.99 -99999.99 -99999.99
6/6/2022 11:00:00 AM -99999.99 -179968 -99999.99 -99999.99 -99999.99 -99999.99
6/6/2022 11:15:00 AM -99999.99 -179968 -99999.99 -99999.99 -99999.99 -99999.99
6/6/2022 11:30:00 AM -99999.99 -179968 -99999.99 -99999.99 -99999.99 -99999.99
6/6/2022 11:45:00 AM -99999.99 -179968 -99999.99 -99999.99 -99999.99 -99999.99
6/6/2022 12:00:00 PM -99999.99 -179968 -99999.99 -99999.99 -99999.99 -99999.99
6/6/2022 12:15:00 PM -99999.99 -179968 -99999.99 -99999.99 -99999.99 -99999.99
6/6/2022 12:30:00 PM -99999.99 -179968 -99999.99 -99999.99 -99999.99 -99999.99
6/6/2022 12:45:00 PM -99999.99 -179968 -99999.99 -99999.99 -99999.99 -99999.99
6/6/2022 1:00:00 PM -99999.99 -179968 -99999.99 -99999.99 -99999.99 -99999.99
6/6/2022 1:15:00 PM -99999.99 -179968 -99999.99 -99999.99 -99999.99 -99999.99
6/6/2022 1:30:00 PM -99999.99 -179968 -99999.99 -99999.99 -99999.99 -99999.99
6/6/2022 1:45:00 PM -99999.99 -179968 -99999.99 -99999.99 -99999.99 -99999.99
6/6/2022 2:00:00 PM -99999.99 -179968 -99999.99 -99999.99 -99999.99 -99999.99
6/6/2022 2:15:00 PM -99999.99 -179968 -99999.99 -99999.99 -99999.99 -99999.99
6/6/2022 2:30:00 PM -99999.99 -179968 -99999.99 -99999.99 -99999.99 -99999.99
6/6/2022 2:45:00 PM -99999.99 -179968 -99999.99 -99999.99 -99999.99 -99999.99
6/6/2022 3:00:00 PM -99999.99 -179968 -99999.99 -99999.99 -99999.99 -99999.99
6/6/2022 3:15:00 PM -99999.99 -179968 -99999.99 -99999.99 -99999.99 -99999.99
6/6/2022 3:30:00 PM -99999.99 -179968 -99999.99 -99999.99 -99999.99 -99999.99
6/6/2022 3:45:00 PM -99999.99 -179968 -99999.99 -99999.99 -99999.99 -99999.99
6/6/2022 4:00:00 PM -99999.99 -179968 -99999.99 -99999.99 -99999.99 -99999.99
6/6/2022 4:15:00 PM -99999.99 -179968 -99999.99 -99999.99 -99999.99 -99999.99
6/6/2022 4:30:00 PM -99999.99 -179968 -99999.99 -99999.99 -99999.99 -99999.99
6/6/2022 4:45:00 PM -99999.99 -179968 -99999.99 -99999.99 -99999.99 -99999.99
6/6/2022 5:00:00 PM -99999.99 -179968 -99999.99 -99999.99 -99999.99 -99999.99
6/6/2022 5:15:00 PM -99999.99 -179968 -99999.99 -99999.99 -99999.99 -99999.99
6/6/2022 5:30:00 PM -99999.99 -179968 -99999.99 -99999.99 -99999.99 -99999.99
6/6/2022 5:45:00 PM -99999.99 -179968 -99999.99 -99999.99 -99999.99 -99999.99
6/6/2022 6:00:00 PM -99999.99 -179968 -99999.99 -99999.99 -99999.99 -99999.99
6/6/2022 6:15:00 PM -99999.99 -179968 -99999.99 -99999.99 -99999.99 -99999.99
6/6/2022 6:30:00 PM -99999.99 -179968 -99999.99 -99999.99 -99999.99 -99999.99
6/6/2022 6:45:00 PM -99999.99 -179968 -99999.99 -99999.99 -99999.99 -99999.99
6/6/2022 7:00:00 PM -99999.99 -179968 -99999.99 -99999.99 -99999.99 -99999.99
6/6/2022 7:15:00 PM -99999.99 -179968 -99999.99 -99999.99 -99999.99 -99999.99
6/6/2022 7:30:00 PM -99999.99 -179968 -99999.99 -99999.99 -99999.99 -99999.99
6/6/2022 7:45:00 PM -99999.99 -179968 -99999.99 -99999.99 -99999.99 -99999.99
6/6/2022 8:00:00 PM -99999.99 -179968 -99999.99 -99999.99 -99999.99 -99999.99
6/6/2022 8:15:00 PM -99999.99 -179968 -99999.99 -99999.99 -99999.99 -99999.99
6/6/2022 8:30:00 PM -99999.99 -179968 -99999.99 -99999.99 -99999.99 -99999.99
6/6/2022 8:45:00 PM -99999.99 -179968 -99999.99 -99999.99 -99999.99 -99999.99
6/6/2022 9:00:00 PM -99999.99 -179968 -99999.99 -99999.99 -99999.99 -99999.99
6/6/2022 9:15:00 PM -99999.99 -179968 -99999.99 -99999.99 -99999.99 -99999.99
6/6/2022 9:30:00 PM -99999.99 -179968 -99999.99 -99999.99 -99999.99 -99999.99
6/6/2022 9:45:00 PM -99999.99 -179968 -99999.99 -99999.99 -99999.99 -99999.99
6/6/2022 10:00:00 PM -99999.99 -179968 -99999.99 -99999.99 -99999.99 -99999.99
6/6/2022 10:15:00 PM -99999.99 -179968 -99999.99 -99999.99 -99999.99 -99999.99
6/6/2022 10:30:00 PM -99999.99 -179968 -99999.99 -99999.99 -99999.99 -99999.99
6/6/2022 10:45:00 PM -99999.99 -179968 -99999.99 -99999.99 -99999.99 -99999.99
6/6/2022 11:00:00 PM -99999.99 -179968 -99999.99 -99999.99 -99999.99 -99999.99
6/6/2022 11:15:00 PM -99999.99 -179968 -99999.99 -99999.99 -99999.99 -99999.99
6/6/2022 11:30:00 PM -99999.99 -179968 -99999.99 -99999.99 -99999.99 -99999.99
6/6/2022 11:45:00 PM -99999.99 -179968 -99999.99 -99999.99 -99999.99 -99999.99
6/7/2022 12:00:00 AM -99999.99 -179968 -99999.99 -99999.99 -99999.99 -99999.99
6/7/2022 12:15:00 AM -99999.99 -179968 -99999.99 -99999.99 -99999.99 -99999.99
6/7/2022 12:30:00 AM -99999.99 -179968 -99999.99 -99999.99 -99999.99 -99999.99
6/7/2022 12:45:00 AM -99999.99 -179968 -99999.99 -99999.99 -99999.99 -99999.99
6/7/2022 1:00:00 AM -99999.99 -179968 -99999.99 -99999.99 -99999.99 -99999.99
6/7/2022 1:15:00 AM -99999.99 -179968 -99999.99 -99999.99 -99999.99 -99999.99
6/7/2022 1:30:00 AM -99999.99 -179968 -99999.99 -99999.99 -99999.99 -99999.99
6/7/2022 1:45:00 AM -99999.99 -179968 -99999.99 -99999.99 -99999.99 -99999.99
6/7/2022 2:00:00 AM -99999.99 -179968 -99999.99 -99999.99 -99999.99 -99999.99
6/7/2022 2:15:00 AM -99999.99 -179968 -99999.99 -99999.99 -99999.99 -99999.99
6/7/2022 2:30:00 AM -99999.99 -179968 -99999.99 -99999.99 -99999.99 -99999.99
6/7/2022 2:45:00 AM -99999.99 -179968 -99999.99 -99999.99 -99999.99 -99999.99
6/7/2022 3:00:00 AM -99999.99 -179968 -99999.99 -99999.99 -99999.99 -99999.99
6/7/2022 3:15:00 AM -99999.99 -179968 -99999.99 -99999.99 -99999.99 -99999.99
6/7/2022 3:30:00 AM -99999.99 -179968 -99999.99 -99999.99 -99999.99 -99999.99
6/7/2022 3:45:00 AM -99999.99 -179968 -99999.99 -99999.99 -99999.99 -99999.99
6/7/2022 4:00:00 AM -99999.99 -179968 -99999.99 -99999.99 -99999.99 -99999.99
6/7/2022 4:15:00 AM -99999.99 -179968 -99999.99 -99999.99 -99999.99 -99999.99
6/7/2022 4:30:00 AM -99999.99 -179968 -99999.99 -99999.99 -99999.99 -99999.99
6/7/2022 4:45:00 AM -99999.99 -179968 -99999.99 -99999.99 -99999.99 -99999.99
6/7/2022 5:00:00 AM -99999.99 -179968 -99999.99 -99999.99 -99999.99 -99999.99
6/7/2022 5:15:00 AM -99999.99 -179968 -99999.99 -99999.99 -99999.99 -99999.99
6/7/2022 5:30:00 AM -99999.99 -179968 -99999.99 -99999.99 -99999.99 -99999.99
6/7/2022 5:45:00 AM -99999.99 -179968 -99999.99 -99999.99 -99999.99 -99999.99
6/7/2022 6:00:00 AM -99999.99 -179968 -99999.99 -99999.99 -99999.99 -99999.99
6/7/2022 6:15:00 AM -99999.99 -179968 -99999.99 -99999.99 -99999.99 -99999.99
6/7/2022 6:30:00 AM -99999.99 -179968 -99999.99 -99999.99 -99999.99 -99999.99
6/7/2022 6:45:00 AM -99999.99 -179968 -99999.99 -99999.99 -99999.99 -99999.99
6/7/2022 7:00:00 AM -99999.99 -179968 -99999.99 -99999.99 -99999.99 -99999.99
6/7/2022 7:15:00 AM -99999.99 -179968 -99999.99 -99999.99 -99999.99 -99999.99
6/7/2022 7:30:00 AM -99999.99 -179968 -99999.99 -99999.99 -99999.99 -99999.99
6/7/2022 7:45:00 AM -99999.99 -179968 -99999.99 -99999.99 -99999.99 -99999.99
6/7/2022 8:00:00 AM -99999.99 -179968 -99999.99 -99999.99 -99999.99 -99999.99
6/7/2022 8:15:00 AM -99999.99 -179968 -99999.99 -99999.99 -99999.99 -99999.99
6/7/2022 8:30:00 AM -99999.99 -179968 -99999.99 -99999.99 -99999.99 -99999.99
6/7/2022 8:45:00 AM -99999.99 -179968 -99999.99 -99999.99 -99999.99 -99999.99
6/7/2022 9:00:00 AM -99999.99 -179968 -99999.99 -99999.99 -99999.99 -99999.99
6/7/2022 9:15:00 AM -99999.99 -179968 -99999.99 -99999.99 -99999.99 -99999.99
6/7/2022 9:30:00 AM -99999.99 -179968 -99999.99 -99999.99 -99999.99 -99999.99
6/7/2022 9:45:00 AM -99999.99 -179968 -99999.99 -99999.99 -99999.99 -99999.99
6/7/2022 10:00:00 AM -99999.99 -179968 -99999.99 -99999.99 -99999.99 -99999.99
6/7/2022 10:15:00 AM -99999.99 -179968 -99999.99 -99999.99 -99999.99 -99999.99
6/7/2022 10:30:00 AM -99999.99 -179968 -99999.99 -99999.99 -99999.99 -99999.99
6/7/2022 10:45:00 AM -99999.99 -179968 -99999.99 -99999.99 -99999.99 -99999.99
6/7/2022 11:00:00 AM -99999.99 -179968 -99999.99 -99999.99 -99999.99 -99999.99
6/7/2022 11:15:00 AM -99999.99 -179968 -99999.99 -99999.99 -99999.99 -99999.99
6/7/2022 11:30:00 AM -99999.99 -179968 -99999.99 -99999.99 -99999.99 -99999.99
6/7/2022 11:45:00 AM -99999.99 -179968 -99999.99 -99999.99 -99999.99 -99999.99
6/7/2022 12:00:00 PM -99999.99 -179968 -99999.99 -99999.99 -99999.99 -99999.99
6/7/2022 12:15:00 PM -99999.99 -179968 -99999.99 -99999.99 -99999.99 -99999.99
6/7/2022 12:30:00 PM -99999.99 -179968 -99999.99 -99999.99 -99999.99 -99999.99
6/7/2022 12:45:00 PM -99999.99 -179968 -99999.99 -99999.99 -99999.99 -99999.99
6/7/2022 1:00:00 PM -99999.99 -179968 -99999.99 -99999.99 -99999.99 -99999.99
6/7/2022 1:15:00 PM -99999.99 -179968 -99999.99 -99999.99 -99999.99 -99999.99
6/7/2022 1:30:00 PM -99999.99 -179968 -99999.99 -99999.99 -99999.99 -99999.99
6/7/2022 1:45:00 PM -99999.99 -179968 -99999.99 -99999.99 -99999.99 -99999.99
6/7/2022 2:00:00 PM -99999.99 -179968 -99999.99 -99999.99 -99999.99 -99999.99
6/7/2022 2:15:00 PM -99999.99 -179968 -99999.99 -99999.99 -99999.99 -99999.99
6/7/2022 2:30:00 PM -99999.99 -179968 -99999.99 -99999.99 -99999.99 -99999.99
6/7/2022 2:45:00 PM -99999.99 -179968 -99999.99 -99999.99 -99999.99 -99999.99
6/7/2022 3:00:00 PM -99999.99 -179968 -99999.99 -99999.99 -99999.99 -99999.99
6/7/2022 3:15:00 PM -99999.99 -179968 -99999.99 -99999.99 -99999.99 -99999.99
6/7/2022 3:30:00 PM -99999.99 -179968 -99999.99 -99999.99 -99999.99 -99999.99
6/7/2022 3:45:00 PM -99999.99 -179968 -99999.99 -99999.99 -99999.99 -99999.99
6/7/2022 4:00:00 PM -99999.99 -179968 -99999.99 -99999.99 -99999.99 -99999.99
6/7/2022 4:15:00 PM -99999.99 -179968 -99999.99 -99999.99 -99999.99 -99999.99
6/7/2022 4:30:00 PM -99999.99 -179968 -99999.99 -99999.99 -99999.99 -99999.99
6/7/2022 4:45:00 PM -99999.99 -179968 -99999.99 -99999.99 -99999.99 -99999.99
6/7/2022 5:00:00 PM -99999.99 -179968 -99999.99 -99999.99 -99999.99 -99999.99
6/7/2022 5:15:00 PM -99999.99 -179968 -99999.99 -99999.99 -99999.99 -99999.99
6/7/2022 5:30:00 PM -99999.99 -179968 -99999.99 -99999.99 -99999.99 -99999.99
6/7/2022 5:45:00 PM -99999.99 -179968 -99999.99 -99999.99 -99999.99 -99999.99
6/7/2022 6:00:00 PM -99999.99 -179968 -99999.99 -99999.99 -99999.99 -99999.99
6/7/2022 6:15:00 PM -99999.99 -179968 -99999.99 -99999.99 -99999.99 -99999.99
6/7/2022 6:30:00 PM -99999.99 -179968 -99999.99 -99999.99 -99999.99 -99999.99
6/7/2022 6:45:00 PM -99999.99 -179968 -99999.99 -99999.99 -99999.99 -99999.99
6/7/2022 7:00:00 PM -99999.99 -179968 -99999.99 -99999.99 -99999.99 -99999.99
6/7/2022 7:15:00 PM -99999.99 -179968 -99999.99 -99999.99 -99999.99 -99999.99
6/7/2022 7:30:00 PM -99999.99 -179968 -99999.99 -99999.99 -99999.99 -99999.99
6/7/2022 7:45:00 PM -99999.99 -179968 -99999.99 -99999.99 -99999.99 -99999.99
6/7/2022 8:00:00 PM -99999.99 -179968 -99999.99 -99999.99 -99999.99 -99999.99
6/7/2022 8:15:00 PM -99999.99 -179968 -99999.99 -99999.99 -99999.99 -99999.99
6/7/2022 8:30:00 PM -99999.99 -179968 -99999.99 -99999.99 -99999.99 -99999.99
6/7/2022 8:45:00 PM -99999.99 -179968 -99999.99 -99999.99 -99999.99 -99999.99
6/7/2022 9:00:00 PM -99999.99 -179968 -99999.99 -99999.99 -99999.99 -99999.99
6/7/2022 9:15:00 PM -99999.99 -179968 -99999.99 -99999.99 -99999.99 -99999.99
6/7/2022 9:30:00 PM -99999.99 -179968 -99999.99 -99999.99 -99999.99 -99999.99
6/7/2022 9:45:00 PM -99999.99 -179968 -99999.99 -99999.99 -99999.99 -99999.99
6/7/2022 10:00:00 PM -99999.99 -179968 -99999.99 -99999.99 -99999.99 -99999.99
6/7/2022 10:15:00 PM -99999.99 -179968 -99999.99 -99999.99 -99999.99 -99999.99
6/7/2022 10:30:00 PM -99999.99 -179968 -99999.99 -99999.99 -99999.99 -99999.99
6/7/2022 10:45:00 PM -99999.99 -179968 -99999.99 -99999.99 -99999.99 -99999.99
6/7/2022 11:00:00 PM -99999.99 -179968 -99999.99 -99999.99 -99999.99 -99999.99
6/7/2022 11:15:00 PM -99999.99 -179968 -99999.99 -99999.99 -99999.99 -99999.99
6/7/2022 11:30:00 PM -99999.99 -179968 -99999.99 -99999.99 -99999.99 -99999.99
6/7/2022 11:45:00 PM -99999.99 -179968 -99999.99 -99999.99 -99999.99 -99999.99
6/8/2022 12:00:00 AM -99999.99 -179968 -99999.99 -99999.99 -99999.99 -99999.99
6/8/2022 12:15:00 AM -99999.99 -179968 -99999.99 -99999.99 -99999.99 -99999.99
6/8/2022 12:30:00 AM -99999.99 -179968 -99999.99 -99999.99 -99999.99 -99999.99
6/8/2022 12:45:00 AM -99999.99 -179968 -99999.99 -99999.99 -99999.99 -99999.99
6/8/2022 1:00:00 AM -99999.99 -179968 -99999.99 -99999.99 -99999.99 -99999.99
6/8/2022 1:15:00 AM -99999.99 -179968 -99999.99 -99999.99 -99999.99 -99999.99
6/8/2022 1:30:00 AM -99999.99 -179968 -99999.99 -99999.99 -99999.99 -99999.99
6/8/2022 1:45:00 AM -99999.99 -179968 -99999.99 -99999.99 -99999.99 -99999.99
6/8/2022 2:00:00 AM -99999.99 -179968 -99999.99 -99999.99 -99999.99 -99999.99
6/8/2022 2:15:00 AM -99999.99 -179968 -99999.99 -99999.99 -99999.99 -99999.99
6/8/2022 2:30:00 AM -99999.99 -179968 -99999.99 -99999.99 -99999.99 -99999.99
6/8/2022 2:45:00 AM -99999.99 -179968 -99999.99 -99999.99 -99999.99 -99999.99
6/8/2022 3:00:00 AM -99999.99 -179968 -99999.99 -99999.99 -99999.99 -99999.99
6/8/2022 3:15:00 AM -99999.99 -179968 -99999.99 -99999.99 -99999.99 -99999.99
6/8/2022 3:30:00 AM -99999.99 -179968 -99999.99 -99999.99 -99999.99 -99999.99
6/8/2022 3:45:00 AM -99999.99 -179968 -99999.99 -99999.99 -99999.99 -99999.99
6/8/2022 4:00:00 AM -99999.99 -179968 -99999.99 -99999.99 -99999.99 -99999.99
6/8/2022 4:15:00 AM -99999.99 -179968 -99999.99 -99999.99 -99999.99 -99999.99
6/8/2022 4:30:00 AM -99999.99 -179968 -99999.99 -99999.99 -99999.99 -99999.99
6/8/2022 4:45:00 AM -99999.99 -179968 -99999.99 -99999.99 -99999.99 -99999.99
6/8/2022 5:00:00 AM -99999.99 -179968 -99999.99 -99999.99 -99999.99 -99999.99
6/8/2022 5:15:00 AM -99999.99 -179968 -99999.99 -99999.99 -99999.99 -99999.99
6/8/2022 5:30:00 AM -99999.99 -179968 -99999.99 -99999.99 -99999.99 -99999.99
6/8/2022 5:45:00 AM -99999.99 -179968 -99999.99 -99999.99 -99999.99 -99999.99
6/8/2022 6:00:00 AM -99999.99 -179968 -99999.99 -99999.99 -99999.99 -99999.99
6/8/2022 6:15:00 AM -99999.99 -179968 -99999.99 -99999.99 -99999.99 -99999.99
6/8/2022 6:30:00 AM -99999.99 -179968 -99999.99 -99999.99 -99999.99 -99999.99
6/8/2022 6:45:00 AM -99999.99 -179968 -99999.99 -99999.99 -99999.99 -99999.99
6/8/2022 7:00:00 AM -99999.99 -179968 -99999.99 -99999.99 -99999.99 -99999.99
6/8/2022 7:15:00 AM -99999.99 -179968 -99999.99 -99999.99 -99999.99 -99999.99
6/8/2022 7:30:00 AM -99999.99 -179968 -99999.99 -99999.99 -99999.99 -99999.99
6/8/2022 7:45:00 AM -99999.99 -179968 -99999.99 -99999.99 -99999.99 -99999.99
6/8/2022 8:00:00 AM -99999.99 -179968 -99999.99 -99999.99 -99999.99 -99999.99
6/8/2022 8:15:00 AM -99999.99 -179968 -99999.99 -99999.99 -99999.99 -99999.99
6/8/2022 8:30:00 AM -99999.99 -179968 -99999.99 -99999.99 -99999.99 -99999.99
6/8/2022 8:45:00 AM -99999.99 -179968 -99999.99 -99999.99 -99999.99 -99999.99
6/8/2022 9:00:00 AM -99999.99 -179968 -99999.99 -99999.99 -99999.99 -99999.99
6/8/2022 9:15:00 AM -99999.99 -179968 -99999.99 -99999.99 -99999.99 -99999.99
6/8/2022 9:30:00 AM -99999.99 -179968 -99999.99 -99999.99 -99999.99 -99999.99
6/8/2022 9:45:00 AM -99999.99 -179968 -99999.99 -99999.99 -99999.99 -99999.99
6/8/2022 10:00:00 AM -99999.99 -179968 -99999.99 -99999.99 -99999.99 -99999.99
6/8/2022 10:15:00 AM -99999.99 -179968 -99999.99 -99999.99 -99999.99 -99999.99
6/8/2022 10:30:00 AM -99999.99 -179968 -99999.99 -99999.99 -99999.99 -99999.99
6/8/2022 10:45:00 AM -99999.99 -179968 -99999.99 -99999.99 -99999.99 -99999.99
6/8/2022 11:00:00 AM -99999.99 -179968 -99999.99 -99999.99 -99999.99 -99999.99
6/8/2022 11:15:00 AM -99999.99 -179968 -99999.99 -99999.99 -99999.99 -99999.99
6/8/2022 11:30:00 AM -99999.99 -179968 -99999.99 -99999.99 -99999.99 -99999.99
6/8/2022 11:45:00 AM -99999.99 -179968 -99999.99 -99999.99 -99999.99 -99999.99
6/8/2022 12:00:00 PM -99999.99 -179968 -99999.99 -99999.99 -99999.99 -99999.99
6/8/2022 12:15:00 PM -99999.99 -179968 -99999.99 -99999.99 -99999.99 -99999.99
6/8/2022 12:30:00 PM -99999.99 -179968 -99999.99 -99999.99 -99999.99 -99999.99
6/8/2022 12:45:00 PM -99999.99 -179968 -99999.99 -99999.99 -99999.99 -99999.99
6/8/2022 1:00:00 PM -99999.99 -179968 -99999.99 -99999.99 -99999.99 -99999.99
6/8/2022 1:15:00 PM -99999.99 -179968 -99999.99 -99999.99 -99999.99 -99999.99
6/8/2022 1:30:00 PM -99999.99 -179968 -99999.99 -99999.99 -99999.99 -99999.99
6/8/2022 1:45:00 PM -99999.99 -179968 -99999.99 -99999.99 -99999.99 -99999.99
6/8/2022 2:00:00 PM -99999.99 -179968 -99999.99 -99999.99 -99999.99 -99999.99
6/8/2022 2:15:00 PM -99999.99 -179968 -99999.99 -99999.99 -99999.99 -99999.99
6/8/2022 2:30:00 PM -99999.99 -179968 -99999.99 -99999.99 -99999.99 -99999.99
6/8/2022 2:45:00 PM -99999.99 -179968 -99999.99 -99999.99 -99999.99 -99999.99
6/8/2022 3:00:00 PM -99999.99 -179968 -99999.99 -99999.99 -99999.99 -99999.99
6/8/2022 3:15:00 PM -99999.99 -179968 -99999.99 -99999.99 -99999.99 -99999.99
6/8/2022 3:30:00 PM -99999.99 -179968 -99999.99 -99999.99 -99999.99 -99999.99
6/8/2022 3:45:00 PM -99999.99 -179968 -99999.99 -99999.99 -99999.99 -99999.99
6/8/2022 4:00:00 PM -99999.99 -179968 -99999.99 -99999.99 -99999.99 -99999.99
6/8/2022 4:15:00 PM -99999.99 -179968 -99999.99 -99999.99 -99999.99 -99999.99
6/8/2022 4:30:00 PM -99999.99 -179968 -99999.99 -99999.99 -99999.99 -99999.99
6/8/2022 4:45:00 PM -99999.99 -179968 -99999.99 -99999.99 -99999.99 -99999.99
6/8/2022 5:00:00 PM -99999.99 -179968 -99999.99 -99999.99 -99999.99 -99999.99
6/8/2022 5:15:00 PM -99999.99 -179968 -99999.99 -99999.99 -99999.99 -99999.99
6/8/2022 5:30:00 PM -99999.99 -179968 -99999.99 -99999.99 -99999.99 -99999.99
6/8/2022 5:45:00 PM -99999.99 -179968 -99999.99 -99999.99 -99999.99 -99999.99
6/8/2022 6:00:00 PM -99999.99 -179968 -99999.99 -99999.99 -99999.99 -99999.99
6/8/2022 6:15:00 PM -99999.99 -179968 -99999.99 -99999.99 -99999.99 -99999.99
6/8/2022 6:30:00 PM -99999.99 -179968 -99999.99 -99999.99 -99999.99 -99999.99
6/8/2022 6:45:00 PM -99999.99 -179968 -99999.99 -99999.99 -99999.99 -99999.99
6/8/2022 7:00:00 PM -99999.99 -179968 -99999.99 -99999.99 -99999.99 -99999.99
6/8/2022 7:15:00 PM -99999.99 -179968 -99999.99 -99999.99 -99999.99 -99999.99
6/8/2022 7:30:00 PM -99999.99 -179968 -99999.99 -99999.99 -99999.99 -99999.99
6/8/2022 7:45:00 PM -99999.99 -179968 -99999.99 -99999.99 -99999.99 -99999.99
6/8/2022 8:00:00 PM -99999.99 -179968 -99999.99 -99999.99 -99999.99 -99999.99
6/8/2022 8:15:00 PM -99999.99 -179968 -99999.99 -99999.99 -99999.99 -99999.99
6/8/2022 8:30:00 PM -99999.99 -179968 -99999.99 -99999.99 -99999.99 -99999.99
6/8/2022 8:45:00 PM -99999.99 -179968 -99999.99 -99999.99 -99999.99 -99999.99
6/8/2022 9:00:00 PM -99999.99 -179968 -99999.99 -99999.99 -99999.99 -99999.99
6/8/2022 9:15:00 PM -99999.99 -179968 -99999.99 -99999.99 -99999.99 -99999.99
6/8/2022 9:30:00 PM -99999.99 -179968 -99999.99 -99999.99 -99999.99 -99999.99
6/8/2022 9:45:00 PM -99999.99 -179968 -99999.99 -99999.99 -99999.99 -99999.99
6/8/2022 10:00:00 PM -99999.99 -179968 -99999.99 -99999.99 -99999.99 -99999.99
6/8/2022 10:15:00 PM -99999.99 -179968 -99999.99 -99999.99 -99999.99 -99999.99
6/8/2022 10:30:00 PM -99999.99 -179968 -99999.99 -99999.99 -99999.99 -99999.99
6/8/2022 10:45:00 PM -99999.99 -179968 -99999.99 -99999.99 -99999.99 -99999.99
6/8/2022 11:00:00 PM -99999.99 -179968 -99999.99 -99999.99 -99999.99 -99999.99
6/8/2022 11:15:00 PM -99999.99 -179968 -99999.99 -99999.99 -99999.99 -99999.99
6/8/2022 11:30:00 PM -99999.99 -179968 -99999.99 -99999.99 -99999.99 -99999.99
6/8/2022 11:45:00 PM -99999.99 -179968 -99999.99 -99999.99 -99999.99 -99999.99
6/9/2022 12:00:00 AM -99999.99 -179968 -99999.99 -99999.99 -99999.99 -99999.99
6/9/2022 12:15:00 AM -99999.99 -179968 -99999.99 -99999.99 -99999.99 -99999.99
6/9/2022 12:30:00 AM -99999.99 -179968 -99999.99 -99999.99 -99999.99 -99999.99
6/9/2022 12:45:00 AM -99999.99 -179968 -99999.99 -99999.99 -99999.99 -99999.99
6/9/2022 1:00:00 AM -99999.99 -179968 -99999.99 -99999.99 -99999.99 -99999.99
6/9/2022 1:15:00 AM -99999.99 -179968 -99999.99 -99999.99 -99999.99 -99999.99
6/9/2022 1:30:00 AM -99999.99 -179968 -99999.99 -99999.99 -99999.99 -99999.99
6/9/2022 1:45:00 AM -99999.99 -179968 -99999.99 -99999.99 -99999.99 -99999.99
6/9/2022 2:00:00 AM -99999.99 -179968 -99999.99 -99999.99 -99999.99 -99999.99
6/9/2022 2:15:00 AM -99999.99 -179968 -99999.99 -99999.99 -99999.99 -99999.99
6/9/2022 2:30:00 AM -99999.99 -179968 -99999.99 -99999.99 -99999.99 -99999.99
6/9/2022 2:45:00 AM -99999.99 -179968 -99999.99 -99999.99 -99999.99 -99999.99
6/9/2022 3:00:00 AM -99999.99 -179968 -99999.99 -99999.99 -99999.99 -99999.99
6/9/2022 3:15:00 AM -99999.99 -179968 -99999.99 -99999.99 -99999.99 -99999.99
6/9/2022 3:30:00 AM -99999.99 -179968 -99999.99 -99999.99 -99999.99 -99999.99
6/9/2022 3:45:00 AM -99999.99 -179968 -99999.99 -99999.99 -99999.99 -99999.99
6/9/2022 4:00:00 AM -99999.99 -179968 -99999.99 -99999.99 -99999.99 -99999.99
6/9/2022 4:15:00 AM -99999.99 -179968 -99999.99 -99999.99 -99999.99 -99999.99
6/9/2022 4:30:00 AM -99999.99 -179968 -99999.99 -99999.99 -99999.99 -99999.99
6/9/2022 4:45:00 AM -99999.99 -179968 -99999.99 -99999.99 -99999.99 -99999.99
6/9/2022 5:00:00 AM -99999.99 -179968 -99999.99 -99999.99 -99999.99 -99999.99
6/9/2022 5:15:00 AM -99999.99 -179968 -99999.99 -99999.99 -99999.99 -99999.99
6/9/2022 5:30:00 AM -99999.99 -179968 -99999.99 -99999.99 -99999.99 -99999.99
6/9/2022 5:45:00 AM -99999.99 -179968 -99999.99 -99999.99 -99999.99 -99999.99
6/9/2022 6:00:00 AM -99999.99 -179968 -99999.99 -99999.99 -99999.99 -99999.99
6/9/2022 6:15:00 AM -99999.99 -179968 -99999.99 -99999.99 -99999.99 -99999.99
6/9/2022 6:30:00 AM -99999.99 -179968 -99999.99 -99999.99 -99999.99 -99999.99
6/9/2022 6:45:00 AM -99999.99 -179968 -99999.99 -99999.99 -99999.99 -99999.99
6/9/2022 7:00:00 AM -99999.99 -179968 -99999.99 -99999.99 -99999.99 -99999.99
6/9/2022 7:15:00 AM -99999.99 -179968 -99999.99 -99999.99 -99999.99 -99999.99
6/9/2022 7:30:00 AM -99999.99 -179968 -99999.99 -99999.99 -99999.99 -99999.99
6/9/2022 7:45:00 AM -99999.99 -179968 -99999.99 -99999.99 -99999.99 -99999.99
6/9/2022 8:00:00 AM -99999.99 -179968 -99999.99 -99999.99 -99999.99 -99999.99
6/9/2022 8:15:00 AM -99999.99 -179968 -99999.99 -99999.99 -99999.99 -99999.99
6/9/2022 8:30:00 AM -99999.99 -179968 -99999.99 -99999.99 -99999.99 -99999.99
6/9/2022 8:45:00 AM -99999.99 -179968 -99999.99 -99999.99 -99999.99 -99999.99
6/9/2022 9:00:00 AM -99999.99 -179968 -99999.99 -99999.99 -99999.99 -99999.99
6/9/2022 9:15:00 AM -99999.99 -179968 -99999.99 -99999.99 -99999.99 -99999.99
6/9/2022 9:30:00 AM -99999.99 -179968 -99999.99 -99999.99 -99999.99 -99999.99
6/9/2022 9:45:00 AM -99999.99 -179968 -99999.99 -99999.99 -99999.99 -99999.99
6/9/2022 10:00:00 AM -99999.99 -179968 -99999.99 -99999.99 -99999.99 -99999.99
6/9/2022 10:15:00 AM -99999.99 -179968 -99999.99 -99999.99 -99999.99 -99999.99
6/9/2022 10:30:00 AM -99999.99 -179968 -99999.99 -99999.99 -99999.99 -99999.99
6/9/2022 10:45:00 AM -99999.99 -179968 -99999.99 -99999.99 -99999.99 -99999.99
6/9/2022 11:00:00 AM -99999.99 -179968 -99999.99 -99999.99 -99999.99 -99999.99
6/9/2022 11:15:00 AM -99999.99 -179968 -99999.99 -99999.99 -99999.99 -99999.99
6/9/2022 11:30:00 AM -99999.99 -179968 -99999.99 -99999.99 -99999.99 -99999.99
6/9/2022 11:45:00 AM -99999.99 -179968 -99999.99 -99999.99 -99999.99 -99999.99
6/9/2022 12:00:00 PM -99999.99 -179968 -99999.99 -99999.99 -99999.99 -99999.99
6/9/2022 12:15:00 PM -99999.99 -179968 -99999.99 -99999.99 -99999.99 -99999.99
6/9/2022 12:30:00 PM -99999.99 -179968 -99999.99 -99999.99 -99999.99 -99999.99
6/9/2022 12:45:00 PM -99999.99 -179968 -99999.99 -99999.99 -99999.99 -99999.99
6/9/2022 1:00:00 PM -99999.99 -179968 -99999.99 -99999.99 -99999.99 -99999.99
6/9/2022 1:15:00 PM -99999.99 -179968 -99999.99 -99999.99 -99999.99 -99999.99
6/9/2022 1:30:00 PM -99999.99 -179968 -99999.99 -99999.99 -99999.99 -99999.99
6/9/2022 1:45:00 PM -99999.99 -179968 -99999.99 -99999.99 -99999.99 -99999.99
6/9/2022 2:00:00 PM -99999.99 -179968 -99999.99 -99999.99 -99999.99 -99999.99
6/9/2022 2:15:00 PM -99999.99 -179968 -99999.99 -99999.99 -99999.99 -99999.99
6/9/2022 2:30:00 PM -99999.99 -179968 -99999.99 -99999.99 -99999.99 -99999.99
6/9/2022 2:45:00 PM -99999.99 -179968 -99999.99 -99999.99 -99999.99 -99999.99
6/9/2022 3:00:00 PM -99999.99 -179968 -99999.99 -99999.99 -99999.99 -99999.99
6/9/2022 3:15:00 PM -99999.99 -179968 -99999.99 -99999.99 -99999.99 -99999.99
6/9/2022 3:30:00 PM -99999.99 -179968 -99999.99 -99999.99 -99999.99 -99999.99
6/9/2022 3:45:00 PM -99999.99 -179968 -99999.99 -99999.99 -99999.99 -99999.99
6/9/2022 4:00:00 PM -99999.99 -179968 -99999.99 -99999.99 -99999.99 -99999.99
6/9/2022 4:15:00 PM -99999.99 -179968 -99999.99 -99999.99 -99999.99 -99999.99
6/9/2022 4:30:00 PM -99999.99 -179968 -99999.99 -99999.99 -99999.99 -99999.99
6/9/2022 4:45:00 PM -99999.99 -179968 -99999.99 -99999.99 -99999.99 -99999.99
6/9/2022 5:00:00 PM -99999.99 -179968 -99999.99 -99999.99 -99999.99 -99999.99
6/9/2022 5:15:00 PM -99999.99 -179968 -99999.99 -99999.99 -99999.99 -99999.99
6/9/2022 5:30:00 PM -99999.99 -179968 -99999.99 -99999.99 -99999.99 -99999.99
6/9/2022 5:45:00 PM -99999.99 -179968 -99999.99 -99999.99 -99999.99 -99999.99
6/9/2022 6:00:00 PM -99999.99 -179968 -99999.99 -99999.99 -99999.99 -99999.99
6/9/2022 6:15:00 PM -99999.99 -179968 -99999.99 -99999.99 -99999.99 -99999.99
6/9/2022 6:30:00 PM -99999.99 -179968 -99999.99 -99999.99 -99999.99 -99999.99
6/9/2022 6:45:00 PM -99999.99 -179968 -99999.99 -99999.99 -99999.99 -99999.99
6/9/2022 7:00:00 PM -99999.99 -179968 -99999.99 -99999.99 -99999.99 -99999.99
6/9/2022 7:15:00 PM -99999.99 -179968 -99999.99 -99999.99 -99999.99 -99999.99
6/9/2022 7:30:00 PM -99999.99 -179968 -99999.99 -99999.99 -99999.99 -99999.99
6/9/2022 7:45:00 PM -99999.99 -179968 -99999.99 -99999.99 -99999.99 -99999.99
6/9/2022 8:00:00 PM -99999.99 -179968 -99999.99 -99999.99 -99999.99 -99999.99
6/9/2022 8:15:00 PM -99999.99 -179968 -99999.99 -99999.99 -99999.99 -99999.99
6/9/2022 8:30:00 PM -99999.99 -179968 -99999.99 -99999.99 -99999.99 -99999.99
6/9/2022 8:45:00 PM -99999.99 -179968 -99999.99 -99999.99 -99999.99 -99999.99
6/9/2022 9:00:00 PM -99999.99 -179968 -99999.99 -99999.99 -99999.99 -99999.99
6/9/2022 9:15:00 PM -99999.99 -179968 -99999.99 -99999.99 -99999.99 -99999.99
6/9/2022 9:30:00 PM -99999.99 -179968 -99999.99 -99999.99 -99999.99 -99999.99
6/9/2022 9:45:00 PM -99999.99 -179968 -99999.99 -99999.99 -99999.99 -99999.99
6/9/2022 10:00:00 PM -99999.99 -179968 -99999.99 -99999.99 -99999.99 -99999.99
6/9/2022 10:15:00 PM -99999.99 -179968 -99999.99 -99999.99 -99999.99 -99999.99
6/9/2022 10:30:00 PM -99999.99 -179968 -99999.99 -99999.99 -99999.99 -99999.99
6/9/2022 10:45:00 PM -99999.99 -179968 -99999.99 -99999.99 -99999.99 -99999.99
6/9/2022 11:00:00 PM -99999.99 -179968 -99999.99 -99999.99 -99999.99 -99999.99
6/9/2022 11:15:00 PM -99999.99 -179968 -99999.99 -99999.99 -99999.99 -99999.99
6/9/2022 11:30:00 PM -99999.99